Darstellungsparameter: Aktuell verwendete Einstellungen:
Skalierung der Graphiken ... ?
xyx+y,   Skalierungsfaktor:      Skalierung: Modus: x, Faktor: 1
Darstellungszeitraum ... ?
Vom - - bis: - -   Zeitraum: 12.01.2015 - 25.01.2015
Min/Max/Avg-Anzeige ... ?
Zeige MMA aktuell
Zeige MMA Monat
Zeige MMA alles
Zeige --A aktuell
Zeige --A Monat
Zeige --A alles
Keine MMA-Anzeige
MMA:
Keine MMA-Graphiken
MMA-Basis: 12.01.2015 - 25.01.2015
Quicknavigation für Darstellung... ?
Tage:      1T, 2T, 3T, 5T -1T -2T -3T -5T +1T +2T +3T +5T
Wochen: 1W, 2W, 3W -1W -2W -3W +1W +2W +3W
Monate: 1M, 3M, 6M -1M -3M -6M +1M +3M +6M
Jahre:    1J, 3J, 5J, 10J -1J -3J -5J -10J +1J +3J +5J +10J
Nutze für die Darstellung ... ?
Originaldaten oder Mittelwerte auf ...
Stundenbasis Tagesbasis Wochenbasis
Monatsbasis Jahresbasis      Datenbasis: Original-Daten
Darstellen als:
Statistik (Auto) Statistik J:M      Darstellung:
Zur Graphik,    zurück zur Übersicht aller Sensoren.
 
Tabellarische Datenbersicht: ?
 
Sensor: Nr:Datum:Temp:Feuchte:
Aussen-T/F 1 12-01-2015 00:02:16 5.1 C 68 %
2 12-01-2015 00:14:16 4.9 C 70 %
3 12-01-2015 00:26:16 4.8 C 71 %
4 12-01-2015 00:38:16 5 C 71 %
5 12-01-2015 00:50:16 4.9 C 74 %
6 12-01-2015 01:02:16 4.8 C 76 %
7 12-01-2015 01:14:16 4.6 C 78 %
8 12-01-2015 01:26:16 4.5 C 79 %
9 12-01-2015 01:38:16 4.6 C 81 %
10 12-01-2015 01:50:16 4.6 C 81 %
11 12-01-2015 02:02:16 4.7 C 80 %
12 12-01-2015 02:14:16 4.8 C 80 %
13 12-01-2015 02:26:16 5 C 78 %
14 12-01-2015 02:38:16 5.1 C 77 %
15 12-01-2015 02:50:17 5.3 C 76 %
16 12-01-2015 03:02:17 5.2 C 76 %
17 12-01-2015 03:14:17 5.4 C 76 %
18 12-01-2015 03:26:17 5.4 C 75 %
19 12-01-2015 03:38:17 5.4 C 75 %
20 12-01-2015 03:50:17 5.3 C 77 %
21 12-01-2015 04:02:17 5.4 C 77 %
22 12-01-2015 04:14:17 5.4 C 77 %
23 12-01-2015 04:26:17 5.3 C 79 %
24 12-01-2015 04:38:17 5.4 C 80 %
25 12-01-2015 04:50:17 5.5 C 79 %
Sensor: Nr:Datum:Temp:Feuchte:
Aussen-T/F 26 12-01-2015 05:02:17 5.5 C 79 %
27 12-01-2015 05:14:17 5.3 C 80 %
28 12-01-2015 05:26:17 5.5 C 80 %
29 12-01-2015 05:38:17 5.6 C 79 %
30 12-01-2015 05:50:17 5.7 C 77 %
31 12-01-2015 06:02:17 5.7 C 76 %
32 12-01-2015 06:14:17 5.7 C 75 %
33 12-01-2015 06:26:17 6 C 72 %
34 12-01-2015 06:38:17 5.9 C 73 %
35 12-01-2015 06:50:17 5.9 C 73 %
36 12-01-2015 07:02:17 5.8 C 73 %
37 12-01-2015 07:14:17 5.8 C 73 %
38 12-01-2015 07:26:17 5.9 C 72 %
39 12-01-2015 07:38:17 5.9 C 72 %
40 12-01-2015 07:50:17 6 C 70 %
41 12-01-2015 08:02:17 6 C 69 %
42 12-01-2015 08:14:17 6 C 69 %
43 12-01-2015 08:26:17 6 C 68 %
44 12-01-2015 08:38:17 6 C 68 %
45 12-01-2015 08:50:17 6 C 68 %
46 12-01-2015 09:02:17 6.1 C 68 %
47 12-01-2015 09:14:17 6.2 C 67 %
48 12-01-2015 09:26:17 6.2 C 66 %
49 12-01-2015 09:38:17 6.3 C 66 %
50 12-01-2015 09:50:17 6.3 C 66 %
Sensor: Nr:Datum:Temp:Feuchte:
Aussen-T/F 51 12-01-2015 10:02:17 6.3 C 66 %
52 12-01-2015 10:14:17 6.4 C 65 %
53 12-01-2015 10:26:17 6.5 C 65 %
54 12-01-2015 10:38:17 6.5 C 65 %
55 12-01-2015 10:50:17 6.4 C 66 %
56 12-01-2015 11:02:17 6.3 C 67 %
57 12-01-2015 11:14:17 6.3 C 68 %
58 12-01-2015 11:26:17 6 C 70 %
59 12-01-2015 11:38:17 6 C 72 %
60 12-01-2015 11:50:17 6.1 C 71 %
61 12-01-2015 12:02:17 6.2 C 71 %
62 12-01-2015 12:14:17 6.3 C 69 %
63 12-01-2015 12:26:17 6.3 C 69 %
64 12-01-2015 12:38:17 6.4 C 69 %
65 12-01-2015 12:50:17 6.6 C 68 %
66 12-01-2015 13:02:17 6.8 C 67 %
67 12-01-2015 13:14:17 6.8 C 67 %
68 12-01-2015 13:26:17 6.9 C 66 %
69 12-01-2015 13:38:17 6.9 C 66 %
70 12-01-2015 13:50:17 6.9 C 66 %
71 12-01-2015 14:02:18 7 C 65 %
72 12-01-2015 14:14:18 7.1 C 65 %
73 12-01-2015 14:26:17 7.1 C 65 %
74 12-01-2015 14:38:17 7.1 C 65 %
75 12-01-2015 14:50:17 7.1 C 65 %
Sensor: Nr:Datum:Temp:Feuchte:
Aussen-T/F 76 12-01-2015 15:02:17 7 C 66 %
77 12-01-2015 15:14:17 7 C 66 %
78 12-01-2015 15:26:17 6.9 C 68 %
79 12-01-2015 15:38:17 6.8 C 69 %
80 12-01-2015 15:50:17 6.8 C 69 %
81 12-01-2015 16:02:17 6.7 C 70 %
82 12-01-2015 16:14:17 6.7 C 70 %
83 12-01-2015 16:26:17 6.5 C 70 %
84 12-01-2015 16:38:17 6.5 C 70 %
85 12-01-2015 16:50:17 6.5 C 70 %
86 12-01-2015 17:02:17 6.5 C 70 %
87 12-01-2015 17:14:17 6.6 C 70 %
88 12-01-2015 17:26:17 6.5 C 70 %
89 12-01-2015 17:38:17 6.5 C 70 %
90 12-01-2015 17:50:17 6.6 C 68 %
91 12-01-2015 18:02:18 6.7 C 68 %
92 12-01-2015 18:14:18 6.7 C 67 %
93 12-01-2015 18:26:17 6.9 C 65 %
94 12-01-2015 18:38:17 7 C 64 %
95 12-01-2015 18:50:17 7 C 64 %
96 12-01-2015 19:02:17 7 C 64 %
97 12-01-2015 19:14:17 7 C 65 %
98 12-01-2015 19:26:17 7.2 C 65 %
99 12-01-2015 19:38:17 7.2 C 65 %
100 12-01-2015 19:50:17 7.2 C 66 %
Sensor: Nr:Datum:Temp:Feuchte:
Aussen-T/F 101 12-01-2015 20:02:17 7.2 C 66 %
102 12-01-2015 20:14:17 7.4 C 66 %
103 12-01-2015 20:26:17 7.5 C 65 %
104 12-01-2015 20:38:17 7.6 C 64 %
105 12-01-2015 20:50:17 7.7 C 64 %
106 12-01-2015 21:02:17 7.8 C 63 %
107 12-01-2015 21:14:17 7.8 C 62 %
108 12-01-2015 21:26:17 7.9 C 61 %
109 12-01-2015 21:38:17 7.9 C 60 %
110 12-01-2015 21:50:17 7.8 C 60 %
111 12-01-2015 22:02:18 7.7 C 60 %
112 12-01-2015 22:14:18 7.5 C 61 %
113 12-01-2015 22:26:17 7.6 C 60 %
114 12-01-2015 22:38:17 7.6 C 60 %
115 12-01-2015 22:50:17 7.5 C 60 %
116 12-01-2015 23:02:17 7.8 C 60 %
117 12-01-2015 23:14:17 7.7 C 60 %
118 12-01-2015 23:26:17 7.9 C 60 %
119 12-01-2015 23:38:17 8 C 59 %
120 12-01-2015 23:50:17 8 C 59 %
121 13-01-2015 00:02:17 8 C 59 %
122 13-01-2015 00:14:17 8 C 60 %
123 13-01-2015 00:26:17 8.1 C 60 %
124 13-01-2015 00:38:17 8.1 C 60 %
125 13-01-2015 00:50:17 8.3 C 60 %
Sensor: Nr:Datum:Temp:Feuchte:
Aussen-T/F 126 13-01-2015 01:02:17 8.4 C 59 %
127 13-01-2015 01:14:17 8.2 C 59 %
128 13-01-2015 01:26:17 8.2 C 60 %
129 13-01-2015 01:38:17 8.2 C 60 %
130 13-01-2015 01:50:17 8.3 C 60 %
131 13-01-2015 02:02:17 8.2 C 60 %
132 13-01-2015 02:14:17 8.2 C 61 %
133 13-01-2015 02:26:17 8.1 C 61 %
134 13-01-2015 02:38:17 8.2 C 61 %
135 13-01-2015 02:50:17 8.1 C 61 %
136 13-01-2015 03:02:17 7.9 C 62 %
137 13-01-2015 03:14:17 8 C 62 %
138 13-01-2015 03:26:17 8.2 C 62 %
139 13-01-2015 03:38:17 8.2 C 62 %
140 13-01-2015 03:50:17 8.1 C 62 %
141 13-01-2015 04:02:17 8.2 C 62 %
142 13-01-2015 04:14:17 8.3 C 61 %
143 13-01-2015 04:26:17 8.3 C 60 %
144 13-01-2015 04:38:17 8.6 C 58 %
145 13-01-2015 04:50:17 8.6 C 57 %
146 13-01-2015 05:02:17 8.5 C 56 %
147 13-01-2015 05:14:17 8.4 C 56 %
148 13-01-2015 05:26:17 8 C 59 %
149 13-01-2015 05:38:17 8.2 C 58 %
150 13-01-2015 05:50:17 8.2 C 58 %
Sensor: Nr:Datum:Temp:Feuchte:
Aussen-T/F 151 13-01-2015 06:02:17 8.2 C 58 %
152 13-01-2015 06:14:17 8.4 C 57 %
153 13-01-2015 06:26:17 8.6 C 56 %
154 13-01-2015 06:38:17 8.4 C 56 %
155 13-01-2015 06:50:17 8.2 C 56 %
156 13-01-2015 07:02:17 7.9 C 58 %
157 13-01-2015 07:14:17 7.8 C 59 %
158 13-01-2015 07:26:17 7.8 C 59 %
159 13-01-2015 07:38:17 8.2 C 57 %
160 13-01-2015 07:50:17 8 C 59 %
161 13-01-2015 08:02:17 8.2 C 59 %
162 13-01-2015 08:14:17 8.4 C 58 %
163 13-01-2015 08:26:17 8.1 C 60 %
164 13-01-2015 08:38:17 8.4 C 60 %
165 13-01-2015 08:50:17 8.4 C 60 %
166 13-01-2015 09:02:17 8.5 C 60 %
167 13-01-2015 09:14:17 8.6 C 59 %
168 13-01-2015 09:26:17 8.8 C 59 %
169 13-01-2015 09:38:17 8.8 C 59 %
170 13-01-2015 09:50:17 8.7 C 59 %
171 13-01-2015 10:02:17 8.7 C 59 %
172 13-01-2015 10:14:17 8.9 C 59 %
173 13-01-2015 10:26:17 8.5 C 61 %
174 13-01-2015 10:38:17 8.5 C 61 %
175 13-01-2015 10:50:17 8.7 C 60 %
Sensor: Nr:Datum:Temp:Feuchte:
Aussen-T/F 176 13-01-2015 11:02:17 8.5 C 61 %
177 13-01-2015 11:14:17 7.9 C 65 %
178 13-01-2015 11:26:17 8.5 C 61 %
179 13-01-2015 11:38:18 8 C 63 %
180 13-01-2015 11:50:17 9.2 C 57 %
181 13-01-2015 12:02:17 10 C 53 %
182 13-01-2015 12:14:17 10.2 C 50 %
183 13-01-2015 12:26:17 10.2 C 50 %
184 13-01-2015 12:38:17 10.1 C 51 %
185 13-01-2015 12:50:17 10.8 C 48 %
186 13-01-2015 13:02:17 10.9 C 48 %
187 13-01-2015 13:14:17 11.7 C 46 %
188 13-01-2015 13:26:17 12.2 C 43 %
189 13-01-2015 13:38:17 12.3 C 42 %
190 13-01-2015 13:50:17 12.7 C 42 %
191 13-01-2015 14:02:17 12.7 C 41 %
192 13-01-2015 14:14:17 12.8 C 42 %
193 13-01-2015 14:26:17 13 C 41 %
194 13-01-2015 14:38:17 13.1 C 41 %
195 13-01-2015 14:50:17 12.9 C 41 %
196 13-01-2015 15:02:17 12.8 C 42 %
197 13-01-2015 15:14:17 12.9 C 43 %
198 13-01-2015 15:26:17 12.6 C 45 %
199 13-01-2015 15:38:17 11.7 C 52 %
200 13-01-2015 15:50:17 11.2 C 58 %
Sensor: Nr:Datum:Temp:Feuchte:
Aussen-T/F 201 13-01-2015 16:02:17 11.3 C 58 %
202 13-01-2015 16:14:17 11.2 C 59 %
203 13-01-2015 16:26:17 11.1 C 61 %
204 13-01-2015 16:38:17 11.1 C 61 %
205 13-01-2015 16:50:17 11 C 62 %
206 13-01-2015 17:02:17 10.7 C 64 %
207 13-01-2015 17:14:17 10.5 C 65 %
208 13-01-2015 17:26:17 10.6 C 66 %
209 13-01-2015 17:38:17 10.6 C 66 %
210 13-01-2015 17:50:17 10.3 C 68 %
211 13-01-2015 18:02:17 10.1 C 69 %
212 13-01-2015 18:14:17 10.3 C 68 %
213 13-01-2015 18:26:17 10.3 C 67 %
214 13-01-2015 18:38:17 10.4 C 66 %
215 13-01-2015 18:50:17 9.7 C 70 %
216 13-01-2015 19:02:17 9.5 C 72 %
217 13-01-2015 19:14:17 9.5 C 72 %
218 13-01-2015 19:26:17 9.5 C 72 %
219 13-01-2015 19:38:17 9.4 C 72 %
220 13-01-2015 19:50:17 9.4 C 73 %
221 13-01-2015 20:02:17 9.4 C 72 %
222 13-01-2015 20:14:17 8.9 C 77 %
223 13-01-2015 20:26:17 8.6 C 78 %
224 13-01-2015 20:38:17 8.5 C 75 %
225 13-01-2015 20:50:17 8.3 C 75 %
Sensor: Nr:Datum:Temp:Feuchte:
Aussen-T/F 226 13-01-2015 21:02:17 8.5 C 75 %
227 13-01-2015 21:14:17 8.6 C 72 %
228 13-01-2015 21:26:17 8.5 C 70 %
229 13-01-2015 21:38:17 8.2 C 71 %
230 13-01-2015 21:50:17 7.8 C 73 %
231 13-01-2015 22:02:17 8.1 C 72 %
232 13-01-2015 22:14:17 8.1 C 72 %
233 13-01-2015 22:26:17 8.3 C 71 %
234 13-01-2015 22:38:17 8.2 C 71 %
235 13-01-2015 22:50:17 7.9 C 72 %
236 13-01-2015 23:02:17 7.5 C 74 %
237 13-01-2015 23:14:17 7.6 C 75 %
238 13-01-2015 23:26:17 7.8 C 74 %
239 13-01-2015 23:38:17 7.9 C 74 %
240 13-01-2015 23:50:17 7.8 C 74 %
241 14-01-2015 00:02:17 7.7 C 74 %
242 14-01-2015 00:14:17 7.6 C 75 %
243 14-01-2015 00:26:17 7.9 C 75 %
244 14-01-2015 00:38:17 7.9 C 75 %
245 14-01-2015 00:50:17 7.8 C 75 %
246 14-01-2015 01:02:17 7.6 C 75 %
247 14-01-2015 01:14:17 7.4 C 76 %
248 14-01-2015 01:26:17 7.6 C 77 %
249 14-01-2015 01:38:17 7.7 C 77 %
250 14-01-2015 01:50:17 7.9 C 74 %
Sensor: Nr:Datum:Temp:Feuchte:
Aussen-T/F 251 14-01-2015 02:02:17 7.5 C 73 %
252 14-01-2015 02:14:17 7.5 C 74 %
253 14-01-2015 02:26:17 7.5 C 74 %
254 14-01-2015 02:38:17 7.2 C 75 %
255 14-01-2015 02:50:17 8 C 69 %
256 14-01-2015 03:02:18 7.7 C 67 %
257 14-01-2015 03:14:18 7.9 C 65 %
258 14-01-2015 03:26:17 7.7 C 65 %
259 14-01-2015 03:38:17 8 C 63 %
260 14-01-2015 03:50:17 8.2 C 61 %
261 14-01-2015 04:02:17 8.1 C 59 %
262 14-01-2015 04:14:17 8 C 59 %
263 14-01-2015 04:26:17 8 C 59 %
264 14-01-2015 04:38:17 7.8 C 63 %
265 14-01-2015 04:50:17 7 C 70 %
266 14-01-2015 05:02:17 6.1 C 78 %
267 14-01-2015 05:14:17 5.4 C 78 %
268 14-01-2015 05:26:17 5.1 C 78 %
269 14-01-2015 05:38:17 5.2 C 78 %
270 14-01-2015 05:50:17 5 C 75 %
271 14-01-2015 06:02:17 4.7 C 77 %
272 14-01-2015 06:14:17 4.5 C 79 %
273 14-01-2015 06:26:17 4.5 C 79 %
274 14-01-2015 06:38:17 4.2 C 77 %
275 14-01-2015 06:50:16 4.5 C 75 %
Sensor: Nr:Datum:Temp:Feuchte:
Aussen-T/F 276 14-01-2015 07:02:17 4.6 C 74 %
277 14-01-2015 07:14:17 4.9 C 70 %
278 14-01-2015 07:26:17 4.8 C 69 %
279 14-01-2015 07:38:17 4.5 C 71 %
280 14-01-2015 07:50:17 4.4 C 72 %
281 14-01-2015 08:02:17 4.3 C 73 %
282 14-01-2015 08:14:17 4.4 C 71 %
283 14-01-2015 08:26:17 4.1 C 72 %
284 14-01-2015 08:38:17 4.1 C 71 %
285 14-01-2015 08:50:17 4.3 C 71 %
286 14-01-2015 09:02:17 4.1 C 71 %
287 14-01-2015 09:14:17 4.4 C 71 %
288 14-01-2015 09:26:17 4.7 C 70 %
289 14-01-2015 09:38:17 4.7 C 70 %
290 14-01-2015 09:50:17 5 C 67 %
291 14-01-2015 10:02:17 5.2 C 66 %
292 14-01-2015 10:14:17 5.4 C 66 %
293 14-01-2015 10:26:16 5.6 C 66 %
294 14-01-2015 10:38:17 5.8 C 65 %
295 14-01-2015 10:50:17 5.9 C 64 %
296 14-01-2015 11:02:17 6.1 C 63 %
297 14-01-2015 11:14:17 6.3 C 62 %
298 14-01-2015 11:26:17 6.4 C 60 %
299 14-01-2015 11:38:17 5.8 C 68 %
300 14-01-2015 11:50:17 6.1 C 68 %
Sensor: Nr:Datum:Temp:Feuchte:
Aussen-T/F 301 14-01-2015 12:02:17 6.5 C 65 %
302 14-01-2015 12:14:17 6.5 C 63 %
303 14-01-2015 12:26:17 5.9 C 64 %
304 14-01-2015 12:38:17 4.8 C 74 %
305 14-01-2015 12:50:17 4.4 C 80 %
306 14-01-2015 13:02:17 4.4 C 83 %
307 14-01-2015 13:14:17 4.2 C 85 %
308 14-01-2015 13:26:17 4.5 C 85 %
309 14-01-2015 13:38:17 4.6 C 85 %
310 14-01-2015 13:50:17 4.5 C 84 %
311 14-01-2015 14:02:17 4.7 C 84 %
312 14-01-2015 14:14:17 5.1 C 81 %
313 14-01-2015 14:26:16 5.2 C 79 %
314 14-01-2015 14:38:17 5.3 C 79 %
315 14-01-2015 14:50:17 5 C 78 %
316 14-01-2015 15:02:17 3.4 C 81 %
317 14-01-2015 15:14:17 3.5 C 82 %
318 14-01-2015 15:26:17 3.6 C 82 %
319 14-01-2015 15:38:17 3.9 C 82 %
320 14-01-2015 15:50:17 3.9 C 81 %
321 14-01-2015 16:02:17 4 C 80 %
322 14-01-2015 16:14:17 4.1 C 80 %
323 14-01-2015 16:26:17 4 C 78 %
324 14-01-2015 16:38:17 4.1 C 75 %
325 14-01-2015 16:50:17 3.8 C 76 %
Sensor: Nr:Datum:Temp:Feuchte:
Aussen-T/F 326 14-01-2015 17:02:17 3.4 C 77 %
327 14-01-2015 17:14:17 3.2 C 80 %
328 14-01-2015 17:26:17 3.3 C 81 %
329 14-01-2015 17:38:17 3.1 C 81 %
330 14-01-2015 17:50:17 2.9 C 82 %
331 14-01-2015 18:02:17 2.8 C 83 %
332 14-01-2015 18:14:17 3 C 80 %
333 14-01-2015 18:26:17 2.4 C 83 %
334 14-01-2015 18:38:17 2.3 C 84 %
335 14-01-2015 18:50:17 2.5 C 84 %
336 14-01-2015 19:02:17 2.4 C 84 %
337 14-01-2015 19:14:17 3.1 C 80 %
338 14-01-2015 19:26:17 3 C 77 %
339 14-01-2015 19:38:17 2.7 C 78 %
340 14-01-2015 19:50:17 2.5 C 79 %
341 14-01-2015 20:02:17 2.5 C 79 %
342 14-01-2015 20:14:17 2.6 C 80 %
343 14-01-2015 20:26:17 2.3 C 81 %
344 14-01-2015 20:38:17 2.1 C 82 %
345 14-01-2015 20:50:17 1.9 C 83 %
346 14-01-2015 21:02:17 1.6 C 84 %
347 14-01-2015 21:14:17 1.4 C 86 %
348 14-01-2015 21:26:17 1.5 C 88 %
349 14-01-2015 21:38:17 1.5 C 88 %
350 14-01-2015 21:50:17 1.2 C 88 %
Sensor: Nr:Datum:Temp:Feuchte:
Aussen-T/F 351 14-01-2015 22:02:17 1.4 C 89 %
352 14-01-2015 22:14:17 1.5 C 89 %
353 14-01-2015 22:26:17 1.7 C 90 %
354 14-01-2015 22:38:17 1.8 C 90 %
355 14-01-2015 22:50:17 1.6 C 90 %
356 14-01-2015 23:02:17 1.5 C 90 %
357 14-01-2015 23:14:17 1.3 C 91 %
358 14-01-2015 23:26:17 1.6 C 91 %
359 14-01-2015 23:38:17 1.6 C 91 %
360 14-01-2015 23:50:16 1.8 C 92 %
361 15-01-2015 00:02:17 1.9 C 92 %
362 15-01-2015 00:14:17 2 C 91 %
363 15-01-2015 00:26:17 2 C 91 %
364 15-01-2015 00:38:17 2.1 C 91 %
365 15-01-2015 00:50:17 2 C 90 %
366 15-01-2015 01:02:17 1.8 C 91 %
367 15-01-2015 01:14:17 1.8 C 91 %
368 15-01-2015 01:26:17 1.8 C 91 %
369 15-01-2015 01:38:17 2 C 91 %
370 15-01-2015 01:50:17 2.2 C 91 %
371 15-01-2015 02:02:17 2.3 C 92 %
372 15-01-2015 02:14:17 2.6 C 92 %
373 15-01-2015 02:26:17 2.9 C 92 %
374 15-01-2015 02:38:17 3.3 C 91 %
375 15-01-2015 02:50:17 3.7 C 92 %
Sensor: Nr:Datum:Temp:Feuchte:
Aussen-T/F 376 15-01-2015 03:02:17 3.8 C 91 %
377 15-01-2015 03:14:17 4.2 C 90 %
378 15-01-2015 03:26:17 4.4 C 90 %
379 15-01-2015 03:38:17 4.5 C 90 %
380 15-01-2015 03:50:17 4.6 C 89 %
381 15-01-2015 04:02:17 5 C 88 %
382 15-01-2015 04:14:17 5.1 C 86 %
383 15-01-2015 04:26:17 5.3 C 85 %
384 15-01-2015 04:38:17 5.6 C 83 %
385 15-01-2015 04:50:17 5.7 C 82 %
386 15-01-2015 05:02:17 5.5 C 81 %
387 15-01-2015 05:14:17 5.5 C 81 %
388 15-01-2015 05:26:17 5.6 C 81 %
389 15-01-2015 05:38:17 5.6 C 80 %
390 15-01-2015 05:50:17 5.7 C 79 %
391 15-01-2015 06:02:17 5.8 C 79 %
392 15-01-2015 06:14:17 6.4 C 76 %
393 15-01-2015 06:26:17 6.2 C 75 %
394 15-01-2015 06:38:17 6 C 76 %
395 15-01-2015 06:50:17 6.1 C 78 %
396 15-01-2015 07:02:17 6.3 C 78 %
397 15-01-2015 07:14:17 6.7 C 77 %
398 15-01-2015 07:26:17 6.7 C 76 %
399 15-01-2015 07:38:17 6.8 C 76 %
400 15-01-2015 07:50:17 6.8 C 76 %
Sensor: Nr:Datum:Temp:Feuchte:
Aussen-T/F 401 15-01-2015 08:02:17 6.8 C 76 %
402 15-01-2015 08:14:17 6.9 C 76 %
403 15-01-2015 08:26:17 7 C 74 %
404 15-01-2015 08:38:17 7 C 75 %
405 15-01-2015 08:50:17 7.4 C 74 %
406 15-01-2015 09:02:18 7.5 C 74 %
407 15-01-2015 09:14:18 7.5 C 72 %
408 15-01-2015 09:26:17 7.7 C 71 %
409 15-01-2015 09:38:17 7.9 C 70 %
410 15-01-2015 09:50:17 8.1 C 67 %
411 15-01-2015 10:02:17 8 C 67 %
412 15-01-2015 10:14:17 8.1 C 68 %
413 15-01-2015 10:26:17 8.4 C 66 %
414 15-01-2015 10:38:17 8.8 C 65 %
415 15-01-2015 10:50:17 9.2 C 63 %
416 15-01-2015 11:02:17 9.6 C 61 %
417 15-01-2015 11:14:17 9.7 C 59 %
418 15-01-2015 11:26:17 10 C 59 %
419 15-01-2015 11:38:17 10.4 C 58 %
420 15-01-2015 11:50:17 10.5 C 56 %
421 15-01-2015 12:02:17 10.5 C 54 %
422 15-01-2015 12:14:17 10.8 C 54 %
423 15-01-2015 12:26:17 10.5 C 55 %
424 15-01-2015 12:38:17 10.6 C 55 %
425 15-01-2015 12:50:17 10.9 C 54 %
Sensor: Nr:Datum:Temp:Feuchte:
Aussen-T/F 426 15-01-2015 13:02:17 10.9 C 55 %
427 15-01-2015 13:14:17 11 C 54 %
428 15-01-2015 13:26:17 11.2 C 54 %
429 15-01-2015 13:38:17 11.1 C 56 %
430 15-01-2015 13:50:17 11.1 C 55 %
431 15-01-2015 14:02:17 11 C 55 %
432 15-01-2015 14:14:17 11 C 56 %
433 15-01-2015 14:26:17 11.1 C 55 %
434 15-01-2015 14:38:17 11.1 C 54 %
435 15-01-2015 14:50:17 11.1 C 55 %
436 15-01-2015 15:02:17 11.2 C 53 %
437 15-01-2015 15:14:17 11.1 C 52 %
438 15-01-2015 15:26:17 11.1 C 50 %
439 15-01-2015 15:38:17 11 C 51 %
440 15-01-2015 15:50:17 11 C 50 %
441 15-01-2015 16:02:17 11 C 50 %
442 15-01-2015 16:14:17 10.8 C 52 %
443 15-01-2015 16:26:17 10.7 C 52 %
444 15-01-2015 16:38:17 10.9 C 51 %
445 15-01-2015 16:50:17 10.8 C 52 %
446 15-01-2015 17:02:17 10.7 C 53 %
447 15-01-2015 17:14:17 10.8 C 52 %
448 15-01-2015 17:26:17 10.6 C 53 %
449 15-01-2015 17:38:17 10.6 C 52 %
450 15-01-2015 17:50:17 10.7 C 52 %
Sensor: Nr:Datum:Temp:Feuchte:
Aussen-T/F 451 15-01-2015 18:02:17 10.5 C 52 %
452 15-01-2015 18:14:17 10.4 C 52 %
453 15-01-2015 18:26:17 10.4 C 52 %
454 15-01-2015 18:38:17 10.6 C 52 %
455 15-01-2015 18:50:17 10.7 C 52 %
456 15-01-2015 19:02:17 10.3 C 53 %
457 15-01-2015 19:14:17 10.5 C 53 %
458 15-01-2015 19:26:17 10.5 C 54 %
459 15-01-2015 19:38:17 10.2 C 55 %
460 15-01-2015 19:50:17 10.2 C 56 %
461 15-01-2015 20:02:17 10.3 C 56 %
462 15-01-2015 20:14:17 10.1 C 57 %
463 15-01-2015 20:26:17 10.4 C 56 %
464 15-01-2015 20:38:17 10.2 C 57 %
465 15-01-2015 20:50:17 10 C 58 %
466 15-01-2015 21:02:17 10 C 59 %
467 15-01-2015 21:14:17 9.8 C 61 %
468 15-01-2015 21:26:17 9.3 C 62 %
469 15-01-2015 21:38:18 9.6 C 62 %
470 15-01-2015 21:50:17 9.7 C 62 %
471 15-01-2015 22:02:17 9.7 C 62 %
472 15-01-2015 22:14:17 9.8 C 63 %
473 15-01-2015 22:26:17 9.8 C 63 %
474 15-01-2015 22:38:17 9.7 C 64 %
475 15-01-2015 22:50:17 9.7 C 64 %
Sensor: Nr:Datum:Temp:Feuchte:
Aussen-T/F 476 15-01-2015 23:02:17 9.7 C 65 %
477 15-01-2015 23:14:17 9.5 C 66 %
478 15-01-2015 23:26:17 9.2 C 68 %
479 15-01-2015 23:38:17 8.8 C 72 %
480 15-01-2015 23:50:17 8.7 C 74 %
481 16-01-2015 00:02:17 8.7 C 74 %
482 16-01-2015 00:14:17 8.7 C 73 %
483 16-01-2015 00:26:17 8.7 C 73 %
484 16-01-2015 00:38:17 8.7 C 73 %
485 16-01-2015 00:50:17 8.6 C 71 %
486 16-01-2015 01:02:17 8.7 C 69 %
487 16-01-2015 01:14:17 8.4 C 70 %
488 16-01-2015 01:26:17 8.5 C 69 %
489 16-01-2015 01:38:17 8.3 C 71 %
490 16-01-2015 01:50:17 8.1 C 73 %
491 16-01-2015 02:02:17 7.6 C 78 %
492 16-01-2015 02:14:17 7.6 C 80 %
493 16-01-2015 02:26:17 7.6 C 79 %
494 16-01-2015 02:38:17 7.5 C 78 %
495 16-01-2015 02:50:17 7.4 C 76 %
496 16-01-2015 03:02:17 7.5 C 75 %
497 16-01-2015 03:14:17 7.5 C 75 %
498 16-01-2015 03:26:17 7.5 C 75 %
499 16-01-2015 03:38:17 7.1 C 76 %
500 16-01-2015 03:50:17 7 C 77 %
Sensor: Nr:Datum:Temp:Feuchte:
Aussen-T/F 501 16-01-2015 04:02:17 6.8 C 79 %
502 16-01-2015 04:14:17 6.9 C 78 %
503 16-01-2015 04:26:17 6.9 C 77 %
504 16-01-2015 04:38:17 6.7 C 78 %
505 16-01-2015 04:50:17 6.4 C 78 %
506 16-01-2015 05:02:18 6.4 C 79 %
507 16-01-2015 05:14:18 6.7 C 78 %
508 16-01-2015 05:26:17 6.7 C 77 %
509 16-01-2015 05:38:17 6.6 C 76 %
510 16-01-2015 05:50:17 6.3 C 77 %
511 16-01-2015 06:02:17 6.4 C 76 %
512 16-01-2015 06:14:18 6.2 C 77 %
513 16-01-2015 06:26:17 6.2 C 78 %
514 16-01-2015 06:38:17 6.4 C 79 %
515 16-01-2015 06:50:17 6.4 C 77 %
516 16-01-2015 07:02:17 6.2 C 77 %
517 16-01-2015 07:14:17 5.9 C 79 %
518 16-01-2015 07:26:17 5.9 C 80 %
519 16-01-2015 07:38:17 5.8 C 81 %
520 16-01-2015 07:50:17 5.8 C 82 %
521 16-01-2015 08:02:17 6.1 C 79 %
522 16-01-2015 08:14:17 6.3 C 78 %
523 16-01-2015 08:26:17 6.2 C 77 %
524 16-01-2015 08:38:17 6.2 C 77 %
525 16-01-2015 08:50:16 6.2 C 76 %
Sensor: Nr:Datum:Temp:Feuchte:
Aussen-T/F 526 16-01-2015 09:02:17 6.2 C 77 %
527 16-01-2015 09:14:17 6.1 C 78 %
528 16-01-2015 09:26:16 6.2 C 78 %
529 16-01-2015 09:38:17 6.1 C 78 %
530 16-01-2015 09:50:17 6.1 C 79 %
531 16-01-2015 10:02:17 6.4 C 78 %
532 16-01-2015 10:14:17 6.5 C 76 %
533 16-01-2015 10:26:17 6.7 C 73 %
534 16-01-2015 10:38:17 6.8 C 70 %
535 16-01-2015 10:50:17 6.9 C 69 %
536 16-01-2015 11:02:17 6.9 C 70 %
537 16-01-2015 11:14:17 6.9 C 71 %
538 16-01-2015 11:26:17 7 C 71 %
539 16-01-2015 11:38:17 7 C 70 %
540 16-01-2015 11:50:17 7.1 C 71 %
541 16-01-2015 12:02:17 7.1 C 71 %
542 16-01-2015 12:14:17 7.1 C 70 %
543 16-01-2015 12:26:17 7.1 C 69 %
544 16-01-2015 12:38:17 7.2 C 69 %
545 16-01-2015 12:50:17 7.1 C 68 %
546 16-01-2015 13:02:18 7.1 C 66 %
547 16-01-2015 13:14:18 7.1 C 66 %
548 16-01-2015 13:26:18 7 C 65 %
549 16-01-2015 13:38:17 7 C 66 %
550 16-01-2015 13:50:17 6.9 C 67 %
Sensor: Nr:Datum:Temp:Feuchte:
Aussen-T/F 551 16-01-2015 14:02:17 6.7 C 67 %
552 16-01-2015 14:14:17 6.9 C 67 %
553 16-01-2015 14:26:17 6.9 C 67 %
554 16-01-2015 14:38:17 6.8 C 67 %
555 16-01-2015 14:50:17 6.5 C 67 %
556 16-01-2015 15:02:17 6.5 C 68 %
557 16-01-2015 15:14:17 6.4 C 68 %
558 16-01-2015 15:26:17 6.3 C 70 %
559 16-01-2015 15:38:17 6.2 C 73 %
560 16-01-2015 15:50:17 6 C 77 %
561 16-01-2015 16:02:17 5.9 C 80 %
562 16-01-2015 16:14:17 5.8 C 82 %
563 16-01-2015 16:26:17 5.7 C 84 %
564 16-01-2015 16:38:17 5.5 C 85 %
565 16-01-2015 16:50:17 5.4 C 86 %
566 16-01-2015 17:02:17 5.3 C 86 %
567 16-01-2015 17:14:17 5.2 C 86 %
568 16-01-2015 17:26:17 5.2 C 87 %
569 16-01-2015 17:38:17 5.1 C 87 %
570 16-01-2015 17:50:17 5.1 C 87 %
571 16-01-2015 18:02:17 5.1 C 88 %
572 16-01-2015 18:14:17 4.9 C 88 %
573 16-01-2015 18:26:17 4.9 C 88 %
574 16-01-2015 18:38:17 4.9 C 88 %
575 16-01-2015 18:50:17 4.8 C 88 %
Sensor: Nr:Datum:Temp:Feuchte:
Aussen-T/F 576 16-01-2015 19:02:17 4.7 C 88 %
577 16-01-2015 19:14:17 4.8 C 88 %
578 16-01-2015 19:26:17 4.8 C 89 %
579 16-01-2015 19:38:17 4.8 C 89 %
580 16-01-2015 19:50:17 4.8 C 89 %
581 16-01-2015 20:02:17 4.8 C 89 %
582 16-01-2015 20:14:17 4.8 C 88 %
583 16-01-2015 20:26:17 4.7 C 88 %
584 16-01-2015 20:38:17 4.5 C 88 %
585 16-01-2015 20:50:17 4.4 C 88 %
586 16-01-2015 21:02:17 4.5 C 88 %
587 16-01-2015 21:14:17 4.6 C 89 %
588 16-01-2015 21:26:17 4.5 C 89 %
589 16-01-2015 21:38:17 4.4 C 89 %
590 16-01-2015 21:50:17 4.5 C 89 %
591 16-01-2015 22:02:17 4.6 C 89 %
592 16-01-2015 22:14:17 4.6 C 89 %
593 16-01-2015 22:26:17 4.6 C 88 %
594 16-01-2015 22:38:17 4.6 C 88 %
595 16-01-2015 22:50:17 4.7 C 88 %
596 16-01-2015 23:02:17 4.5 C 87 %
597 16-01-2015 23:14:17 4.3 C 87 %
598 16-01-2015 23:26:17 4.2 C 88 %
599 16-01-2015 23:38:17 4.3 C 88 %
600 16-01-2015 23:50:17 4.5 C 89 %
Sensor: Nr:Datum:Temp:Feuchte:
Aussen-T/F 601 17-01-2015 00:02:17 4.4 C 88 %
602 17-01-2015 00:14:17 4.4 C 88 %
603 17-01-2015 00:26:17 4.4 C 88 %
604 17-01-2015 00:38:17 4.4 C 88 %
605 17-01-2015 00:50:17 4.3 C 88 %
606 17-01-2015 01:02:17 4.2 C 88 %
607 17-01-2015 01:14:17 4 C 88 %
608 17-01-2015 01:26:17 3.9 C 88 %
609 17-01-2015 01:38:17 4 C 88 %
610 17-01-2015 01:50:17 3.7 C 88 %
611 17-01-2015 02:02:17 3.6 C 88 %
612 17-01-2015 02:14:18 3.8 C 88 %
613 17-01-2015 02:26:17 4.3 C 86 %
614 17-01-2015 02:38:17 4.5 C 84 %
615 17-01-2015 02:50:17 4.6 C 82 %
616 17-01-2015 03:02:17 4.5 C 82 %
617 17-01-2015 03:14:17 4.5 C 82 %
618 17-01-2015 03:26:17 4.5 C 82 %
619 17-01-2015 03:38:17 4.5 C 81 %
620 17-01-2015 03:50:18 4.5 C 81 %
621 17-01-2015 04:02:17 4.5 C 81 %
622 17-01-2015 04:14:17 4.5 C 81 %
623 17-01-2015 04:26:17 4.4 C 81 %
624 17-01-2015 04:38:17 4.5 C 81 %
625 17-01-2015 04:50:17 4.4 C 82 %
Sensor: Nr:Datum:Temp:Feuchte:
Aussen-T/F 626 17-01-2015 05:02:17 4.4 C 82 %
627 17-01-2015 05:14:17 4.2 C 83 %
628 17-01-2015 05:26:18 4 C 84 %
629 17-01-2015 05:38:17 3.9 C 87 %
630 17-01-2015 05:50:17 3.8 C 88 %
631 17-01-2015 06:02:17 3.8 C 89 %
632 17-01-2015 06:14:17 3.7 C 89 %
633 17-01-2015 06:26:17 3.5 C 90 %
634 17-01-2015 06:38:17 3.6 C 91 %
635 17-01-2015 06:50:17 3.3 C 92 %
636 17-01-2015 07:02:17 3 C 92 %
637 17-01-2015 07:14:17 2.6 C 92 %
638 17-01-2015 07:26:17 2.8 C 93 %
639 17-01-2015 07:38:16 2.5 C 93 %
640 17-01-2015 07:50:17 2.2 C 93 %
641 17-01-2015 08:02:17 2.1 C 93 %
642 17-01-2015 08:14:17 2 C 93 %
643 17-01-2015 08:26:17 1.7 C 94 %
644 17-01-2015 08:38:17 1.5 C 94 %
645 17-01-2015 08:50:17 1.9 C 94 %
646 17-01-2015 09:02:17 1.6 C 95 %
647 17-01-2015 09:14:17 1.8 C 95 %
648 17-01-2015 09:26:17 1.8 C 95 %
649 17-01-2015 09:38:17 1.8 C 95 %
650 17-01-2015 09:50:17 1.8 C 95 %
Sensor: Nr:Datum:Temp:Feuchte:
Aussen-T/F 651 17-01-2015 10:02:17 2.2 C 95 %
652 17-01-2015 10:14:17 2.5 C 95 %
653 17-01-2015 10:26:17 2.6 C 95 %
654 17-01-2015 10:38:17 2.6 C 95 %
655 17-01-2015 10:50:17 2.6 C 95 %
656 17-01-2015 11:02:17 2.6 C 95 %
657 17-01-2015 11:14:17 2.6 C 95 %
658 17-01-2015 11:26:17 3 C 94 %
659 17-01-2015 11:38:17 3.1 C 93 %
660 17-01-2015 11:50:17 3.2 C 93 %
661 17-01-2015 12:02:17 3.3 C 92 %
662 17-01-2015 12:14:17 3.3 C 90 %
663 17-01-2015 12:26:16 3.5 C 88 %
664 17-01-2015 12:38:17 3.6 C 86 %
665 17-01-2015 12:50:17 3.6 C 83 %
666 17-01-2015 13:02:17 3.7 C 82 %
667 17-01-2015 13:14:17 3.9 C 81 %
668 17-01-2015 13:26:17 4.3 C 76 %
669 17-01-2015 13:38:17 4.9 C 71 %
670 17-01-2015 13:50:17 4.9 C 69 %
671 17-01-2015 14:02:17 5 C 65 %
672 17-01-2015 14:14:17 5.1 C 64 %
673 17-01-2015 14:26:17 5.2 C 65 %
674 17-01-2015 14:38:17 5.1 C 66 %
675 17-01-2015 14:50:17 5.1 C 64 %
Sensor: Nr:Datum:Temp:Feuchte:
Aussen-T/F 676 17-01-2015 15:02:17 5.1 C 65 %
677 17-01-2015 15:14:17 5.1 C 65 %
678 17-01-2015 15:26:17 5 C 67 %
679 17-01-2015 15:38:17 4.8 C 68 %
680 17-01-2015 15:50:18 4.6 C 70 %
681 17-01-2015 16:02:17 4.5 C 74 %
682 17-01-2015 16:14:17 4.4 C 74 %
683 17-01-2015 16:26:17 4.3 C 74 %
684 17-01-2015 16:38:17 4.2 C 76 %
685 17-01-2015 16:50:17 3.2 C 77 %
686 17-01-2015 17:02:17 2.7 C 80 %
687 17-01-2015 17:14:17 2.2 C 82 %
688 17-01-2015 17:26:17 2.1 C 83 %
689 17-01-2015 17:38:17 1.9 C 84 %
690 17-01-2015 17:50:17 1.7 C 85 %
691 17-01-2015 18:02:18 1.3 C 85 %
692 17-01-2015 18:14:18 1.3 C 86 %
693 17-01-2015 18:26:17 1.2 C 87 %
694 17-01-2015 18:38:17 1 C 87 %
695 17-01-2015 18:50:17 0.6 C 88 %
696 17-01-2015 19:02:17 0.2 C 88 %
697 17-01-2015 19:14:17 0 C 89 %
698 17-01-2015 19:26:17 -0.2 C 89 %
699 17-01-2015 19:38:17 -0.3 C 90 %
700 17-01-2015 19:50:17 -0.4 C 90 %
Sensor: Nr:Datum:Temp:Feuchte:
Aussen-T/F 701 17-01-2015 20:02:17 -0.4 C 91 %
702 17-01-2015 20:14:17 -0.7 C 91 %
703 17-01-2015 20:26:17 -0.6 C 91 %
704 17-01-2015 20:38:18 -0.8 C 92 %
705 17-01-2015 20:50:17 -0.7 C 92 %
706 17-01-2015 21:02:17 -0.9 C 92 %
707 17-01-2015 21:14:17 -1.1 C 92 %
708 17-01-2015 21:26:17 -1.1 C 92 %
709 17-01-2015 21:38:18 -1 C 92 %
710 17-01-2015 21:50:17 -1.1 C 92 %
711 17-01-2015 22:02:17 -1.2 C 92 %
712 17-01-2015 22:14:17 -1 C 93 %
713 17-01-2015 22:26:17 -0.5 C 93 %
714 17-01-2015 22:38:17 0.3 C 93 %
715 17-01-2015 22:50:17 1.2 C 91 %
716 17-01-2015 23:02:17 1.5 C 87 %
717 17-01-2015 23:14:17 1.5 C 83 %
718 17-01-2015 23:26:17 1.6 C 80 %
719 17-01-2015 23:38:17 1.7 C 77 %
720 17-01-2015 23:50:17 1.6 C 75 %
721 18-01-2015 00:02:17 1.6 C 74 %
722 18-01-2015 00:14:17 1.4 C 74 %
723 18-01-2015 00:26:17 1.2 C 73 %
724 18-01-2015 00:38:17 0.8 C 75 %
725 18-01-2015 00:50:17 0.6 C 76 %
Sensor: Nr:Datum:Temp:Feuchte:
Aussen-T/F 726 18-01-2015 01:02:17 0.8 C 77 %
727 18-01-2015 01:14:17 0.2 C 77 %
728 18-01-2015 01:26:17 0.4 C 79 %
729 18-01-2015 01:38:17 0.9 C 80 %
730 18-01-2015 01:50:17 1.3 C 76 %
731 18-01-2015 02:02:17 1.3 C 75 %
732 18-01-2015 02:14:17 1.4 C 73 %
733 18-01-2015 02:26:17 1.7 C 72 %
734 18-01-2015 02:38:17 1.7 C 72 %
735 18-01-2015 02:50:17 2 C 70 %
736 18-01-2015 03:02:17 1.9 C 70 %
737 18-01-2015 03:14:17 1.8 C 70 %
738 18-01-2015 03:26:17 1.8 C 70 %
739 18-01-2015 03:38:16 1.7 C 70 %
740 18-01-2015 03:50:17 1.8 C 69 %
741 18-01-2015 04:02:17 1.7 C 69 %
742 18-01-2015 04:14:17 1.7 C 69 %
743 18-01-2015 04:26:17 1.8 C 67 %
744 18-01-2015 04:38:17 1.3 C 69 %
745 18-01-2015 04:50:16 1 C 71 %
746 18-01-2015 05:02:17 0.4 C 75 %
747 18-01-2015 05:14:17 0.2 C 78 %
748 18-01-2015 05:26:17 0 C 79 %
749 18-01-2015 05:38:17 -0.1 C 81 %
750 18-01-2015 05:50:17 -0.2 C 82 %
Sensor: Nr:Datum:Temp:Feuchte:
Aussen-T/F 751 18-01-2015 06:02:17 -0.4 C 82 %
752 18-01-2015 06:14:17 -0.3 C 83 %
753 18-01-2015 06:26:17 -0.2 C 83 %
754 18-01-2015 06:38:17 0.1 C 83 %
755 18-01-2015 06:50:17 0.2 C 81 %
756 18-01-2015 07:02:17 0.2 C 80 %
757 18-01-2015 07:14:17 0.1 C 80 %
758 18-01-2015 07:26:17 0.4 C 81 %
759 18-01-2015 07:38:17 0.4 C 80 %
760 18-01-2015 07:50:17 0.2 C 80 %
761 18-01-2015 08:02:17 0.3 C 79 %
762 18-01-2015 08:14:17 0.3 C 78 %
763 18-01-2015 08:26:17 0.4 C 78 %
764 18-01-2015 08:38:17 0.4 C 78 %
765 18-01-2015 08:50:17 0.4 C 78 %
766 18-01-2015 09:02:17 0.4 C 78 %
767 18-01-2015 09:14:17 0.5 C 79 %
768 18-01-2015 09:26:17 0.8 C 79 %
769 18-01-2015 09:38:17 1.2 C 77 %
770 18-01-2015 09:50:17 1.6 C 74 %
771 18-01-2015 10:02:17 1.9 C 72 %
772 18-01-2015 10:14:17 2.2 C 69 %
773 18-01-2015 10:26:17 2.6 C 66 %
774 18-01-2015 10:38:17 3 C 63 %
775 18-01-2015 10:50:17 3.2 C 62 %
Sensor: Nr:Datum:Temp:Feuchte:
Aussen-T/F 776 18-01-2015 11:02:17 3.5 C 61 %
777 18-01-2015 11:14:17 3.7 C 60 %
778 18-01-2015 11:26:16 3.7 C 59 %
779 18-01-2015 11:38:17 4 C 59 %
780 18-01-2015 11:50:17 4.2 C 59 %
781 18-01-2015 12:02:17 4.5 C 57 %
782 18-01-2015 12:14:17 4.5 C 56 %
783 18-01-2015 12:26:17 4.4 C 55 %
784 18-01-2015 12:38:17 4.4 C 56 %
785 18-01-2015 12:50:17 4.5 C 55 %
786 18-01-2015 13:02:17 4.5 C 56 %
787 18-01-2015 13:14:17 4.6 C 56 %
788 18-01-2015 13:26:17 4.7 C 55 %
789 18-01-2015 13:38:17 4.8 C 56 %
790 18-01-2015 13:50:17 4.9 C 55 %
791 18-01-2015 14:02:17 4.9 C 56 %
792 18-01-2015 14:14:17 4.7 C 57 %
793 18-01-2015 14:26:17 4.5 C 58 %
794 18-01-2015 14:38:17 4.4 C 60 %
795 18-01-2015 14:50:17 4.4 C 61 %
796 18-01-2015 15:02:17 4.3 C 60 %
797 18-01-2015 15:14:17 4.1 C 61 %
798 18-01-2015 15:26:17 4 C 60 %
799 18-01-2015 15:38:17 3.8 C 63 %
800 18-01-2015 15:50:17 3.5 C 66 %
Sensor: Nr:Datum:Temp:Feuchte:
Aussen-T/F 801 18-01-2015 16:02:17 3.2 C 67 %
802 18-01-2015 16:14:17 2.9 C 68 %
803 18-01-2015 16:26:17 2.5 C 70 %
804 18-01-2015 16:38:17 2 C 72 %
805 18-01-2015 16:50:17 1.5 C 74 %
806 18-01-2015 17:02:17 1.2 C 75 %
807 18-01-2015 17:14:17 0.9 C 77 %
808 18-01-2015 17:26:17 0.8 C 78 %
809 18-01-2015 17:38:17 0.7 C 80 %
810 18-01-2015 17:50:17 0.4 C 80 %
811 18-01-2015 18:02:17 0.3 C 80 %
812 18-01-2015 18:14:17 0.3 C 81 %
813 18-01-2015 18:26:17 -0.2 C 81 %
814 18-01-2015 18:38:17 -0.5 C 81 %
815 18-01-2015 18:50:17 -0.6 C 82 %
816 18-01-2015 19:02:17 -0.8 C 83 %
817 18-01-2015 19:14:17 -0.8 C 83 %
818 18-01-2015 19:26:17 -0.9 C 83 %
819 18-01-2015 19:38:17 -0.6 C 84 %
820 18-01-2015 19:50:17 -1.1 C 83 %
821 18-01-2015 20:02:17 -0.9 C 84 %
822 18-01-2015 20:14:17 -1.2 C 84 %
823 18-01-2015 20:26:17 -1.4 C 84 %
824 18-01-2015 20:38:17 -1.5 C 85 %
825 18-01-2015 20:50:17 -1.4 C 86 %
Sensor: Nr:Datum:Temp:Feuchte:
Aussen-T/F 826 18-01-2015 21:02:17 -1.5 C 86 %
827 18-01-2015 21:14:17 -1.7 C 86 %
828 18-01-2015 21:26:17 -1.6 C 87 %
829 18-01-2015 21:38:17 -1.8 C 87 %
830 18-01-2015 21:50:16 -2.2 C 87 %
831 18-01-2015 22:02:17 -1.8 C 88 %
832 18-01-2015 22:14:17 -2 C 88 %
833 18-01-2015 22:26:17 -1.7 C 89 %
834 18-01-2015 22:38:17 -1.9 C 89 %
835 18-01-2015 22:50:17 -2 C 89 %
836 18-01-2015 23:02:17 -2.3 C 89 %
837 18-01-2015 23:14:17 -2.3 C 89 %
838 18-01-2015 23:26:17 -2.5 C 89 %
839 18-01-2015 23:38:17 -1.7 C 90 %
840 18-01-2015 23:50:17 -1.3 C 91 %
841 19-01-2015 00:02:17 -1 C 92 %
842 19-01-2015 00:14:17 -0.7 C 92 %
843 19-01-2015 00:26:17 -0.6 C 91 %
844 19-01-2015 00:38:16 -0.5 C 91 %
845 19-01-2015 00:50:17 -0.6 C 90 %
846 19-01-2015 01:02:17 -0.6 C 89 %
847 19-01-2015 01:14:17 -0.6 C 89 %
848 19-01-2015 01:26:17 -0.7 C 88 %
849 19-01-2015 01:38:17 -0.7 C 88 %
850 19-01-2015 01:50:17 -0.8 C 87 %
Sensor: Nr:Datum:Temp:Feuchte:
Aussen-T/F 851 19-01-2015 02:02:17 -0.7 C 87 %
852 19-01-2015 02:14:17 -0.7 C 87 %
853 19-01-2015 02:26:17 -0.7 C 87 %
854 19-01-2015 02:38:17 -0.7 C 88 %
855 19-01-2015 02:50:17 -0.5 C 88 %
856 19-01-2015 03:02:17 -0.4 C 89 %
857 19-01-2015 03:14:17 -0.3 C 89 %
858 19-01-2015 03:26:17 -0.1 C 89 %
859 19-01-2015 03:38:17 -0.1 C 89 %
860 19-01-2015 03:50:17 0 C 89 %
861 19-01-2015 04:02:17 0 C 89 %
862 19-01-2015 04:14:17 0 C 89 %
863 19-01-2015 04:26:17 0 C 89 %
864 19-01-2015 04:38:17 0 C 89 %
865 19-01-2015 04:50:17 0.1 C 89 %
866 19-01-2015 05:02:17 0.2 C 88 %
867 19-01-2015 05:14:17 0.2 C 88 %
868 19-01-2015 05:26:17 0.2 C 88 %
869 19-01-2015 05:38:17 0.1 C 88 %
870 19-01-2015 05:50:17 0.2 C 88 %
871 19-01-2015 06:02:17 0.2 C 88 %
872 19-01-2015 06:14:17 0.1 C 88 %
873 19-01-2015 06:26:17 0.1 C 88 %
874 19-01-2015 06:38:17 0.2 C 88 %
875 19-01-2015 06:50:17 0.2 C 88 %
Sensor: Nr:Datum:Temp:Feuchte:
Aussen-T/F 876 19-01-2015 07:02:17 0.2 C 88 %
877 19-01-2015 07:14:17 0.3 C 88 %
878 19-01-2015 07:26:17 0.2 C 88 %
879 19-01-2015 07:38:17 0.3 C 88 %
880 19-01-2015 07:50:17 0.3 C 87 %
881 19-01-2015 08:02:17 0.2 C 87 %
882 19-01-2015 08:14:17 0.2 C 87 %
883 19-01-2015 08:26:17 0.2 C 87 %
884 19-01-2015 08:38:17 0.1 C 87 %
885 19-01-2015 08:50:17 0.1 C 87 %
886 19-01-2015 09:02:17 0.2 C 87 %
887 19-01-2015 09:14:18 0.3 C 87 %
888 19-01-2015 09:26:16 0.5 C 86 %
889 19-01-2015 09:38:17 0.6 C 85 %
890 19-01-2015 09:50:17 0.8 C 84 %
891 19-01-2015 10:02:17 1 C 81 %
892 19-01-2015 10:14:17 1.1 C 77 %
893 19-01-2015 10:26:17 1.3 C 75 %
894 19-01-2015 10:38:17 1.1 C 72 %
895 19-01-2015 10:50:17 1.3 C 73 %
896 19-01-2015 11:02:17 1.3 C 73 %
897 19-01-2015 11:14:17 1.5 C 72 %
898 19-01-2015 11:26:17 1.5 C 72 %
899 19-01-2015 11:38:17 1.6 C 72 %
900 19-01-2015 11:50:17 1.6 C 71 %
Sensor: Nr:Datum:Temp:Feuchte:
Aussen-T/F 901 19-01-2015 12:02:17 1.7 C 71 %
902 19-01-2015 12:14:17 1.8 C 70 %
903 19-01-2015 12:26:16 1.8 C 69 %
904 19-01-2015 12:38:17 1.7 C 68 %
905 19-01-2015 12:50:17 1.8 C 69 %
906 19-01-2015 13:02:17 1.8 C 68 %
907 19-01-2015 13:14:17 1.9 C 67 %
908 19-01-2015 13:26:17 1.8 C 67 %
909 19-01-2015 13:38:17 1.8 C 67 %
910 19-01-2015 13:50:17 2 C 66 %
911 19-01-2015 14:02:18 2.1 C 65 %
912 19-01-2015 14:14:18 1.9 C 66 %
913 19-01-2015 14:26:17 1.9 C 66 %
914 19-01-2015 14:38:17 2 C 65 %
915 19-01-2015 14:50:17 2 C 65 %
916 19-01-2015 15:02:17 2 C 65 %
917 19-01-2015 15:14:17 2 C 65 %
918 19-01-2015 15:26:17 1.8 C 67 %
919 19-01-2015 15:38:17 1.7 C 67 %
920 19-01-2015 15:50:17 1.7 C 67 %
921 19-01-2015 16:02:17 1.6 C 68 %
922 19-01-2015 16:14:17 1.5 C 68 %
923 19-01-2015 16:26:17 1.4 C 69 %
924 19-01-2015 16:38:17 1.2 C 70 %
925 19-01-2015 16:50:17 1 C 72 %
Sensor: Nr:Datum:Temp:Feuchte:
Aussen-T/F 926 19-01-2015 17:02:17 0.7 C 75 %
927 19-01-2015 17:14:17 0.6 C 76 %
928 19-01-2015 17:26:17 0.4 C 77 %
929 19-01-2015 17:38:17 0.2 C 78 %
930 19-01-2015 17:50:17 -0.3 C 79 %
931 19-01-2015 18:02:17 -0.5 C 79 %
932 19-01-2015 18:14:17 -0.6 C 81 %
933 19-01-2015 18:26:17 -0.6 C 82 %
934 19-01-2015 18:38:17 -0.6 C 83 %
935 19-01-2015 18:50:17 -0.4 C 83 %
936 19-01-2015 19:02:17 -0.4 C 83 %
937 19-01-2015 19:14:17 -0.4 C 83 %
938 19-01-2015 19:26:17 -0.4 C 83 %
939 19-01-2015 19:38:17 -0.4 C 83 %
940 19-01-2015 19:50:17 -0.2 C 83 %
941 19-01-2015 20:02:17 -0.2 C 82 %
942 19-01-2015 20:14:17 0 C 81 %
943 19-01-2015 20:26:17 0 C 80 %
944 19-01-2015 20:38:18 0 C 79 %
945 19-01-2015 20:50:17 -0.1 C 79 %
946 19-01-2015 21:02:17 -0.2 C 80 %
947 19-01-2015 21:14:17 -0.2 C 80 %
948 19-01-2015 21:26:17 -0.2 C 81 %
949 19-01-2015 21:38:17 0 C 81 %
950 19-01-2015 21:50:17 0 C 81 %
Sensor: Nr:Datum:Temp:Feuchte:
Aussen-T/F 951 19-01-2015 22:02:17 0 C 81 %
952 19-01-2015 22:14:17 0.1 C 80 %
953 19-01-2015 22:26:17 0.1 C 79 %
954 19-01-2015 22:38:17 0.1 C 79 %
955 19-01-2015 22:50:16 0.1 C 80 %
956 19-01-2015 23:02:17 0 C 81 %
957 19-01-2015 23:14:17 -0.1 C 83 %
958 19-01-2015 23:26:17 -0.1 C 84 %
959 19-01-2015 23:38:17 -0.2 C 85 %
960 19-01-2015 23:50:17 -0.2 C 85 %
961 20-01-2015 00:02:17 -0.3 C 86 %
962 20-01-2015 00:14:17 -0.2 C 87 %
963 20-01-2015 00:26:17 -0.3 C 88 %
964 20-01-2015 00:38:17 -0.3 C 88 %
965 20-01-2015 00:50:17 -0.3 C 89 %
966 20-01-2015 01:02:17 -0.2 C 89 %
967 20-01-2015 01:14:17 -0.1 C 90 %
968 20-01-2015 01:26:17 -0.1 C 90 %
969 20-01-2015 01:38:17 -0.1 C 90 %
970 20-01-2015 01:50:17 0 C 90 %
971 20-01-2015 02:02:17 -0.1 C 90 %
972 20-01-2015 02:14:17 -0.1 C 90 %
973 20-01-2015 02:26:17 0 C 90 %
974 20-01-2015 02:38:17 0 C 90 %
975 20-01-2015 02:50:17 0 C 90 %
Sensor: Nr:Datum:Temp:Feuchte:
Aussen-T/F 976 20-01-2015 03:02:17 0 C 91 %
977 20-01-2015 03:14:17 0 C 91 %
978 20-01-2015 03:26:17 -0.1 C 91 %
979 20-01-2015 03:38:17 0 C 91 %
980 20-01-2015 03:50:17 0 C 91 %
981 20-01-2015 04:02:17 0 C 91 %
982 20-01-2015 04:14:17 0.1 C 91 %
983 20-01-2015 04:26:17 0 C 91 %
984 20-01-2015 04:38:17 0.1 C 91 %
985 20-01-2015 04:50:17 0.1 C 91 %
986 20-01-2015 05:02:17 0.1 C 91 %
987 20-01-2015 05:14:18 0.1 C 91 %
988 20-01-2015 05:26:17 0.1 C 91 %
989 20-01-2015 05:38:17 0.1 C 91 %
990 20-01-2015 05:50:17 0.2 C 92 %
991 20-01-2015 06:02:17 0.1 C 92 %
992 20-01-2015 06:14:17 0.2 C 92 %
993 20-01-2015 06:26:17 0.1 C 92 %
994 20-01-2015 06:38:17 -0.1 C 92 %
995 20-01-2015 06:50:16 -0.2 C 92 %
996 20-01-2015 07:02:17 -0.2 C 92 %
997 20-01-2015 07:14:18 0 C 92 %
998 20-01-2015 07:26:17 0.1 C 92 %
999 20-01-2015 07:38:17 0.1 C 92 %
1000 20-01-2015 07:50:17 0.1 C 92 %
Sensor: Nr:Datum:Temp:Feuchte:
Aussen-T/F 1001 20-01-2015 08:02:17 0.1 C 92 %
1002 20-01-2015 08:14:17 0.1 C 91 %
1003 20-01-2015 08:26:17 0.1 C 91 %
1004 20-01-2015 08:38:17 0.1 C 91 %
1005 20-01-2015 08:50:17 0.2 C 91 %
1006 20-01-2015 09:02:17 0.2 C 91 %
1007 20-01-2015 09:14:17 0.3 C 91 %
1008 20-01-2015 09:26:17 0.4 C 90 %
1009 20-01-2015 09:38:17 0.6 C 90 %
1010 20-01-2015 09:50:17 0.7 C 89 %
1011 20-01-2015 10:02:17 0.9 C 88 %
1012 20-01-2015 10:14:17 1 C 85 %
1013 20-01-2015 10:26:17 1 C 83 %
1014 20-01-2015 10:38:17 0.9 C 83 %
1015 20-01-2015 10:50:16 1.1 C 83 %
1016 20-01-2015 11:02:17 1.4 C 82 %
1017 20-01-2015 11:14:17 1.6 C 80 %
1018 20-01-2015 11:26:17 1.6 C 79 %
1019 20-01-2015 11:38:17 1.6 C 76 %
1020 20-01-2015 11:50:17 1.8 C 76 %
1021 20-01-2015 12:02:17 2 C 75 %
1022 20-01-2015 12:14:17 1.8 C 74 %
1023 20-01-2015 12:26:17 1.7 C 74 %
1024 20-01-2015 12:38:17 2 C 72 %
1025 20-01-2015 12:50:17 2.3 C 72 %
Sensor: Nr:Datum:Temp:Feuchte:
Aussen-T/F 1026 20-01-2015 13:02:17 2.2 C 69 %
1027 20-01-2015 13:14:17 2.3 C 70 %
1028 20-01-2015 13:26:17 2.2 C 71 %
1029 20-01-2015 13:38:17 1.8 C 74 %
1030 20-01-2015 13:50:17 1.8 C 75 %
1031 20-01-2015 14:02:17 1.8 C 74 %
1032 20-01-2015 14:14:17 1.7 C 73 %
1033 20-01-2015 14:26:17 1.7 C 74 %
1034 20-01-2015 14:38:17 1.9 C 73 %
1035 20-01-2015 14:50:17 1.8 C 73 %
1036 20-01-2015 15:02:17 1.6 C 73 %
1037 20-01-2015 15:14:17 1.6 C 74 %
1038 20-01-2015 15:26:17 1.6 C 75 %
1039 20-01-2015 15:38:17 1.6 C 76 %
1040 20-01-2015 15:50:17 1.6 C 76 %
1041 20-01-2015 16:02:17 1.6 C 76 %
1042 20-01-2015 16:14:17 1.5 C 76 %
1043 20-01-2015 16:26:17 1.3 C 76 %
1044 20-01-2015 16:38:17 1.2 C 78 %
1045 20-01-2015 16:50:17 1.1 C 78 %
1046 20-01-2015 17:02:17 1 C 79 %
1047 20-01-2015 17:14:17 0.8 C 80 %
1048 20-01-2015 17:26:17 0.8 C 81 %
1049 20-01-2015 17:38:17 0.8 C 80 %
1050 20-01-2015 17:50:17 0.7 C 81 %
Sensor: Nr:Datum:Temp:Feuchte:
Aussen-T/F 1051 20-01-2015 18:02:17 0.6 C 81 %
1052 20-01-2015 18:14:17 0.6 C 82 %
1053 20-01-2015 18:26:17 0.7 C 81 %
1054 20-01-2015 18:38:17 0.6 C 81 %
1055 20-01-2015 18:50:17 0.7 C 80 %
1056 20-01-2015 19:02:17 0.6 C 80 %
1057 20-01-2015 19:14:17 0.6 C 79 %
1058 20-01-2015 19:26:17 0.6 C 80 %
1059 20-01-2015 19:38:17 0.6 C 81 %
1060 20-01-2015 19:50:17 0.5 C 81 %
1061 20-01-2015 20:02:17 0.4 C 80 %
1062 20-01-2015 20:14:17 -0.2 C 79 %
1063 20-01-2015 20:26:17 -0.4 C 78 %
1064 20-01-2015 20:38:17 -0.7 C 79 %
1065 20-01-2015 20:50:17 -0.4 C 79 %
1066 20-01-2015 21:02:17 -0.2 C 79 %
1067 20-01-2015 21:14:17 -0.3 C 79 %
1068 20-01-2015 21:26:17 -0.3 C 79 %
1069 20-01-2015 21:38:17 -0.2 C 78 %
1070 20-01-2015 21:50:17 -0.2 C 78 %
1071 20-01-2015 22:02:17 -0.5 C 77 %
1072 20-01-2015 22:14:17 -0.7 C 77 %
1073 20-01-2015 22:26:17 -0.8 C 76 %
1074 20-01-2015 22:38:17 -0.9 C 74 %
1075 20-01-2015 22:50:17 -0.9 C 72 %
Sensor: Nr:Datum:Temp:Feuchte:
Aussen-T/F 1076 20-01-2015 23:02:17 -1.4 C 73 %
1077 20-01-2015 23:14:17 -1.5 C 72 %
1078 20-01-2015 23:26:17 -1.7 C 73 %
1079 20-01-2015 23:38:17 -1.8 C 74 %
1080 20-01-2015 23:50:17 -2 C 75 %
1081 21-01-2015 00:02:17 -2.2 C 76 %
1082 21-01-2015 00:14:17 -2.3 C 77 %
1083 21-01-2015 00:26:17 -2.4 C 78 %
1084 21-01-2015 00:38:17 -2.6 C 79 %
1085 21-01-2015 00:50:17 -2.8 C 79 %
1086 21-01-2015 01:02:17 -2.8 C 81 %
1087 21-01-2015 01:14:17 -3 C 81 %
1088 21-01-2015 01:26:17 -3 C 81 %
1089 21-01-2015 01:38:17 -3.1 C 81 %
1090 21-01-2015 01:50:17 -2.9 C 82 %
1091 21-01-2015 02:02:17 -2.7 C 82 %
1092 21-01-2015 02:14:17 -2.9 C 82 %
1093 21-01-2015 02:26:17 -2.7 C 82 %
1094 21-01-2015 02:38:17 -3.1 C 81 %
1095 21-01-2015 02:50:17 -3.1 C 82 %
1096 21-01-2015 03:02:18 -3 C 83 %
1097 21-01-2015 03:14:18 -3.1 C 83 %
1098 21-01-2015 03:26:17 -3.2 C 83 %
1099 21-01-2015 03:38:17 -3.2 C 83 %
1100 21-01-2015 03:50:17 -2.7 C 84 %
Sensor: Nr:Datum:Temp:Feuchte:
Aussen-T/F 1101 21-01-2015 04:02:17 -2.4 C 84 %
1102 21-01-2015 04:14:17 -2.4 C 84 %
1103 21-01-2015 04:26:17 -2.8 C 83 %
1104 21-01-2015 04:38:18 -3.2 C 83 %
1105 21-01-2015 04:50:17 -3.2 C 83 %
1106 21-01-2015 05:02:17 -3 C 84 %
1107 21-01-2015 05:14:17 -2.6 C 85 %
1108 21-01-2015 05:26:17 -2.4 C 85 %
1109 21-01-2015 05:38:17 -2.3 C 85 %
1110 21-01-2015 05:50:17 -2.1 C 85 %
1111 21-01-2015 06:02:17 -2.1 C 85 %
1112 21-01-2015 06:14:17 -2.2 C 85 %
1113 21-01-2015 06:26:17 -2.6 C 85 %
1114 21-01-2015 06:38:17 -2.7 C 84 %
1115 21-01-2015 06:50:17 -3.2 C 84 %
1116 21-01-2015 07:02:17 -3.2 C 84 %
1117 21-01-2015 07:14:17 -3.4 C 84 %
1118 21-01-2015 07:26:17 -3.6 C 84 %
1119 21-01-2015 07:38:16 -3.8 C 84 %
1120 21-01-2015 07:50:17 -3.9 C 84 %
1121 21-01-2015 08:02:17 -3.9 C 85 %
1122 21-01-2015 08:14:17 -3.9 C 85 %
1123 21-01-2015 08:26:17 -3.7 C 86 %
1124 21-01-2015 08:38:17 -3.7 C 86 %
1125 21-01-2015 08:50:17 -2.8 C 87 %
Sensor: Nr:Datum:Temp:Feuchte:
Aussen-T/F 1126 21-01-2015 09:02:17 -2.5 C 87 %
1127 21-01-2015 09:14:17 -2.1 C 87 %
1128 21-01-2015 09:26:17 -1.6 C 86 %
1129 21-01-2015 09:38:17 -1.4 C 85 %
1130 21-01-2015 09:50:17 -0.9 C 84 %
1131 21-01-2015 10:02:17 -0.7 C 81 %
1132 21-01-2015 10:14:17 -0.5 C 79 %
1133 21-01-2015 10:26:17 -0.4 C 76 %
1134 21-01-2015 10:38:17 -0.3 C 74 %
1135 21-01-2015 10:50:17 -0.1 C 73 %
1136 21-01-2015 11:02:17 0.1 C 72 %
1137 21-01-2015 11:14:17 0.2 C 71 %
1138 21-01-2015 11:26:17 0.3 C 70 %
1139 21-01-2015 11:38:17 0.4 C 69 %
1140 21-01-2015 11:50:17 0.5 C 69 %
1141 21-01-2015 12:02:17 0.5 C 69 %
1142 21-01-2015 12:14:17 0.5 C 70 %
1143 21-01-2015 12:26:17 0.5 C 69 %
1144 21-01-2015 12:38:17 0.5 C 69 %
1145 21-01-2015 12:50:17 0.5 C 70 %
1146 21-01-2015 13:02:17 0.5 C 70 %
1147 21-01-2015 13:14:17 0.7 C 70 %
1148 21-01-2015 13:26:17 0.8 C 70 %
1149 21-01-2015 13:38:17 0.8 C 70 %
1150 21-01-2015 13:50:17 0.9 C 70 %
Sensor: Nr:Datum:Temp:Feuchte:
Aussen-T/F 1151 21-01-2015 14:02:17 1 C 69 %
1152 21-01-2015 14:14:17 1.3 C 68 %
1153 21-01-2015 14:26:17 1.4 C 67 %
1154 21-01-2015 14:38:17 1.4 C 67 %
1155 21-01-2015 14:50:17 1.3 C 67 %
1156 21-01-2015 15:02:17 1.5 C 67 %
1157 21-01-2015 15:14:17 1.4 C 67 %
1158 21-01-2015 15:26:17 1.4 C 67 %
1159 21-01-2015 15:38:17 1.4 C 67 %
1160 21-01-2015 15:50:17 1.4 C 68 %
1161 21-01-2015 16:02:17 1.4 C 68 %
1162 21-01-2015 16:14:17 1.3 C 69 %
1163 21-01-2015 16:26:17 1.2 C 69 %
1164 21-01-2015 16:38:17 1.2 C 69 %
1165 21-01-2015 16:50:17 1.1 C 70 %
1166 21-01-2015 17:02:18 1 C 71 %
1167 21-01-2015 17:14:18 1 C 72 %
1168 21-01-2015 17:26:17 0.9 C 73 %
1169 21-01-2015 17:38:17 0.8 C 74 %
1170 21-01-2015 17:50:17 0.8 C 76 %
1171 21-01-2015 18:02:17 0.7 C 77 %
1172 21-01-2015 18:14:17 0.7 C 77 %
1173 21-01-2015 18:26:17 0.7 C 78 %
1174 21-01-2015 18:38:17 0.7 C 78 %
1175 21-01-2015 18:50:17 0.7 C 78 %
Sensor: Nr:Datum:Temp:Feuchte:
Aussen-T/F 1176 21-01-2015 19:02:17 0.7 C 79 %
1177 21-01-2015 19:14:17 0.7 C 79 %
1178 21-01-2015 19:26:17 0.8 C 79 %
1179 21-01-2015 19:38:17 0.8 C 78 %
1180 21-01-2015 19:50:17 0.8 C 79 %
1181 21-01-2015 20:02:17 0.8 C 79 %
1182 21-01-2015 20:14:17 0.8 C 79 %
1183 21-01-2015 20:26:17 0.8 C 80 %
1184 21-01-2015 20:38:17 0.8 C 80 %
1185 21-01-2015 20:50:17 0.8 C 80 %
1186 21-01-2015 21:02:17 0.8 C 81 %
1187 21-01-2015 21:14:17 0.8 C 81 %
1188 21-01-2015 21:26:17 0.8 C 81 %
1189 21-01-2015 21:38:17 0.9 C 81 %
1190 21-01-2015 21:50:17 0.8 C 81 %
1191 21-01-2015 22:02:17 0.8 C 81 %
1192 21-01-2015 22:14:17 0.9 C 81 %
1193 21-01-2015 22:26:17 0.9 C 81 %
1194 21-01-2015 22:38:17 0.8 C 81 %
1195 21-01-2015 22:50:17 0.9 C 81 %
1196 21-01-2015 23:02:17 0.8 C 81 %
1197 21-01-2015 23:14:17 0.9 C 81 %
1198 21-01-2015 23:26:17 0.9 C 81 %
1199 21-01-2015 23:38:17 0.9 C 81 %
1200 21-01-2015 23:50:17 0.9 C 80 %
Sensor: Nr:Datum:Temp:Feuchte:
Aussen-T/F 1201 22-01-2015 00:02:17 1 C 79 %
1202 22-01-2015 00:14:17 1 C 78 %
1203 22-01-2015 00:26:17 1 C 77 %
1204 22-01-2015 00:38:17 1 C 76 %
1205 22-01-2015 00:50:17 1.1 C 74 %
1206 22-01-2015 01:02:17 1 C 75 %
1207 22-01-2015 01:14:17 1 C 75 %
1208 22-01-2015 01:26:17 1 C 75 %
1209 22-01-2015 01:38:17 0.9 C 76 %
1210 22-01-2015 01:50:17 0.9 C 76 %
1211 22-01-2015 02:02:17 0.9 C 75 %
1212 22-01-2015 02:14:17 0.9 C 75 %
1213 22-01-2015 02:26:17 0.9 C 74 %
1214 22-01-2015 02:38:17 1 C 73 %
1215 22-01-2015 02:50:17 1 C 72 %
1216 22-01-2015 03:02:17 0.9 C 73 %
1217 22-01-2015 03:14:17 0.9 C 72 %
1218 22-01-2015 03:26:17 1 C 70 %
1219 22-01-2015 03:38:17 0.8 C 71 %
1220 22-01-2015 03:50:17 0.8 C 71 %
1221 22-01-2015 04:02:17 0.8 C 70 %
1222 22-01-2015 04:14:17 0.7 C 71 %
1223 22-01-2015 04:26:17 0.6 C 71 %
1224 22-01-2015 04:38:17 0.6 C 72 %
1225 22-01-2015 04:50:17 0.5 C 72 %
Sensor: Nr:Datum:Temp:Feuchte:
Aussen-T/F 1226 22-01-2015 05:02:17 0.6 C 72 %
1227 22-01-2015 05:14:17 0.5 C 72 %
1228 22-01-2015 05:26:17 0.6 C 72 %
1229 22-01-2015 05:38:17 0.6 C 72 %
1230 22-01-2015 05:50:17 0.5 C 73 %
1231 22-01-2015 06:02:17 0.5 C 73 %
1232 22-01-2015 06:14:17 0.5 C 74 %
1233 22-01-2015 06:26:17 0.5 C 73 %
1234 22-01-2015 06:38:18 0.5 C 71 %
1235 22-01-2015 06:50:17 0.5 C 71 %
1236 22-01-2015 07:02:17 0.5 C 71 %
1237 22-01-2015 07:14:17 0.4 C 72 %
1238 22-01-2015 07:26:17 0.5 C 72 %
1239 22-01-2015 07:38:17 0.5 C 72 %
1240 22-01-2015 07:50:17 0.4 C 72 %
1241 22-01-2015 08:02:17 0.4 C 72 %
1242 22-01-2015 08:14:17 0.2 C 71 %
1243 22-01-2015 08:26:17 0.2 C 71 %
1244 22-01-2015 08:38:17 0.2 C 72 %
1245 22-01-2015 08:50:17 0.2 C 72 %
1246 22-01-2015 09:02:17 0.2 C 72 %
1247 22-01-2015 09:14:17 0.3 C 71 %
1248 22-01-2015 09:26:17 0.2 C 71 %
1249 22-01-2015 09:38:17 0.3 C 71 %
1250 22-01-2015 09:50:17 0.3 C 71 %
Sensor: Nr:Datum:Temp:Feuchte:
Aussen-T/F 1251 22-01-2015 10:02:16 0.3 C 71 %
1252 22-01-2015 10:14:17 0.3 C 70 %
1253 22-01-2015 10:26:17 0.3 C 70 %
1254 22-01-2015 10:38:17 0.3 C 70 %
1255 22-01-2015 10:50:17 0.4 C 69 %
1256 22-01-2015 11:02:17 0.4 C 69 %
1257 22-01-2015 11:14:17 0.4 C 69 %
1258 22-01-2015 11:26:17 0.5 C 69 %
1259 22-01-2015 11:38:17 0.7 C 69 %
1260 22-01-2015 11:50:17 0.8 C 69 %
1261 22-01-2015 12:02:17 0.8 C 69 %
1262 22-01-2015 12:14:17 0.9 C 68 %
1263 22-01-2015 12:26:17 0.9 C 68 %
1264 22-01-2015 12:38:17 0.8 C 68 %
1265 22-01-2015 12:50:17 0.9 C 68 %
1266 22-01-2015 13:02:17 0.9 C 68 %
1267 22-01-2015 13:14:17 1 C 67 %
1268 22-01-2015 13:26:17 1 C 67 %
1269 22-01-2015 13:38:17 1.2 C 67 %
1270 22-01-2015 13:50:17 1.1 C 66 %
1271 22-01-2015 14:02:17 1.2 C 66 %
1272 22-01-2015 14:14:17 1.3 C 66 %
1273 22-01-2015 14:26:17 1.3 C 66 %
1274 22-01-2015 14:38:17 1.4 C 65 %
1275 22-01-2015 14:50:17 1.4 C 66 %
Sensor: Nr:Datum:Temp:Feuchte:
Aussen-T/F 1276 22-01-2015 15:02:17 1.3 C 66 %
1277 22-01-2015 15:14:17 1.3 C 66 %
1278 22-01-2015 15:26:17 1.4 C 66 %
1279 22-01-2015 15:38:17 1.4 C 66 %
1280 22-01-2015 15:50:17 1.3 C 67 %
1281 22-01-2015 16:02:17 1.3 C 68 %
1282 22-01-2015 16:14:17 1.4 C 67 %
1283 22-01-2015 16:26:17 1.4 C 68 %
1284 22-01-2015 16:38:17 1.3 C 68 %
1285 22-01-2015 16:50:17 1.3 C 70 %
1286 22-01-2015 17:02:17 1.2 C 71 %
1287 22-01-2015 17:14:17 1.1 C 71 %
1288 22-01-2015 17:26:17 1.1 C 72 %
1289 22-01-2015 17:38:17 1.1 C 73 %
1290 22-01-2015 17:50:17 1.1 C 72 %
1291 22-01-2015 18:02:17 1.1 C 72 %
1292 22-01-2015 18:14:17 1.2 C 72 %
1293 22-01-2015 18:26:17 1.1 C 72 %
1294 22-01-2015 18:38:17 1.2 C 71 %
1295 22-01-2015 18:50:17 1.3 C 70 %
1296 22-01-2015 19:02:17 1.2 C 70 %
1297 22-01-2015 19:14:17 1.3 C 70 %
1298 22-01-2015 19:26:17 1.2 C 71 %
1299 22-01-2015 19:38:17 1.2 C 70 %
1300 22-01-2015 19:50:17 1.2 C 70 %
Sensor: Nr:Datum:Temp:Feuchte:
Aussen-T/F 1301 22-01-2015 20:02:17 1.2 C 71 %
1302 22-01-2015 20:14:17 1.2 C 71 %
1303 22-01-2015 20:26:17 1.2 C 72 %
1304 22-01-2015 20:38:17 1.1 C 72 %
1305 22-01-2015 20:50:17 1.2 C 72 %
1306 22-01-2015 21:02:17 1.1 C 72 %
1307 22-01-2015 21:14:17 1.1 C 73 %
1308 22-01-2015 21:26:17 1.1 C 74 %
1309 22-01-2015 21:38:17 1.1 C 75 %
1310 22-01-2015 21:50:17 1 C 75 %
1311 22-01-2015 22:02:17 1.1 C 74 %
1312 22-01-2015 22:14:17 1.1 C 75 %
1313 22-01-2015 22:26:17 1 C 75 %
1314 22-01-2015 22:38:17 1 C 75 %
1315 22-01-2015 22:50:17 1.1 C 75 %
1316 22-01-2015 23:02:17 1.1 C 75 %
1317 22-01-2015 23:14:17 1.1 C 76 %
1318 22-01-2015 23:26:17 1.2 C 75 %
1319 22-01-2015 23:38:17 1.2 C 75 %
1320 22-01-2015 23:50:17 1.2 C 74 %
1321 23-01-2015 00:02:17 1.2 C 74 %
1322 23-01-2015 00:14:17 1.2 C 75 %
1323 23-01-2015 00:26:17 1.1 C 75 %
1324 23-01-2015 00:38:17 1.2 C 75 %
1325 23-01-2015 00:50:17 1.1 C 76 %
Sensor: Nr:Datum:Temp:Feuchte:
Aussen-T/F 1326 23-01-2015 01:02:17 1.1 C 76 %
1327 23-01-2015 01:14:17 1.2 C 76 %
1328 23-01-2015 01:26:17 1.1 C 77 %
1329 23-01-2015 01:38:17 1.1 C 77 %
1330 23-01-2015 01:50:17 1.1 C 78 %
1331 23-01-2015 02:02:17 1.1 C 78 %
1332 23-01-2015 02:14:17 1.1 C 79 %
1333 23-01-2015 02:26:17 1.1 C 79 %
1334 23-01-2015 02:38:17 1.1 C 79 %
1335 23-01-2015 02:50:17 1.1 C 79 %
1336 23-01-2015 03:02:17 1.1 C 80 %
1337 23-01-2015 03:14:17 1.1 C 80 %
1338 23-01-2015 03:26:17 1.1 C 80 %
1339 23-01-2015 03:38:17 1.1 C 80 %
1340 23-01-2015 03:50:17 1.1 C 80 %
1341 23-01-2015 04:02:17 1.1 C 80 %
1342 23-01-2015 04:14:17 1.2 C 80 %
1343 23-01-2015 04:26:17 1.2 C 81 %
1344 23-01-2015 04:38:17 1.1 C 81 %
1345 23-01-2015 04:50:17 1.1 C 81 %
1346 23-01-2015 05:02:17 1.1 C 81 %
1347 23-01-2015 05:14:17 1.1 C 81 %
1348 23-01-2015 05:26:17 1.1 C 81 %
1349 23-01-2015 05:38:17 1.1 C 81 %
1350 23-01-2015 05:50:17 1.1 C 81 %
Sensor: Nr:Datum:Temp:Feuchte:
Aussen-T/F 1351 23-01-2015 06:02:17 1.1 C 81 %
1352 23-01-2015 06:14:17 1.1 C 81 %
1353 23-01-2015 06:26:17 1.1 C 81 %
1354 23-01-2015 06:38:17 1.1 C 81 %
1355 23-01-2015 06:50:17 1.1 C 80 %
1356 23-01-2015 07:02:17 1.2 C 80 %
1357 23-01-2015 07:14:17 1.1 C 80 %
1358 23-01-2015 07:26:17 1.1 C 80 %
1359 23-01-2015 07:38:17 1.1 C 80 %
1360 23-01-2015 07:50:17 1.1 C 79 %
1361 23-01-2015 08:02:17 1.1 C 79 %
1362 23-01-2015 08:14:17 1.1 C 78 %
1363 23-01-2015 08:26:17 1.1 C 78 %
1364 23-01-2015 08:38:17 1.1 C 79 %
1365 23-01-2015 08:50:17 1.1 C 79 %
1366 23-01-2015 09:02:17 1.1 C 78 %
1367 23-01-2015 09:14:17 1.2 C 79 %
1368 23-01-2015 09:26:17 1.2 C 79 %
1369 23-01-2015 09:38:17 0.8 C 79 %
1370 23-01-2015 09:50:17 0.4 C 80 %
1371 23-01-2015 10:02:17 0.4 C 82 %
1372 23-01-2015 10:14:17 1.1 C 82 %
1373 23-01-2015 10:26:17 1.3 C 81 %
1374 23-01-2015 10:38:17 1.5 C 79 %
1375 23-01-2015 10:50:17 1.6 C 78 %
Sensor: Nr:Datum:Temp:Feuchte:
Aussen-T/F 1376 23-01-2015 11:02:17 1.6 C 77 %
1377 23-01-2015 11:14:17 2 C 75 %
1378 23-01-2015 11:26:17 2.1 C 74 %
1379 23-01-2015 11:38:17 2.1 C 73 %
1380 23-01-2015 11:50:17 2.4 C 72 %
1381 23-01-2015 12:02:17 2.6 C 71 %
1382 23-01-2015 12:14:17 2.9 C 72 %
1383 23-01-2015 12:26:17 2.8 C 71 %
1384 23-01-2015 12:38:17 3 C 69 %
1385 23-01-2015 12:50:17 2.8 C 69 %
1386 23-01-2015 13:02:17 2.8 C 69 %
1387 23-01-2015 13:14:17 3.1 C 68 %
1388 23-01-2015 13:26:17 3.2 C 68 %
1389 23-01-2015 13:38:17 3.1 C 67 %
1390 23-01-2015 13:50:17 2.9 C 69 %
1391 23-01-2015 14:02:17 2.8 C 69 %
1392 23-01-2015 14:14:17 2.6 C 69 %
1393 23-01-2015 14:26:17 2.6 C 69 %
1394 23-01-2015 14:38:17 2.6 C 69 %
1395 23-01-2015 14:50:17 2.6 C 69 %
1396 23-01-2015 15:02:17 2.6 C 69 %
1397 23-01-2015 15:14:17 2.5 C 69 %
1398 23-01-2015 15:26:17 2.5 C 69 %
1399 23-01-2015 15:38:17 2.3 C 70 %
1400 23-01-2015 15:50:17 2.1 C 70 %
Sensor: Nr:Datum:Temp:Feuchte:
Aussen-T/F 1401 23-01-2015 16:02:17 2.1 C 71 %
1402 23-01-2015 16:14:17 1.9 C 73 %
1403 23-01-2015 16:26:17 1.6 C 73 %
1404 23-01-2015 16:38:17 1.4 C 73 %
1405 23-01-2015 16:50:17 0.7 C 74 %
1406 23-01-2015 17:02:17 0.1 C 77 %
1407 23-01-2015 17:14:17 -0.2 C 79 %
1408 23-01-2015 17:26:17 -0.2 C 80 %
1409 23-01-2015 17:38:17 -0.2 C 81 %
1410 23-01-2015 17:50:17 -0.5 C 81 %
1411 23-01-2015 18:02:17 -0.5 C 82 %
1412 23-01-2015 18:14:17 -0.7 C 83 %
1413 23-01-2015 18:26:17 -0.7 C 83 %
1414 23-01-2015 18:38:17 -0.8 C 84 %
1415 23-01-2015 18:50:17 -0.9 C 84 %
1416 23-01-2015 19:02:17 -0.9 C 85 %
1417 23-01-2015 19:14:17 -0.9 C 86 %
1418 23-01-2015 19:26:17 -1.1 C 86 %
1419 23-01-2015 19:38:17 -0.7 C 87 %
1420 23-01-2015 19:50:17 -0.9 C 87 %
1421 23-01-2015 20:02:17 -0.9 C 87 %
1422 23-01-2015 20:14:17 -0.9 C 88 %
1423 23-01-2015 20:26:17 -1.4 C 87 %
1424 23-01-2015 20:38:17 -1.4 C 88 %
1425 23-01-2015 20:51:17 -1.5 C 88 %
Sensor: Nr:Datum:Temp:Feuchte:
Aussen-T/F 1426 23-01-2015 21:02:17 -1.5 C 88 %
1427 23-01-2015 21:14:17 -1.2 C 89 %
1428 23-01-2015 21:26:17 -1.1 C 89 %
1429 23-01-2015 21:38:17 -0.9 C 89 %
1430 23-01-2015 21:51:17 -0.9 C 89 %
1431 23-01-2015 22:02:17 -0.7 C 89 %
1432 23-01-2015 22:14:17 -0.7 C 89 %
1433 23-01-2015 22:26:17 -0.6 C 89 %
1434 23-01-2015 22:38:17 -0.7 C 89 %
1435 23-01-2015 22:51:17 -0.8 C 88 %
1436 23-01-2015 23:02:17 -0.9 C 88 %
1437 23-01-2015 23:14:17 -1.1 C 88 %
1438 23-01-2015 23:27:17 -1.2 C 88 %
1439 23-01-2015 23:39:17 -1.1 C 88 %
1440 23-01-2015 23:50:17 -0.9 C 88 %
1441 24-01-2015 00:02:17 -0.8 C 88 %
1442 24-01-2015 00:14:17 -0.7 C 88 %
1443 24-01-2015 00:27:16 -0.6 C 87 %
1444 24-01-2015 00:38:17 -0.7 C 87 %
1445 24-01-2015 00:50:17 -0.7 C 86 %
1446 24-01-2015 01:02:17 -0.9 C 85 %
1447 24-01-2015 01:14:17 -1.1 C 85 %
1448 24-01-2015 01:26:17 -0.9 C 85 %
1449 24-01-2015 01:38:17 -1.1 C 85 %
1450 24-01-2015 01:50:17 -1.1 C 85 %
Sensor: Nr:Datum:Temp:Feuchte:
Aussen-T/F 1451 24-01-2015 02:03:17 -1.2 C 85 %
1452 24-01-2015 02:15:17 -1.7 C 84 %
1453 24-01-2015 02:27:17 -2 C 85 %
1454 24-01-2015 02:38:17 -2.2 C 85 %
1455 24-01-2015 02:51:17 -2 C 87 %
1456 24-01-2015 03:02:17 -1.6 C 87 %
1457 24-01-2015 03:14:17 -1.1 C 87 %
1458 24-01-2015 03:26:17 -0.9 C 86 %
1459 24-01-2015 03:39:17 -0.6 C 84 %
1460 24-01-2015 03:51:17 -0.5 C 83 %
1461 24-01-2015 04:03:17 -0.4 C 82 %
1462 24-01-2015 04:15:17 -0.3 C 80 %
1463 24-01-2015 04:27:17 -0.3 C 80 %
1464 24-01-2015 04:39:17 -0.3 C 79 %
1465 24-01-2015 04:51:16 -0.2 C 79 %
1466 24-01-2015 05:03:17 -0.2 C 78 %
1467 24-01-2015 05:15:16 -0.1 C 78 %
1468 24-01-2015 05:27:16 -0.1 C 78 %
1469 24-01-2015 05:39:17 -0.1 C 77 %
1470 24-01-2015 05:51:16 -0.1 C 77 %
1471 24-01-2015 06:03:17 -0.2 C 77 %
1472 24-01-2015 06:15:16 -0.1 C 78 %
1473 24-01-2015 06:27:16 -0.1 C 77 %
1474 24-01-2015 06:39:17 -0.1 C 77 %
1475 24-01-2015 06:51:16 0 C 77 %
Sensor: Nr:Datum:Temp:Feuchte:
Aussen-T/F 1476 24-01-2015 07:03:16 -0.1 C 77 %
1477 24-01-2015 07:15:17 0 C 77 %
1478 24-01-2015 07:27:17 0.1 C 77 %
1479 24-01-2015 07:39:17 0.1 C 77 %
1480 24-01-2015 07:51:17 0.1 C 77 %
1481 24-01-2015 08:03:16 0.2 C 76 %
1482 24-01-2015 08:15:17 0.3 C 75 %
1483 24-01-2015 08:27:17 0.4 C 75 %
1484 24-01-2015 08:39:17 0.4 C 75 %
1485 24-01-2015 08:51:16 0.5 C 74 %
1486 24-01-2015 09:03:17 0.6 C 74 %
1487 24-01-2015 09:15:17 0.7 C 74 %
1488 24-01-2015 09:27:17 0.7 C 73 %
1489 24-01-2015 09:39:17 0.8 C 72 %
1490 24-01-2015 09:51:16 0.9 C 72 %
1491 24-01-2015 10:03:17 1 C 70 %
1492 24-01-2015 10:15:17 1.1 C 69 %
1493 24-01-2015 10:27:17 1.2 C 69 %
1494 24-01-2015 10:39:16 1.3 C 68 %
1495 24-01-2015 10:51:16 1.5 C 68 %
1496 24-01-2015 11:03:17 0.8 C 74 %
1497 24-01-2015 11:15:16 0.5 C 78 %
1498 24-01-2015 11:27:17 0.3 C 82 %
1499 24-01-2015 11:39:16 0.3 C 84 %
1500 24-01-2015 11:51:16 0.3 C 86 %
Sensor: Nr:Datum:Temp:Feuchte:
Aussen-T/F 1501 24-01-2015 12:03:17 0.3 C 87 %
1502 24-01-2015 12:15:17 0.4 C 87 %
1503 24-01-2015 12:27:17 0.4 C 86 %
1504 24-01-2015 12:39:16 0.4 C 86 %
1505 24-01-2015 12:51:17 0.3 C 87 %
1506 24-01-2015 13:03:16 0.3 C 88 %
1507 24-01-2015 13:15:17 0.3 C 88 %
1508 24-01-2015 13:27:17 0.5 C 89 %
1509 24-01-2015 13:39:16 0.5 C 89 %
1510 24-01-2015 13:51:16 0.5 C 89 %
1511 24-01-2015 14:03:16 0.5 C 89 %
1512 24-01-2015 14:15:16 0.4 C 89 %
1513 24-01-2015 14:27:16 0.4 C 89 %
1514 24-01-2015 14:39:16 0.4 C 89 %
1515 24-01-2015 14:51:16 0.3 C 89 %
1516 24-01-2015 15:03:16 0.4 C 89 %
1517 24-01-2015 15:15:16 0.4 C 90 %
1518 24-01-2015 15:27:16 0.4 C 90 %
1519 24-01-2015 15:39:17 0.3 C 90 %
1520 24-01-2015 15:51:17 0.3 C 91 %
1521 24-01-2015 16:03:16 0.3 C 91 %
1522 24-01-2015 16:15:16 0.3 C 92 %
1523 24-01-2015 16:27:16 0.3 C 92 %
1524 24-01-2015 16:39:17 0.4 C 93 %
1525 24-01-2015 16:51:16 0.4 C 93 %
Sensor: Nr:Datum:Temp:Feuchte:
Aussen-T/F 1526 24-01-2015 17:03:16 0.4 C 93 %
1527 24-01-2015 17:15:16 0.5 C 94 %
1528 24-01-2015 17:27:16 0.6 C 94 %
1529 24-01-2015 17:39:16 0.7 C 95 %
1530 24-01-2015 17:51:16 0.9 C 95 %
1531 24-01-2015 18:03:16 0.8 C 95 %
1532 24-01-2015 18:15:16 1 C 95 %
1533 24-01-2015 18:27:16 0.8 C 95 %
1534 24-01-2015 18:39:16 1 C 95 %
1535 24-01-2015 18:51:16 1.2 C 95 %
1536 24-01-2015 19:03:16 1.1 C 95 %
1537 24-01-2015 19:15:16 1.2 C 95 %
1538 24-01-2015 19:27:16 1.5 C 95 %
1539 24-01-2015 19:39:16 1.4 C 95 %
1540 24-01-2015 19:51:16 1.6 C 95 %
1541 24-01-2015 20:03:16 1.5 C 95 %
1542 24-01-2015 20:15:16 1.6 C 95 %
1543 24-01-2015 20:27:16 1.6 C 95 %
1544 24-01-2015 20:39:16 1.7 C 95 %
1545 24-01-2015 20:51:16 1.5 C 95 %
1546 24-01-2015 21:03:16 1.6 C 95 %
1547 24-01-2015 21:15:15 1.7 C 95 %
1548 24-01-2015 21:27:15 1.6 C 95 %
1549 24-01-2015 21:39:16 1.5 C 95 %
1550 24-01-2015 21:51:16 1.4 C 95 %
Sensor: Nr:Datum:Temp:Feuchte:
Aussen-T/F 1551 24-01-2015 22:03:16 1.6 C 95 %
1552 24-01-2015 22:15:16 1.7 C 95 %
1553 24-01-2015 22:27:16 1.7 C 95 %
1554 24-01-2015 22:39:16 1.6 C 94 %
1555 24-01-2015 22:51:16 1.5 C 94 %
1556 24-01-2015 23:03:16 1.6 C 94 %
1557 24-01-2015 23:15:16 1.6 C 93 %
1558 24-01-2015 23:27:16 1.6 C 93 %
1559 24-01-2015 23:39:16 1.6 C 93 %
1560 24-01-2015 23:51:16 1.6 C 92 %
1561 25-01-2015 00:03:16 1.6 C 92 %
1562 25-01-2015 00:15:15 1.7 C 91 %
1563 25-01-2015 00:27:15 1.5 C 91 %
1564 25-01-2015 00:39:16 1.4 C 91 %
1565 25-01-2015 00:51:16 1.4 C 91 %
1566 25-01-2015 01:03:16 1.5 C 91 %
1567 25-01-2015 01:15:16 1.6 C 90 %
1568 25-01-2015 01:27:16 1.6 C 90 %
1569 25-01-2015 01:39:15 1.6 C 90 %
1570 25-01-2015 01:51:15 1.7 C 90 %
1571 25-01-2015 02:03:16 1.5 C 89 %
1572 25-01-2015 02:15:15 1.6 C 89 %
1573 25-01-2015 02:27:15 1.6 C 89 %
1574 25-01-2015 02:39:16 1.6 C 89 %
1575 25-01-2015 02:51:17 1.6 C 89 %
Sensor: Nr:Datum:Temp:Feuchte:
Aussen-T/F 1576 25-01-2015 03:03:17 1.5 C 89 %
1577 25-01-2015 03:15:17 1.4 C 89 %
1578 25-01-2015 03:27:17 1.1 C 89 %
1579 25-01-2015 03:39:17 1.3 C 90 %
1580 25-01-2015 03:51:17 1.3 C 91 %
1581 25-01-2015 04:03:17 1.1 C 91 %
1582 25-01-2015 04:15:17 1.1 C 91 %
1583 25-01-2015 04:27:17 1.2 C 92 %
1584 25-01-2015 04:39:17 1.3 C 92 %
1585 25-01-2015 04:51:17 1.2 C 92 %
1586 25-01-2015 05:03:17 1.2 C 92 %
1587 25-01-2015 05:15:17 1.4 C 92 %
1588 25-01-2015 05:27:17 1.1 C 91 %
1589 25-01-2015 05:39:17 0.9 C 92 %
1590 25-01-2015 05:51:17 0.8 C 92 %
1591 25-01-2015 06:03:17 0.6 C 92 %
1592 25-01-2015 06:15:17 0.5 C 92 %
1593 25-01-2015 06:27:17 0.3 C 92 %
1594 25-01-2015 06:39:17 0.3 C 93 %
1595 25-01-2015 06:51:17 0.2 C 93 %
1596 25-01-2015 07:03:17 0.2 C 93 %
1597 25-01-2015 07:15:17 0.2 C 94 %
1598 25-01-2015 07:27:17 0.3 C 94 %
1599 25-01-2015 07:39:17 0.5 C 94 %
1600 25-01-2015 07:51:17 0.5 C 95 %
Sensor: Nr:Datum:Temp:Feuchte:
Aussen-T/F 1601 25-01-2015 08:03:17 0.6 C 95 %
1602 25-01-2015 08:15:17 0.7 C 95 %
1603 25-01-2015 08:27:17 0.7 C 95 %
1604 25-01-2015 08:39:17 0.8 C 95 %
1605 25-01-2015 08:51:17 0.8 C 95 %
1606 25-01-2015 09:03:17 1 C 95 %
1607 25-01-2015 09:15:17 1.1 C 95 %
1608 25-01-2015 09:27:17 1.2 C 94 %
1609 25-01-2015 09:39:17 1.3 C 94 %
1610 25-01-2015 09:51:17 1.4 C 93 %
1611 25-01-2015 10:03:17 1.5 C 92 %
1612 25-01-2015 10:15:17 1.6 C 91 %
1613 25-01-2015 10:27:17 1.6 C 89 %
1614 25-01-2015 10:39:17 1.7 C 88 %
1615 25-01-2015 10:51:17 1.8 C 88 %
1616 25-01-2015 11:03:17 1.9 C 87 %
1617 25-01-2015 11:15:17 2 C 85 %
1618 25-01-2015 11:27:17 2.1 C 84 %
1619 25-01-2015 11:39:17 1.9 C 84 %
1620 25-01-2015 11:51:17 1.8 C 84 %
1621 25-01-2015 12:03:17 1.6 C 85 %
1622 25-01-2015 12:15:17 1.6 C 86 %
1623 25-01-2015 12:27:17 1.6 C 88 %
1624 25-01-2015 12:39:17 1.6 C 88 %
1625 25-01-2015 12:51:17 1.7 C 89 %
Sensor: Nr:Datum:Temp:Feuchte:
Aussen-T/F 1626 25-01-2015 13:03:17 1.8 C 89 %
1627 25-01-2015 13:15:17 1.9 C 90 %
1628 25-01-2015 13:27:17 1.8 C 91 %
1629 25-01-2015 13:39:17 1.9 C 91 %
1630 25-01-2015 13:51:17 2 C 90 %
1631 25-01-2015 14:03:17 2 C 89 %
1632 25-01-2015 14:15:17 2.2 C 88 %
1633 25-01-2015 14:27:17 2.3 C 88 %
1634 25-01-2015 14:39:16 2.4 C 87 %
1635 25-01-2015 14:51:17 2.4 C 87 %
1636 25-01-2015 15:03:17 2.4 C 86 %
1637 25-01-2015 15:15:17 2.4 C 86 %
1638 25-01-2015 15:27:17 2.4 C 86 %
1639 25-01-2015 15:39:17 2.5 C 85 %
1640 25-01-2015 15:51:17 2.4 C 85 %
1641 25-01-2015 16:03:17 2.5 C 85 %
1642 25-01-2015 16:15:17 2.4 C 85 %
1643 25-01-2015 16:27:17 2.4 C 85 %
1644 25-01-2015 16:39:17 2.4 C 86 %
1645 25-01-2015 16:51:17 2.3 C 87 %
1646 25-01-2015 17:03:17 2.2 C 88 %
1647 25-01-2015 17:15:17 2.1 C 89 %
1648 25-01-2015 17:27:17 2.1 C 89 %
1649 25-01-2015 17:39:17 2 C 90 %
1650 25-01-2015 17:51:17 2 C 90 %
Sensor: Nr:Datum:Temp:Feuchte:
Aussen-T/F 1651 25-01-2015 18:03:17 2 C 91 %
1652 25-01-2015 18:15:16 2 C 91 %
1653 25-01-2015 18:27:16 2 C 91 %
1654 25-01-2015 18:39:17 2 C 91 %
1655 25-01-2015 18:51:17 2 C 91 %
1656 25-01-2015 19:03:17 1.9 C 92 %
1657 25-01-2015 19:15:17 1.9 C 92 %
1658 25-01-2015 19:27:17 1.8 C 93 %
1659 25-01-2015 19:39:17 1.8 C 93 %
1660 25-01-2015 19:51:17 1.9 C 93 %
1661 25-01-2015 20:03:17 1.8 C 94 %
1662 25-01-2015 20:15:17 1.7 C 94 %
1663 25-01-2015 20:27:17 1.7 C 94 %
1664 25-01-2015 20:39:17 1.7 C 94 %
1665 25-01-2015 20:51:17 1.7 C 94 %
1666 25-01-2015 21:03:17 1.7 C 95 %
1667 25-01-2015 21:15:17 1.5 C 95 %
1668 25-01-2015 21:27:17 1.5 C 95 %
1669 25-01-2015 21:39:17 1.5 C 95 %
1670 25-01-2015 21:51:17 1.4 C 95 %
1671 25-01-2015 22:03:17 1.4 C 95 %
1672 25-01-2015 22:15:17 1.3 C 95 %
1673 25-01-2015 22:27:17 1.2 C 95 %
1674 25-01-2015 22:39:17 1.3 C 95 %
1675 25-01-2015 22:51:17 1.5 C 95 %
Sensor: Nr:Datum:Temp:Feuchte:
Aussen-T/F 1676 25-01-2015 23:03:17 1.2 C 95 %
1677 25-01-2015 23:15:17 1.2 C 95 %
1678 25-01-2015 23:27:17 1.2 C 95 %
1679 25-01-2015 23:39:17 1.2 C 95 %
1680 25-01-2015 23:51:17 1.2 C 95 %
Sensor: Nr:Datum:Temp:Feuchte:
G-T/H 1 12-01-2015 00:02:16 9.2 C 67 %
2 12-01-2015 00:14:16 9.2 C 67 %
3 12-01-2015 00:26:16 9.2 C 67 %
4 12-01-2015 00:38:16 9.1 C 68 %
5 12-01-2015 00:50:16 9.2 C 68 %
6 12-01-2015 01:02:16 9.1 C 68 %
7 12-01-2015 01:14:16 9.1 C 68 %
8 12-01-2015 01:26:16 9.1 C 68 %
9 12-01-2015 01:38:16 9.1 C 68 %
10 12-01-2015 01:50:16 9.1 C 68 %
11 12-01-2015 02:02:16 9.1 C 69 %
12 12-01-2015 02:14:16 9.1 C 69 %
13 12-01-2015 02:26:16 9.1 C 69 %
14 12-01-2015 02:38:16 9.1 C 69 %
15 12-01-2015 02:50:17 9.1 C 69 %
16 12-01-2015 03:02:17 9.1 C 69 %
17 12-01-2015 03:14:17 9.1 C 69 %
18 12-01-2015 03:26:17 9.1 C 69 %
19 12-01-2015 03:38:17 9.1 C 69 %
20 12-01-2015 03:50:17 9 C 69 %
21 12-01-2015 04:02:17 9 C 69 %
22 12-01-2015 04:14:17 9 C 69 %
23 12-01-2015 04:26:17 9 C 70 %
24 12-01-2015 04:38:17 9 C 70 %
25 12-01-2015 04:50:17 9 C 70 %
Sensor: Nr:Datum:Temp:Feuchte:
G-T/H 26 12-01-2015 05:02:17 9 C 70 %
27 12-01-2015 05:14:17 9 C 70 %
28 12-01-2015 05:26:17 9 C 70 %
29 12-01-2015 05:38:17 9 C 70 %
30 12-01-2015 05:50:17 9 C 70 %
31 12-01-2015 06:02:17 9 C 70 %
32 12-01-2015 06:14:17 9 C 70 %
33 12-01-2015 06:26:17 9 C 70 %
34 12-01-2015 06:38:17 9 C 70 %
35 12-01-2015 06:50:17 9 C 70 %
36 12-01-2015 07:02:17 9 C 70 %
37 12-01-2015 07:14:17 9 C 70 %
38 12-01-2015 07:26:17 9 C 70 %
39 12-01-2015 07:38:17 9 C 70 %
40 12-01-2015 07:50:17 8.9 C 71 %
41 12-01-2015 08:02:17 8.9 C 71 %
42 12-01-2015 08:14:17 8.9 C 71 %
43 12-01-2015 08:26:17 8.9 C 71 %
44 12-01-2015 08:38:17 8.9 C 71 %
45 12-01-2015 08:50:17 8.9 C 71 %
46 12-01-2015 09:02:17 8.9 C 71 %
47 12-01-2015 09:14:17 8.9 C 72 %
48 12-01-2015 09:26:17 8.9 C 72 %
49 12-01-2015 09:38:17 8.9 C 72 %
50 12-01-2015 09:50:17 8.9 C 72 %
Sensor: Nr:Datum:Temp:Feuchte:
G-T/H 51 12-01-2015 10:02:17 8.9 C 72 %
52 12-01-2015 10:14:17 8.9 C 72 %
53 12-01-2015 10:26:17 8.9 C 72 %
54 12-01-2015 10:38:17 8.9 C 72 %
55 12-01-2015 10:50:17 8.9 C 72 %
56 12-01-2015 11:02:17 8.9 C 72 %
57 12-01-2015 11:14:17 8.9 C 72 %
58 12-01-2015 11:26:17 8.9 C 72 %
59 12-01-2015 11:38:17 8.9 C 72 %
60 12-01-2015 11:50:17 8.9 C 72 %
61 12-01-2015 12:02:17 8.9 C 72 %
62 12-01-2015 12:14:17 8.8 C 72 %
63 12-01-2015 12:26:17 8.9 C 72 %
64 12-01-2015 12:38:17 8.9 C 72 %
65 12-01-2015 12:50:17 8.8 C 72 %
66 12-01-2015 13:02:17 8.9 C 72 %
67 12-01-2015 13:14:17 8.9 C 72 %
68 12-01-2015 13:26:17 8.9 C 73 %
69 12-01-2015 13:38:17 8.9 C 73 %
70 12-01-2015 13:50:17 8.9 C 73 %
71 12-01-2015 14:02:18 8.9 C 73 %
72 12-01-2015 14:14:18 8.9 C 73 %
73 12-01-2015 14:26:17 8.9 C 73 %
74 12-01-2015 14:38:17 8.9 C 73 %
75 12-01-2015 14:50:17 8.9 C 73 %
Sensor: Nr:Datum:Temp:Feuchte:
G-T/H 76 12-01-2015 15:02:17 8.9 C 73 %
77 12-01-2015 15:14:17 8.9 C 73 %
78 12-01-2015 15:26:17 8.9 C 73 %
79 12-01-2015 15:38:17 8.9 C 73 %
80 12-01-2015 15:50:17 9 C 72 %
81 12-01-2015 16:02:17 9 C 72 %
82 12-01-2015 16:14:17 8.9 C 73 %
83 12-01-2015 16:26:17 8.9 C 73 %
84 12-01-2015 16:38:17 8.9 C 73 %
85 12-01-2015 16:50:17 9 C 72 %
86 12-01-2015 17:02:17 9 C 72 %
87 12-01-2015 17:14:17 9 C 72 %
88 12-01-2015 17:26:17 9 C 72 %
89 12-01-2015 17:38:17 8.7 C 69 %
90 12-01-2015 17:50:17 8.6 C 68 %
91 12-01-2015 18:02:18 8.6 C 68 %
92 12-01-2015 18:14:18 8.6 C 68 %
93 12-01-2015 18:26:17 8.6 C 68 %
94 12-01-2015 18:38:17 8.6 C 68 %
95 12-01-2015 18:50:17 8.6 C 68 %
96 12-01-2015 19:02:17 9 C 66 %
97 12-01-2015 19:14:17 9 C 66 %
98 12-01-2015 19:26:17 9 C 66 %
99 12-01-2015 19:38:17 9 C 66 %
100 12-01-2015 19:50:17 9 C 66 %
Sensor: Nr:Datum:Temp:Feuchte:
G-T/H 101 12-01-2015 20:02:17 9 C 68 %
102 12-01-2015 20:14:17 9.3 C 69 %
103 12-01-2015 20:26:17 9.6 C 69 %
104 12-01-2015 20:38:17 9.7 C 69 %
105 12-01-2015 20:50:17 9.8 C 69 %
106 12-01-2015 21:02:17 9.8 C 69 %
107 12-01-2015 21:14:17 9.8 C 69 %
108 12-01-2015 21:26:17 9.9 C 70 %
109 12-01-2015 21:38:17 9.9 C 70 %
110 12-01-2015 21:50:17 9.9 C 70 %
111 12-01-2015 22:02:18 9.9 C 70 %
112 12-01-2015 22:14:18 9.9 C 70 %
113 12-01-2015 22:26:17 9.9 C 70 %
114 12-01-2015 22:38:17 9.9 C 70 %
115 12-01-2015 22:50:17 9.9 C 70 %
116 12-01-2015 23:02:17 9.9 C 70 %
117 12-01-2015 23:14:17 9.9 C 70 %
118 12-01-2015 23:26:17 9.9 C 70 %
119 12-01-2015 23:38:17 9.9 C 70 %
120 12-01-2015 23:50:17 9.9 C 70 %
121 13-01-2015 00:02:17 9.9 C 70 %
122 13-01-2015 00:14:17 9.9 C 70 %
123 13-01-2015 00:26:17 9.9 C 70 %
124 13-01-2015 00:38:17 9.9 C 70 %
125 13-01-2015 00:50:17 9.9 C 71 %
Sensor: Nr:Datum:Temp:Feuchte:
G-T/H 126 13-01-2015 01:02:17 9.8 C 71 %
127 13-01-2015 01:14:17 9.8 C 71 %
128 13-01-2015 01:26:17 9.8 C 71 %
129 13-01-2015 01:38:17 9.8 C 71 %
130 13-01-2015 01:50:17 9.8 C 71 %
131 13-01-2015 02:02:17 9.8 C 71 %
132 13-01-2015 02:14:17 9.8 C 71 %
133 13-01-2015 02:26:17 9.8 C 71 %
134 13-01-2015 02:38:17 9.8 C 71 %
135 13-01-2015 02:50:17 9.8 C 71 %
136 13-01-2015 03:02:17 9.8 C 71 %
137 13-01-2015 03:14:17 9.8 C 71 %
138 13-01-2015 03:26:17 9.8 C 71 %
139 13-01-2015 03:38:17 9.8 C 71 %
140 13-01-2015 03:50:17 9.8 C 71 %
141 13-01-2015 04:02:17 9.7 C 71 %
142 13-01-2015 04:14:17 9.7 C 71 %
143 13-01-2015 04:26:17 9.7 C 71 %
144 13-01-2015 04:38:17 9.7 C 71 %
145 13-01-2015 04:50:17 9.7 C 71 %
146 13-01-2015 05:02:17 9.7 C 71 %
147 13-01-2015 05:14:17 9.7 C 71 %
148 13-01-2015 05:26:17 9.7 C 71 %
149 13-01-2015 05:38:17 9.7 C 71 %
150 13-01-2015 05:50:17 9.7 C 71 %
Sensor: Nr:Datum:Temp:Feuchte:
G-T/H 151 13-01-2015 06:02:17 9.7 C 71 %
152 13-01-2015 06:14:17 9.6 C 71 %
153 13-01-2015 06:26:17 9.6 C 71 %
154 13-01-2015 06:38:17 9.6 C 71 %
155 13-01-2015 06:50:17 9.6 C 71 %
156 13-01-2015 07:02:17 9.6 C 71 %
157 13-01-2015 07:14:17 9.6 C 71 %
158 13-01-2015 07:26:17 9.6 C 71 %
159 13-01-2015 07:38:17 9.6 C 71 %
160 13-01-2015 07:50:17 9.6 C 71 %
161 13-01-2015 08:02:17 9.6 C 71 %
162 13-01-2015 08:14:17 9.6 C 71 %
163 13-01-2015 08:26:17 9.5 C 71 %
164 13-01-2015 08:38:17 9.5 C 71 %
165 13-01-2015 08:50:17 9.5 C 71 %
166 13-01-2015 09:02:17 9.5 C 71 %
167 13-01-2015 09:14:17 9.5 C 72 %
168 13-01-2015 09:26:17 9.5 C 72 %
169 13-01-2015 09:38:17 9.5 C 72 %
170 13-01-2015 09:50:17 9.5 C 72 %
171 13-01-2015 10:02:17 9.5 C 72 %
172 13-01-2015 10:14:17 9.5 C 72 %
173 13-01-2015 10:26:17 9.5 C 72 %
174 13-01-2015 10:38:17 9.5 C 72 %
175 13-01-2015 10:50:17 9.5 C 72 %
Sensor: Nr:Datum:Temp:Feuchte:
G-T/H 176 13-01-2015 11:02:17 9.5 C 72 %
177 13-01-2015 11:14:17 9.5 C 72 %
178 13-01-2015 11:26:17 9.5 C 72 %
179 13-01-2015 11:38:18 9.5 C 72 %
180 13-01-2015 11:50:17 9.5 C 72 %
181 13-01-2015 12:02:17 9.5 C 72 %
182 13-01-2015 12:14:17 9.5 C 72 %
183 13-01-2015 12:26:17 9.5 C 72 %
184 13-01-2015 12:38:17 9.5 C 72 %
185 13-01-2015 12:50:17 9.5 C 72 %
186 13-01-2015 13:02:17 9.5 C 72 %
187 13-01-2015 13:14:17 9.6 C 72 %
188 13-01-2015 13:26:17 9.6 C 72 %
189 13-01-2015 13:38:17 9.6 C 72 %
190 13-01-2015 13:50:17 9.6 C 72 %
191 13-01-2015 14:02:17 9.6 C 72 %
192 13-01-2015 14:14:17 9.6 C 72 %
193 13-01-2015 14:26:17 9.7 C 72 %
194 13-01-2015 14:38:17 9.7 C 72 %
195 13-01-2015 14:50:17 9.7 C 72 %
196 13-01-2015 15:02:17 9.7 C 72 %
197 13-01-2015 15:14:17 9.7 C 72 %
198 13-01-2015 15:26:17 9.7 C 72 %
199 13-01-2015 15:38:17 9.7 C 72 %
200 13-01-2015 15:50:17 9.8 C 72 %
Sensor: Nr:Datum:Temp:Feuchte:
G-T/H 201 13-01-2015 16:02:17 9.8 C 72 %
202 13-01-2015 16:14:17 9.8 C 72 %
203 13-01-2015 16:26:17 9.8 C 72 %
204 13-01-2015 16:38:17 9.8 C 72 %
205 13-01-2015 16:50:17 9.8 C 72 %
206 13-01-2015 17:02:17 10.1 C 72 %
207 13-01-2015 17:14:17 10.3 C 71 %
208 13-01-2015 17:26:17 10.5 C 71 %
209 13-01-2015 17:38:17 10.5 C 71 %
210 13-01-2015 17:50:17 10.5 C 71 %
211 13-01-2015 18:02:17 10.5 C 71 %
212 13-01-2015 18:14:17 10.4 C 71 %
213 13-01-2015 18:26:17 10.4 C 71 %
214 13-01-2015 18:38:17 10.4 C 71 %
215 13-01-2015 18:50:17 10.7 C 71 %
216 13-01-2015 19:02:17 10.8 C 71 %
217 13-01-2015 19:14:17 11 C 71 %
218 13-01-2015 19:26:17 11.1 C 71 %
219 13-01-2015 19:38:17 11.1 C 71 %
220 13-01-2015 19:50:17 11.2 C 71 %
221 13-01-2015 20:02:17 11.2 C 71 %
222 13-01-2015 20:14:17 11.2 C 71 %
223 13-01-2015 20:26:17 11.2 C 71 %
224 13-01-2015 20:38:17 11.1 C 71 %
225 13-01-2015 20:50:17 11.1 C 71 %
Sensor: Nr:Datum:Temp:Feuchte:
G-T/H 226 13-01-2015 21:02:17 11.1 C 71 %
227 13-01-2015 21:14:17 11.1 C 71 %
228 13-01-2015 21:26:17 11.1 C 71 %
229 13-01-2015 21:38:17 11.1 C 71 %
230 13-01-2015 21:50:17 11.1 C 71 %
231 13-01-2015 22:02:17 11 C 71 %
232 13-01-2015 22:14:17 11 C 71 %
233 13-01-2015 22:26:17 11 C 71 %
234 13-01-2015 22:38:17 11 C 71 %
235 13-01-2015 22:50:17 11 C 71 %
236 13-01-2015 23:02:17 11 C 71 %
237 13-01-2015 23:14:17 11 C 71 %
238 13-01-2015 23:26:17 10.9 C 72 %
239 13-01-2015 23:38:17 10.9 C 72 %
240 13-01-2015 23:50:17 10.9 C 72 %
241 14-01-2015 00:02:17 10.8 C 72 %
242 14-01-2015 00:14:17 10.9 C 72 %
243 14-01-2015 00:26:17 10.9 C 72 %
244 14-01-2015 00:38:17 10.8 C 72 %
245 14-01-2015 00:50:17 10.8 C 72 %
246 14-01-2015 01:02:17 10.8 C 72 %
247 14-01-2015 01:14:17 10.8 C 72 %
248 14-01-2015 01:26:17 10.8 C 72 %
249 14-01-2015 01:38:17 10.8 C 72 %
250 14-01-2015 01:50:17 10.7 C 72 %
Sensor: Nr:Datum:Temp:Feuchte:
G-T/H 251 14-01-2015 02:02:17 10.7 C 72 %
252 14-01-2015 02:14:17 10.7 C 72 %
253 14-01-2015 02:26:17 10.7 C 72 %
254 14-01-2015 02:38:17 10.7 C 72 %
255 14-01-2015 02:50:17 10.7 C 72 %
256 14-01-2015 03:02:18 10.7 C 72 %
257 14-01-2015 03:14:18 10.6 C 72 %
258 14-01-2015 03:26:17 10.6 C 72 %
259 14-01-2015 03:38:17 10.6 C 72 %
260 14-01-2015 03:50:17 10.6 C 72 %
261 14-01-2015 04:02:17 10.5 C 71 %
262 14-01-2015 04:14:17 10.5 C 71 %
263 14-01-2015 04:26:17 10.5 C 71 %
264 14-01-2015 04:38:17 10.5 C 71 %
265 14-01-2015 04:50:17 10.5 C 71 %
266 14-01-2015 05:02:17 10.5 C 71 %
267 14-01-2015 05:14:17 10.5 C 71 %
268 14-01-2015 05:26:17 10.5 C 71 %
269 14-01-2015 05:38:17 10.5 C 71 %
270 14-01-2015 05:50:17 10.4 C 71 %
271 14-01-2015 06:02:17 10.4 C 71 %
272 14-01-2015 06:14:17 10.3 C 71 %
273 14-01-2015 06:26:17 10.2 C 70 %
274 14-01-2015 06:38:17 10.2 C 70 %
275 14-01-2015 06:50:16 10.1 C 69 %
Sensor: Nr:Datum:Temp:Feuchte:
G-T/H 276 14-01-2015 07:02:17 10.1 C 68 %
277 14-01-2015 07:14:17 10 C 68 %
278 14-01-2015 07:26:17 10 C 67 %
279 14-01-2015 07:38:17 10 C 67 %
280 14-01-2015 07:50:17 9.9 C 67 %
281 14-01-2015 08:02:17 9.8 C 66 %
282 14-01-2015 08:14:17 9.7 C 66 %
283 14-01-2015 08:26:17 9.7 C 66 %
284 14-01-2015 08:38:17 9.6 C 66 %
285 14-01-2015 08:50:17 9.6 C 66 %
286 14-01-2015 09:02:17 9.6 C 66 %
287 14-01-2015 09:14:17 9.5 C 65 %
288 14-01-2015 09:26:17 9.5 C 65 %
289 14-01-2015 09:38:17 9.5 C 65 %
290 14-01-2015 09:50:17 9.5 C 65 %
291 14-01-2015 10:02:17 9.6 C 66 %
292 14-01-2015 10:14:17 9.6 C 67 %
293 14-01-2015 10:26:16 9.6 C 67 %
294 14-01-2015 10:38:17 9.7 C 67 %
295 14-01-2015 10:50:17 9.7 C 68 %
296 14-01-2015 11:02:17 9.7 C 68 %
297 14-01-2015 11:14:17 9.7 C 68 %
298 14-01-2015 11:26:17 9.6 C 68 %
299 14-01-2015 11:38:17 9.6 C 68 %
300 14-01-2015 11:50:17 9.6 C 68 %
Sensor: Nr:Datum:Temp:Feuchte:
G-T/H 301 14-01-2015 12:02:17 9.6 C 68 %
302 14-01-2015 12:14:17 9.6 C 69 %
303 14-01-2015 12:26:17 9.6 C 69 %
304 14-01-2015 12:38:17 9.6 C 69 %
305 14-01-2015 12:50:17 9.6 C 69 %
306 14-01-2015 13:02:17 9.6 C 70 %
307 14-01-2015 13:14:17 9.6 C 70 %
308 14-01-2015 13:26:17 9.6 C 70 %
309 14-01-2015 13:38:17 9.6 C 70 %
310 14-01-2015 13:50:17 9.6 C 70 %
311 14-01-2015 14:02:17 9.6 C 70 %
312 14-01-2015 14:14:17 9.6 C 70 %
313 14-01-2015 14:26:16 9.6 C 70 %
314 14-01-2015 14:38:17 9.6 C 70 %
315 14-01-2015 14:50:17 9.6 C 70 %
316 14-01-2015 15:02:17 9.5 C 70 %
317 14-01-2015 15:14:17 9.5 C 70 %
318 14-01-2015 15:26:17 9.5 C 70 %
319 14-01-2015 15:38:17 9.5 C 70 %
320 14-01-2015 15:50:17 9.4 C 69 %
321 14-01-2015 16:02:17 9.4 C 69 %
322 14-01-2015 16:14:17 9.3 C 68 %
323 14-01-2015 16:26:17 9.3 C 68 %
324 14-01-2015 16:38:17 9.2 C 67 %
325 14-01-2015 16:50:17 9.2 C 67 %
Sensor: Nr:Datum:Temp:Feuchte:
G-T/H 326 14-01-2015 17:02:17 9.1 C 67 %
327 14-01-2015 17:14:17 9.1 C 67 %
328 14-01-2015 17:26:17 9.1 C 66 %
329 14-01-2015 17:38:17 9.1 C 66 %
330 14-01-2015 17:50:17 9 C 66 %
331 14-01-2015 18:02:17 9 C 66 %
332 14-01-2015 18:14:17 9.2 C 66 %
333 14-01-2015 18:26:17 9.3 C 67 %
334 14-01-2015 18:38:17 9.4 C 67 %
335 14-01-2015 18:50:17 9.4 C 67 %
336 14-01-2015 19:02:17 9.5 C 67 %
337 14-01-2015 19:14:17 9.6 C 67 %
338 14-01-2015 19:26:17 9.6 C 67 %
339 14-01-2015 19:38:17 9.6 C 67 %
340 14-01-2015 19:50:17 9.5 C 67 %
341 14-01-2015 20:02:17 9.5 C 66 %
342 14-01-2015 20:14:17 9.5 C 66 %
343 14-01-2015 20:26:17 9.5 C 66 %
344 14-01-2015 20:38:17 9.6 C 66 %
345 14-01-2015 20:50:17 9.6 C 67 %
346 14-01-2015 21:02:17 9.6 C 67 %
347 14-01-2015 21:14:17 9.6 C 67 %
348 14-01-2015 21:26:17 9.6 C 68 %
349 14-01-2015 21:38:17 9.6 C 68 %
350 14-01-2015 21:50:17 9.6 C 68 %
Sensor: Nr:Datum:Temp:Feuchte:
G-T/H 351 14-01-2015 22:02:17 9.6 C 68 %
352 14-01-2015 22:14:17 9.6 C 68 %
353 14-01-2015 22:26:17 9.6 C 68 %
354 14-01-2015 22:38:17 9.6 C 68 %
355 14-01-2015 22:50:17 9.4 C 67 %
356 14-01-2015 23:02:17 9.4 C 67 %
357 14-01-2015 23:14:17 9.3 C 66 %
358 14-01-2015 23:26:17 9.3 C 66 %
359 14-01-2015 23:38:17 9.2 C 66 %
360 14-01-2015 23:50:16 9.1 C 66 %
361 15-01-2015 00:02:17 9.1 C 66 %
362 15-01-2015 00:14:17 9 C 65 %
363 15-01-2015 00:26:17 9 C 65 %
364 15-01-2015 00:38:17 9 C 65 %
365 15-01-2015 00:50:17 8.9 C 66 %
366 15-01-2015 01:02:17 8.9 C 66 %
367 15-01-2015 01:14:17 8.8 C 66 %
368 15-01-2015 01:26:17 8.8 C 66 %
369 15-01-2015 01:38:17 8.7 C 66 %
370 15-01-2015 01:50:17 8.7 C 66 %
371 15-01-2015 02:02:17 8.7 C 66 %
372 15-01-2015 02:14:17 8.7 C 66 %
373 15-01-2015 02:26:17 8.7 C 66 %
374 15-01-2015 02:38:17 8.7 C 66 %
375 15-01-2015 02:50:17 8.7 C 66 %
Sensor: Nr:Datum:Temp:Feuchte:
G-T/H 376 15-01-2015 03:02:17 8.6 C 66 %
377 15-01-2015 03:14:17 8.6 C 66 %
378 15-01-2015 03:26:17 8.6 C 66 %
379 15-01-2015 03:38:17 8.6 C 67 %
380 15-01-2015 03:50:17 8.6 C 67 %
381 15-01-2015 04:02:17 8.6 C 67 %
382 15-01-2015 04:14:17 8.6 C 67 %
383 15-01-2015 04:26:17 8.6 C 67 %
384 15-01-2015 04:38:17 8.6 C 67 %
385 15-01-2015 04:50:17 8.6 C 67 %
386 15-01-2015 05:02:17 8.6 C 67 %
387 15-01-2015 05:14:17 8.6 C 67 %
388 15-01-2015 05:26:17 8.6 C 68 %
389 15-01-2015 05:38:17 8.6 C 68 %
390 15-01-2015 05:50:17 8.6 C 68 %
391 15-01-2015 06:02:17 8.6 C 68 %
392 15-01-2015 06:14:17 8.6 C 68 %
393 15-01-2015 06:26:17 8.6 C 68 %
394 15-01-2015 06:38:17 8.6 C 68 %
395 15-01-2015 06:50:17 8.6 C 69 %
396 15-01-2015 07:02:17 8.6 C 69 %
397 15-01-2015 07:14:17 8.6 C 69 %
398 15-01-2015 07:26:17 8.6 C 69 %
399 15-01-2015 07:38:17 8.6 C 69 %
400 15-01-2015 07:50:17 8.6 C 69 %
Sensor: Nr:Datum:Temp:Feuchte:
G-T/H 401 15-01-2015 08:02:17 8.6 C 69 %
402 15-01-2015 08:14:17 8.6 C 69 %
403 15-01-2015 08:26:17 8.6 C 69 %
404 15-01-2015 08:38:17 8.6 C 69 %
405 15-01-2015 08:50:17 8.6 C 70 %
406 15-01-2015 09:02:18 8.6 C 70 %
407 15-01-2015 09:14:18 8.6 C 70 %
408 15-01-2015 09:26:17 8.6 C 70 %
409 15-01-2015 09:38:17 8.6 C 70 %
410 15-01-2015 09:50:17 8.6 C 71 %
411 15-01-2015 10:02:17 8.6 C 71 %
412 15-01-2015 10:14:17 8.6 C 71 %
413 15-01-2015 10:26:17 8.6 C 71 %
414 15-01-2015 10:38:17 8.6 C 71 %
415 15-01-2015 10:50:17 8.7 C 71 %
416 15-01-2015 11:02:17 8.7 C 71 %
417 15-01-2015 11:14:17 8.7 C 71 %
418 15-01-2015 11:26:17 8.7 C 71 %
419 15-01-2015 11:38:17 8.7 C 71 %
420 15-01-2015 11:50:17 8.8 C 71 %
421 15-01-2015 12:02:17 8.8 C 71 %
422 15-01-2015 12:14:17 8.8 C 71 %
423 15-01-2015 12:26:17 8.8 C 71 %
424 15-01-2015 12:38:17 8.8 C 71 %
425 15-01-2015 12:50:17 8.8 C 71 %
Sensor: Nr:Datum:Temp:Feuchte:
G-T/H 426 15-01-2015 13:02:17 8.9 C 71 %
427 15-01-2015 13:14:17 8.9 C 71 %
428 15-01-2015 13:26:17 8.9 C 72 %
429 15-01-2015 13:38:17 8.9 C 72 %
430 15-01-2015 13:50:17 8.9 C 72 %
431 15-01-2015 14:02:17 9 C 71 %
432 15-01-2015 14:14:17 9 C 71 %
433 15-01-2015 14:26:17 9 C 71 %
434 15-01-2015 14:38:17 9 C 71 %
435 15-01-2015 14:50:17 9 C 71 %
436 15-01-2015 15:02:17 9 C 71 %
437 15-01-2015 15:14:17 9 C 71 %
438 15-01-2015 15:26:17 9.1 C 71 %
439 15-01-2015 15:38:17 9.1 C 71 %
440 15-01-2015 15:50:17 9.1 C 71 %
441 15-01-2015 16:02:17 9.1 C 71 %
442 15-01-2015 16:14:17 9.2 C 71 %
443 15-01-2015 16:26:17 9.2 C 71 %
444 15-01-2015 16:38:17 9.2 C 71 %
445 15-01-2015 16:50:17 9.2 C 71 %
446 15-01-2015 17:02:17 9.2 C 71 %
447 15-01-2015 17:14:17 9.2 C 71 %
448 15-01-2015 17:26:17 9.2 C 71 %
449 15-01-2015 17:38:17 9.2 C 71 %
450 15-01-2015 17:50:17 9.3 C 71 %
Sensor: Nr:Datum:Temp:Feuchte:
G-T/H 451 15-01-2015 18:02:17 9.3 C 71 %
452 15-01-2015 18:14:17 9.3 C 71 %
453 15-01-2015 18:26:17 9.4 C 72 %
454 15-01-2015 18:38:17 9.4 C 72 %
455 15-01-2015 18:50:17 9.4 C 72 %
456 15-01-2015 19:02:17 9.4 C 72 %
457 15-01-2015 19:14:17 9.4 C 72 %
458 15-01-2015 19:26:17 9.5 C 72 %
459 15-01-2015 19:38:17 9.5 C 72 %
460 15-01-2015 19:50:17 9.5 C 72 %
461 15-01-2015 20:02:17 9.5 C 72 %
462 15-01-2015 20:14:17 9.5 C 72 %
463 15-01-2015 20:26:17 9.5 C 72 %
464 15-01-2015 20:38:17 9.5 C 72 %
465 15-01-2015 20:50:17 9.5 C 72 %
466 15-01-2015 21:02:17 9.5 C 72 %
467 15-01-2015 21:14:17 9.6 C 72 %
468 15-01-2015 21:26:17 9.6 C 72 %
469 15-01-2015 21:38:18 9.6 C 72 %
470 15-01-2015 21:50:17 9.6 C 72 %
471 15-01-2015 22:02:17 9.6 C 72 %
472 15-01-2015 22:14:17 9.6 C 72 %
473 15-01-2015 22:26:17 9.6 C 72 %
474 15-01-2015 22:38:17 9.6 C 72 %
475 15-01-2015 22:50:17 9.6 C 72 %
Sensor: Nr:Datum:Temp:Feuchte:
G-T/H 476 15-01-2015 23:02:17 9.6 C 72 %
477 15-01-2015 23:14:17 9.6 C 72 %
478 15-01-2015 23:26:17 9.7 C 72 %
479 15-01-2015 23:38:17 9.7 C 72 %
480 15-01-2015 23:50:17 9.7 C 72 %
481 16-01-2015 00:02:17 9.7 C 72 %
482 16-01-2015 00:14:17 9.7 C 72 %
483 16-01-2015 00:26:17 9.7 C 73 %
484 16-01-2015 00:38:17 9.7 C 73 %
485 16-01-2015 00:50:17 9.7 C 73 %
486 16-01-2015 01:02:17 9.7 C 73 %
487 16-01-2015 01:14:17 9.7 C 73 %
488 16-01-2015 01:26:17 9.7 C 73 %
489 16-01-2015 01:38:17 9.7 C 73 %
490 16-01-2015 01:50:17 9.7 C 73 %
491 16-01-2015 02:02:17 9.7 C 73 %
492 16-01-2015 02:14:17 9.7 C 73 %
493 16-01-2015 02:26:17 9.7 C 73 %
494 16-01-2015 02:38:17 9.7 C 73 %
495 16-01-2015 02:50:17 9.7 C 73 %
496 16-01-2015 03:02:17 9.7 C 73 %
497 16-01-2015 03:14:17 9.7 C 73 %
498 16-01-2015 03:26:17 9.7 C 73 %
499 16-01-2015 03:38:17 9.7 C 73 %
500 16-01-2015 03:50:17 9.7 C 73 %
Sensor: Nr:Datum:Temp:Feuchte:
G-T/H 501 16-01-2015 04:02:17 9.7 C 73 %
502 16-01-2015 04:14:17 9.7 C 73 %
503 16-01-2015 04:26:17 9.7 C 73 %
504 16-01-2015 04:38:17 9.7 C 73 %
505 16-01-2015 04:50:17 9.7 C 73 %
506 16-01-2015 05:02:18 9.7 C 73 %
507 16-01-2015 05:14:18 9.7 C 73 %
508 16-01-2015 05:26:17 9.7 C 73 %
509 16-01-2015 05:38:17 9.7 C 73 %
510 16-01-2015 05:50:17 9.7 C 73 %
511 16-01-2015 06:02:17 9.7 C 73 %
512 16-01-2015 06:14:18 9.7 C 73 %
513 16-01-2015 06:26:17 9.7 C 73 %
514 16-01-2015 06:38:17 9.7 C 73 %
515 16-01-2015 06:50:17 9.7 C 73 %
516 16-01-2015 07:02:17 9.7 C 73 %
517 16-01-2015 07:14:17 9.7 C 73 %
518 16-01-2015 07:26:17 9.7 C 73 %
519 16-01-2015 07:38:17 9.7 C 73 %
520 16-01-2015 07:50:17 9.7 C 73 %
521 16-01-2015 08:02:17 9.7 C 73 %
522 16-01-2015 08:14:17 9.7 C 73 %
523 16-01-2015 08:26:17 9.7 C 73 %
524 16-01-2015 08:38:17 9.7 C 73 %
525 16-01-2015 08:50:16 9.7 C 73 %
Sensor: Nr:Datum:Temp:Feuchte:
G-T/H 526 16-01-2015 09:02:17 9.7 C 73 %
527 16-01-2015 09:14:17 9.7 C 73 %
528 16-01-2015 09:26:16 9.7 C 73 %
529 16-01-2015 09:38:17 9.7 C 73 %
530 16-01-2015 09:50:17 9.7 C 73 %
531 16-01-2015 10:02:17 9.7 C 73 %
532 16-01-2015 10:14:17 9.7 C 73 %
533 16-01-2015 10:26:17 9.7 C 73 %
534 16-01-2015 10:38:17 9.7 C 73 %
535 16-01-2015 10:50:17 9.7 C 73 %
536 16-01-2015 11:02:17 9.7 C 73 %
537 16-01-2015 11:14:17 9.7 C 73 %
538 16-01-2015 11:26:17 9.6 C 73 %
539 16-01-2015 11:38:17 9.6 C 73 %
540 16-01-2015 11:50:17 9.6 C 73 %
541 16-01-2015 12:02:17 9.6 C 73 %
542 16-01-2015 12:14:17 9.6 C 73 %
543 16-01-2015 12:26:17 9.6 C 73 %
544 16-01-2015 12:38:17 9.6 C 73 %
545 16-01-2015 12:50:17 9.6 C 73 %
546 16-01-2015 13:02:18 9.6 C 73 %
547 16-01-2015 13:14:18 9.6 C 73 %
548 16-01-2015 13:26:18 9.6 C 73 %
549 16-01-2015 13:38:17 9.6 C 73 %
550 16-01-2015 13:50:17 9.6 C 73 %
Sensor: Nr:Datum:Temp:Feuchte:
G-T/H 551 16-01-2015 14:02:17 9.6 C 73 %
552 16-01-2015 14:14:17 9.6 C 73 %
553 16-01-2015 14:26:17 9.6 C 73 %
554 16-01-2015 14:38:17 9.6 C 73 %
555 16-01-2015 14:50:17 9.6 C 72 %
556 16-01-2015 15:02:17 9.6 C 72 %
557 16-01-2015 15:14:17 9.6 C 72 %
558 16-01-2015 15:26:17 9.6 C 72 %
559 16-01-2015 15:38:17 9.6 C 72 %
560 16-01-2015 15:50:17 9.6 C 72 %
561 16-01-2015 16:02:17 9.6 C 72 %
562 16-01-2015 16:14:17 9.6 C 72 %
563 16-01-2015 16:26:17 9.6 C 72 %
564 16-01-2015 16:38:17 9.6 C 72 %
565 16-01-2015 16:50:17 9.6 C 72 %
566 16-01-2015 17:02:17 9.5 C 72 %
567 16-01-2015 17:14:17 9.6 C 72 %
568 16-01-2015 17:26:17 9.6 C 72 %
569 16-01-2015 17:38:17 9.6 C 72 %
570 16-01-2015 17:50:17 9.5 C 72 %
571 16-01-2015 18:02:17 9.6 C 72 %
572 16-01-2015 18:14:17 9.6 C 72 %
573 16-01-2015 18:26:17 9.6 C 72 %
574 16-01-2015 18:38:17 9.6 C 72 %
575 16-01-2015 18:50:17 9.6 C 72 %
Sensor: Nr:Datum:Temp:Feuchte:
G-T/H 576 16-01-2015 19:02:17 9.6 C 72 %
577 16-01-2015 19:14:17 9.6 C 73 %
578 16-01-2015 19:26:17 9.6 C 73 %
579 16-01-2015 19:38:17 9.6 C 73 %
580 16-01-2015 19:50:17 9.6 C 73 %
581 16-01-2015 20:02:17 9.6 C 73 %
582 16-01-2015 20:14:17 9.6 C 73 %
583 16-01-2015 20:26:17 9.6 C 73 %
584 16-01-2015 20:38:17 9.6 C 73 %
585 16-01-2015 20:50:17 9.6 C 73 %
586 16-01-2015 21:02:17 9.6 C 73 %
587 16-01-2015 21:14:17 9.5 C 73 %
588 16-01-2015 21:26:17 9.5 C 73 %
589 16-01-2015 21:38:17 9.5 C 73 %
590 16-01-2015 21:50:17 9.5 C 73 %
591 16-01-2015 22:02:17 9.5 C 73 %
592 16-01-2015 22:14:17 9.5 C 73 %
593 16-01-2015 22:26:17 9.5 C 73 %
594 16-01-2015 22:38:17 9.5 C 73 %
595 16-01-2015 22:50:17 9.5 C 73 %
596 16-01-2015 23:02:17 9.5 C 73 %
597 16-01-2015 23:14:17 9.5 C 73 %
598 16-01-2015 23:26:17 9.5 C 73 %
599 16-01-2015 23:38:17 9.5 C 73 %
600 16-01-2015 23:50:17 9.4 C 73 %
Sensor: Nr:Datum:Temp:Feuchte:
G-T/H 601 17-01-2015 00:02:17 9.4 C 72 %
602 17-01-2015 00:14:17 9.4 C 72 %
603 17-01-2015 00:26:17 9.4 C 72 %
604 17-01-2015 00:38:17 9.4 C 72 %
605 17-01-2015 00:50:17 9.4 C 72 %
606 17-01-2015 01:02:17 9.4 C 72 %
607 17-01-2015 01:14:17 9.4 C 72 %
608 17-01-2015 01:26:17 9.4 C 72 %
609 17-01-2015 01:38:17 9.4 C 72 %
610 17-01-2015 01:50:17 9.4 C 72 %
611 17-01-2015 02:02:17 9.4 C 72 %
612 17-01-2015 02:14:18 9.4 C 72 %
613 17-01-2015 02:26:17 9.3 C 72 %
614 17-01-2015 02:38:17 9.3 C 72 %
615 17-01-2015 02:50:17 9.3 C 72 %
616 17-01-2015 03:02:17 9.3 C 72 %
617 17-01-2015 03:14:17 9.3 C 72 %
618 17-01-2015 03:26:17 9.3 C 72 %
619 17-01-2015 03:38:17 9.3 C 73 %
620 17-01-2015 03:50:18 9.3 C 73 %
621 17-01-2015 04:02:17 9.3 C 73 %
622 17-01-2015 04:14:17 9.3 C 73 %
623 17-01-2015 04:26:17 9.3 C 73 %
624 17-01-2015 04:38:17 9.2 C 73 %
625 17-01-2015 04:50:17 9.2 C 73 %
Sensor: Nr:Datum:Temp:Feuchte:
G-T/H 626 17-01-2015 05:02:17 9.3 C 73 %
627 17-01-2015 05:14:17 9.3 C 73 %
628 17-01-2015 05:26:18 9.2 C 73 %
629 17-01-2015 05:38:17 9.2 C 73 %
630 17-01-2015 05:50:17 9.2 C 73 %
631 17-01-2015 06:02:17 9.2 C 73 %
632 17-01-2015 06:14:17 9.2 C 73 %
633 17-01-2015 06:26:17 9.2 C 73 %
634 17-01-2015 06:38:17 9.1 C 72 %
635 17-01-2015 06:50:17 9.1 C 72 %
636 17-01-2015 07:02:17 9 C 71 %
637 17-01-2015 07:14:17 9 C 71 %
638 17-01-2015 07:26:17 8.9 C 71 %
639 17-01-2015 07:38:16 8.9 C 71 %
640 17-01-2015 07:50:17 8.8 C 71 %
641 17-01-2015 08:02:17 8.8 C 70 %
642 17-01-2015 08:14:17 8.8 C 70 %
643 17-01-2015 08:26:17 8.7 C 69 %
644 17-01-2015 08:38:17 8.6 C 69 %
645 17-01-2015 08:50:17 8.6 C 69 %
646 17-01-2015 09:02:17 8.6 C 69 %
647 17-01-2015 09:14:17 8.5 C 69 %
648 17-01-2015 09:26:17 8.5 C 69 %
649 17-01-2015 09:38:17 8.5 C 69 %
650 17-01-2015 09:50:17 8.5 C 69 %
Sensor: Nr:Datum:Temp:Feuchte:
G-T/H 651 17-01-2015 10:02:17 8.5 C 69 %
652 17-01-2015 10:14:17 8.5 C 69 %
653 17-01-2015 10:26:17 8.5 C 69 %
654 17-01-2015 10:38:17 8.5 C 69 %
655 17-01-2015 10:50:17 8.5 C 69 %
656 17-01-2015 11:02:17 8.5 C 69 %
657 17-01-2015 11:14:17 8.5 C 69 %
658 17-01-2015 11:26:17 8.5 C 69 %
659 17-01-2015 11:38:17 8.7 C 71 %
660 17-01-2015 11:50:17 8.7 C 71 %
661 17-01-2015 12:02:17 8.7 C 71 %
662 17-01-2015 12:14:17 8.7 C 71 %
663 17-01-2015 12:26:16 8.7 C 71 %
664 17-01-2015 12:38:17 8.7 C 71 %
665 17-01-2015 12:50:17 8.7 C 71 %
666 17-01-2015 13:02:17 8.7 C 71 %
667 17-01-2015 13:14:17 8.7 C 71 %
668 17-01-2015 13:26:17 8.7 C 71 %
669 17-01-2015 13:38:17 8.7 C 71 %
670 17-01-2015 13:50:17 8.7 C 72 %
671 17-01-2015 14:02:17 8.7 C 72 %
672 17-01-2015 14:14:17 8.7 C 72 %
673 17-01-2015 14:26:17 8.7 C 72 %
674 17-01-2015 14:38:17 8.7 C 72 %
675 17-01-2015 14:50:17 8.7 C 72 %
Sensor: Nr:Datum:Temp:Feuchte:
G-T/H 676 17-01-2015 15:02:17 8.7 C 72 %
677 17-01-2015 15:14:17 8.7 C 72 %
678 17-01-2015 15:26:17 8.7 C 71 %
679 17-01-2015 15:38:17 8.6 C 70 %
680 17-01-2015 15:50:18 8.6 C 69 %
681 17-01-2015 16:02:17 8.6 C 69 %
682 17-01-2015 16:14:17 8.6 C 69 %
683 17-01-2015 16:26:17 8.6 C 68 %
684 17-01-2015 16:38:17 8.6 C 69 %
685 17-01-2015 16:50:17 8.6 C 69 %
686 17-01-2015 17:02:17 8.6 C 69 %
687 17-01-2015 17:14:17 8.6 C 70 %
688 17-01-2015 17:26:17 8.6 C 70 %
689 17-01-2015 17:38:17 8.5 C 69 %
690 17-01-2015 17:50:17 8.4 C 68 %
691 17-01-2015 18:02:18 8.4 C 68 %
692 17-01-2015 18:14:18 8.3 C 68 %
693 17-01-2015 18:26:17 8.3 C 67 %
694 17-01-2015 18:38:17 8.3 C 67 %
695 17-01-2015 18:50:17 8.2 C 67 %
696 17-01-2015 19:02:17 8.2 C 67 %
697 17-01-2015 19:14:17 8.1 C 66 %
698 17-01-2015 19:26:17 8.1 C 66 %
699 17-01-2015 19:38:17 8 C 66 %
700 17-01-2015 19:50:17 8 C 65 %
Sensor: Nr:Datum:Temp:Feuchte:
G-T/H 701 17-01-2015 20:02:17 7.9 C 66 %
702 17-01-2015 20:14:17 7.9 C 66 %
703 17-01-2015 20:26:17 7.9 C 66 %
704 17-01-2015 20:38:18 7.9 C 66 %
705 17-01-2015 20:50:17 7.9 C 66 %
706 17-01-2015 21:02:17 7.8 C 65 %
707 17-01-2015 21:14:17 7.7 C 65 %
708 17-01-2015 21:26:17 7.7 C 65 %
709 17-01-2015 21:38:18 7.7 C 65 %
710 17-01-2015 21:50:17 7.7 C 64 %
711 17-01-2015 22:02:17 7.6 C 64 %
712 17-01-2015 22:14:17 7.6 C 64 %
713 17-01-2015 22:26:17 7.6 C 64 %
714 17-01-2015 22:38:17 7.6 C 64 %
715 17-01-2015 22:50:17 7.6 C 64 %
716 17-01-2015 23:02:17 7.6 C 64 %
717 17-01-2015 23:14:17 7.7 C 64 %
718 17-01-2015 23:26:17 7.7 C 65 %
719 17-01-2015 23:38:17 7.7 C 65 %
720 17-01-2015 23:50:17 7.7 C 66 %
721 18-01-2015 00:02:17 7.7 C 65 %
722 18-01-2015 00:14:17 7.7 C 65 %
723 18-01-2015 00:26:17 7.6 C 64 %
724 18-01-2015 00:38:17 7.5 C 64 %
725 18-01-2015 00:50:17 7.5 C 63 %
Sensor: Nr:Datum:Temp:Feuchte:
G-T/H 726 18-01-2015 01:02:17 7.5 C 63 %
727 18-01-2015 01:14:17 7.5 C 63 %
728 18-01-2015 01:26:17 7.5 C 63 %
729 18-01-2015 01:38:17 7.4 C 63 %
730 18-01-2015 01:50:17 7.4 C 62 %
731 18-01-2015 02:02:17 7.4 C 62 %
732 18-01-2015 02:14:17 7.4 C 62 %
733 18-01-2015 02:26:17 7.4 C 62 %
734 18-01-2015 02:38:17 7.3 C 62 %
735 18-01-2015 02:50:17 7.3 C 62 %
736 18-01-2015 03:02:17 7.4 C 62 %
737 18-01-2015 03:14:17 7.3 C 62 %
738 18-01-2015 03:26:17 7.3 C 61 %
739 18-01-2015 03:38:16 7.3 C 61 %
740 18-01-2015 03:50:17 7.3 C 61 %
741 18-01-2015 04:02:17 7.3 C 61 %
742 18-01-2015 04:14:17 7.3 C 61 %
743 18-01-2015 04:26:17 7.3 C 61 %
744 18-01-2015 04:38:17 7.3 C 61 %
745 18-01-2015 04:50:16 7.2 C 61 %
746 18-01-2015 05:02:17 7.2 C 61 %
747 18-01-2015 05:14:17 7.1 C 61 %
748 18-01-2015 05:26:17 7.1 C 61 %
749 18-01-2015 05:38:17 7.1 C 61 %
750 18-01-2015 05:50:17 7.1 C 61 %
Sensor: Nr:Datum:Temp:Feuchte:
G-T/H 751 18-01-2015 06:02:17 7.1 C 61 %
752 18-01-2015 06:14:17 7 C 61 %
753 18-01-2015 06:26:17 7 C 61 %
754 18-01-2015 06:38:17 7.1 C 62 %
755 18-01-2015 06:50:17 7.1 C 62 %
756 18-01-2015 07:02:17 7.1 C 63 %
757 18-01-2015 07:14:17 7.2 C 64 %
758 18-01-2015 07:26:17 7.2 C 64 %
759 18-01-2015 07:38:17 7.2 C 64 %
760 18-01-2015 07:50:17 7.1 C 63 %
761 18-01-2015 08:02:17 7.1 C 63 %
762 18-01-2015 08:14:17 7.1 C 62 %
763 18-01-2015 08:26:17 7.1 C 62 %
764 18-01-2015 08:38:17 7 C 62 %
765 18-01-2015 08:50:17 7 C 61 %
766 18-01-2015 09:02:17 7 C 61 %
767 18-01-2015 09:14:17 7 C 61 %
768 18-01-2015 09:26:17 7 C 62 %
769 18-01-2015 09:38:17 7 C 63 %
770 18-01-2015 09:50:17 7.1 C 63 %
771 18-01-2015 10:02:17 7.1 C 64 %
772 18-01-2015 10:14:17 7.1 C 64 %
773 18-01-2015 10:26:17 7.1 C 65 %
774 18-01-2015 10:38:17 7.1 C 65 %
775 18-01-2015 10:50:17 7.1 C 65 %
Sensor: Nr:Datum:Temp:Feuchte:
G-T/H 776 18-01-2015 11:02:17 7.2 C 65 %
777 18-01-2015 11:14:17 7.2 C 65 %
778 18-01-2015 11:26:16 7.2 C 66 %
779 18-01-2015 11:38:17 7.2 C 66 %
780 18-01-2015 11:50:17 7.2 C 66 %
781 18-01-2015 12:02:17 7.2 C 66 %
782 18-01-2015 12:14:17 7.3 C 66 %
783 18-01-2015 12:26:17 7.3 C 66 %
784 18-01-2015 12:38:17 7.3 C 67 %
785 18-01-2015 12:50:17 7.3 C 67 %
786 18-01-2015 13:02:17 7.3 C 66 %
787 18-01-2015 13:14:17 7.2 C 65 %
788 18-01-2015 13:26:17 7.2 C 65 %
789 18-01-2015 13:38:17 7.3 C 65 %
790 18-01-2015 13:50:17 7.3 C 65 %
791 18-01-2015 14:02:17 7.3 C 66 %
792 18-01-2015 14:14:17 7.3 C 66 %
793 18-01-2015 14:26:17 7.3 C 65 %
794 18-01-2015 14:38:17 7.4 C 65 %
795 18-01-2015 14:50:17 7.4 C 65 %
796 18-01-2015 15:02:17 7.5 C 65 %
797 18-01-2015 15:14:17 7.5 C 65 %
798 18-01-2015 15:26:17 7.5 C 66 %
799 18-01-2015 15:38:17 7.5 C 66 %
800 18-01-2015 15:50:17 7.5 C 66 %
Sensor: Nr:Datum:Temp:Feuchte:
G-T/H 801 18-01-2015 16:02:17 7.6 C 66 %
802 18-01-2015 16:14:17 7.5 C 66 %
803 18-01-2015 16:26:17 7.6 C 66 %
804 18-01-2015 16:38:17 7.6 C 67 %
805 18-01-2015 16:50:17 7.6 C 67 %
806 18-01-2015 17:02:17 7.5 C 66 %
807 18-01-2015 17:14:17 7.4 C 65 %
808 18-01-2015 17:26:17 7.4 C 65 %
809 18-01-2015 17:38:17 7.4 C 64 %
810 18-01-2015 17:50:17 7.4 C 64 %
811 18-01-2015 18:02:17 7.3 C 64 %
812 18-01-2015 18:14:17 7.3 C 63 %
813 18-01-2015 18:26:17 7.3 C 63 %
814 18-01-2015 18:38:17 7.3 C 63 %
815 18-01-2015 18:50:17 7.2 C 62 %
816 18-01-2015 19:02:17 7.2 C 62 %
817 18-01-2015 19:14:17 7.1 C 62 %
818 18-01-2015 19:26:17 7.1 C 62 %
819 18-01-2015 19:38:17 7 C 62 %
820 18-01-2015 19:50:17 7 C 61 %
821 18-01-2015 20:02:17 7 C 61 %
822 18-01-2015 20:14:17 7 C 61 %
823 18-01-2015 20:26:17 7 C 61 %
824 18-01-2015 20:38:17 6.9 C 62 %
825 18-01-2015 20:50:17 6.9 C 61 %
Sensor: Nr:Datum:Temp:Feuchte:
G-T/H 826 18-01-2015 21:02:17 6.9 C 61 %
827 18-01-2015 21:14:17 6.8 C 61 %
828 18-01-2015 21:26:17 6.8 C 61 %
829 18-01-2015 21:38:17 6.8 C 61 %
830 18-01-2015 21:50:16 6.8 C 61 %
831 18-01-2015 22:02:17 6.8 C 61 %
832 18-01-2015 22:14:17 6.7 C 61 %
833 18-01-2015 22:26:17 6.7 C 61 %
834 18-01-2015 22:38:17 6.7 C 61 %
835 18-01-2015 22:50:17 6.7 C 61 %
836 18-01-2015 23:02:17 6.6 C 60 %
837 18-01-2015 23:14:17 6.6 C 61 %
838 18-01-2015 23:26:17 6.7 C 61 %
839 18-01-2015 23:38:17 6.7 C 61 %
840 18-01-2015 23:50:17 6.6 C 61 %
841 19-01-2015 00:02:17 6.6 C 61 %
842 19-01-2015 00:14:17 6.6 C 61 %
843 19-01-2015 00:26:17 6.6 C 61 %
844 19-01-2015 00:38:16 6.6 C 61 %
845 19-01-2015 00:50:17 6.6 C 61 %
846 19-01-2015 01:02:17 6.6 C 61 %
847 19-01-2015 01:14:17 6.6 C 61 %
848 19-01-2015 01:26:17 6.5 C 61 %
849 19-01-2015 01:38:17 6.5 C 61 %
850 19-01-2015 01:50:17 6.5 C 61 %
Sensor: Nr:Datum:Temp:Feuchte:
G-T/H 851 19-01-2015 02:02:17 6.5 C 61 %
852 19-01-2015 02:14:17 6.5 C 61 %
853 19-01-2015 02:26:17 6.5 C 61 %
854 19-01-2015 02:38:17 6.5 C 61 %
855 19-01-2015 02:50:17 6.4 C 61 %
856 19-01-2015 03:02:17 6.4 C 61 %
857 19-01-2015 03:14:17 6.4 C 61 %
858 19-01-2015 03:26:17 6.4 C 61 %
859 19-01-2015 03:38:17 6.4 C 61 %
860 19-01-2015 03:50:17 6.4 C 61 %
861 19-01-2015 04:02:17 6.4 C 61 %
862 19-01-2015 04:14:17 6.4 C 61 %
863 19-01-2015 04:26:17 6.4 C 62 %
864 19-01-2015 04:38:17 6.4 C 62 %
865 19-01-2015 04:50:17 6.4 C 62 %
866 19-01-2015 05:02:17 6.4 C 62 %
867 19-01-2015 05:14:17 6.4 C 62 %
868 19-01-2015 05:26:17 6.3 C 62 %
869 19-01-2015 05:38:17 6.3 C 62 %
870 19-01-2015 05:50:17 6.3 C 62 %
871 19-01-2015 06:02:17 6.3 C 62 %
872 19-01-2015 06:14:17 6.4 C 62 %
873 19-01-2015 06:26:17 6.4 C 63 %
874 19-01-2015 06:38:17 6.5 C 63 %
875 19-01-2015 06:50:17 6.5 C 63 %
Sensor: Nr:Datum:Temp:Feuchte:
G-T/H 876 19-01-2015 07:02:17 6.5 C 64 %
877 19-01-2015 07:14:17 6.5 C 64 %
878 19-01-2015 07:26:17 6.5 C 64 %
879 19-01-2015 07:38:17 6.5 C 64 %
880 19-01-2015 07:50:17 6.6 C 64 %
881 19-01-2015 08:02:17 6.5 C 64 %
882 19-01-2015 08:14:17 6.4 C 64 %
883 19-01-2015 08:26:17 6.4 C 64 %
884 19-01-2015 08:38:17 6.4 C 65 %
885 19-01-2015 08:50:17 6.4 C 65 %
886 19-01-2015 09:02:17 6.4 C 65 %
887 19-01-2015 09:14:18 6.4 C 65 %
888 19-01-2015 09:26:16 6.4 C 65 %
889 19-01-2015 09:38:17 6.4 C 66 %
890 19-01-2015 09:50:17 6.4 C 66 %
891 19-01-2015 10:02:17 6.4 C 66 %
892 19-01-2015 10:14:17 6.5 C 66 %
893 19-01-2015 10:26:17 6.5 C 66 %
894 19-01-2015 10:38:17 6.5 C 66 %
895 19-01-2015 10:50:17 6.5 C 66 %
896 19-01-2015 11:02:17 6.5 C 66 %
897 19-01-2015 11:14:17 6.5 C 65 %
898 19-01-2015 11:26:17 6.5 C 64 %
899 19-01-2015 11:38:17 6.4 C 65 %
900 19-01-2015 11:50:17 6.4 C 65 %
Sensor: Nr:Datum:Temp:Feuchte:
G-T/H 901 19-01-2015 12:02:17 6.5 C 65 %
902 19-01-2015 12:14:17 6.5 C 65 %
903 19-01-2015 12:26:16 6.5 C 66 %
904 19-01-2015 12:38:17 6.5 C 66 %
905 19-01-2015 12:50:17 6.5 C 65 %
906 19-01-2015 13:02:17 6.5 C 65 %
907 19-01-2015 13:14:17 6.5 C 63 %
908 19-01-2015 13:26:17 6.5 C 63 %
909 19-01-2015 13:38:17 6.5 C 63 %
910 19-01-2015 13:50:17 6.5 C 63 %
911 19-01-2015 14:02:18 6.5 C 65 %
912 19-01-2015 14:14:18 6.5 C 65 %
913 19-01-2015 14:26:17 6.5 C 65 %
914 19-01-2015 14:38:17 6.5 C 65 %
915 19-01-2015 14:50:17 6.5 C 65 %
916 19-01-2015 15:02:17 6.5 C 65 %
917 19-01-2015 15:14:17 6.5 C 63 %
918 19-01-2015 15:26:17 6.5 C 63 %
919 19-01-2015 15:38:17 6.5 C 64 %
920 19-01-2015 15:50:17 6.5 C 64 %
921 19-01-2015 16:02:17 6.5 C 64 %
922 19-01-2015 16:14:17 6.5 C 64 %
923 19-01-2015 16:26:17 6.5 C 64 %
924 19-01-2015 16:38:17 6.5 C 64 %
925 19-01-2015 16:50:17 6.5 C 64 %
Sensor: Nr:Datum:Temp:Feuchte:
G-T/H 926 19-01-2015 17:02:17 6.5 C 64 %
927 19-01-2015 17:14:17 6.6 C 66 %
928 19-01-2015 17:26:17 6.6 C 66 %
929 19-01-2015 17:38:17 6.6 C 65 %
930 19-01-2015 17:50:17 6.9 C 65 %
931 19-01-2015 18:02:17 7.1 C 64 %
932 19-01-2015 18:14:17 7.2 C 64 %
933 19-01-2015 18:26:17 6.8 C 60 %
934 19-01-2015 18:38:17 6.8 C 60 %
935 19-01-2015 18:50:17 4.9 C 58 %
936 19-01-2015 19:02:17 4.9 C 58 %
937 19-01-2015 19:14:17 6.2 C 61 %
938 19-01-2015 19:26:17 6.2 C 61 %
939 19-01-2015 19:38:17 6.8 C 62 %
940 19-01-2015 19:50:17 6.8 C 62 %
941 19-01-2015 20:02:17 7.2 C 62 %
942 19-01-2015 20:14:17 7.3 C 62 %
943 19-01-2015 20:26:17 7.3 C 63 %
944 19-01-2015 20:38:18 7.3 C 62 %
945 19-01-2015 20:50:17 7.3 C 62 %
946 19-01-2015 21:02:17 7.3 C 61 %
947 19-01-2015 21:14:17 7.3 C 61 %
948 19-01-2015 21:26:17 7.3 C 61 %
949 19-01-2015 21:38:17 7.3 C 61 %
950 19-01-2015 21:50:17 7.3 C 60 %
Sensor: Nr:Datum:Temp:Feuchte:
G-T/H 951 19-01-2015 22:02:17 7.2 C 60 %
952 19-01-2015 22:14:17 7.3 C 59 %
953 19-01-2015 22:26:17 7.3 C 59 %
954 19-01-2015 22:38:17 7.3 C 59 %
955 19-01-2015 22:50:16 7.3 C 60 %
956 19-01-2015 23:02:17 7.4 C 61 %
957 19-01-2015 23:14:17 7.4 C 61 %
958 19-01-2015 23:26:17 7.4 C 61 %
959 19-01-2015 23:38:17 7.3 C 61 %
960 19-01-2015 23:50:17 7.2 C 60 %
961 20-01-2015 00:02:17 7.1 C 60 %
962 20-01-2015 00:14:17 7.1 C 60 %
963 20-01-2015 00:26:17 7.1 C 60 %
964 20-01-2015 00:38:17 7 C 60 %
965 20-01-2015 00:50:17 7 C 60 %
966 20-01-2015 01:02:17 7 C 60 %
967 20-01-2015 01:14:17 7 C 60 %
968 20-01-2015 01:26:17 6.9 C 61 %
969 20-01-2015 01:38:17 6.9 C 61 %
970 20-01-2015 01:50:17 6.9 C 61 %
971 20-01-2015 02:02:17 6.9 C 61 %
972 20-01-2015 02:14:17 6.8 C 61 %
973 20-01-2015 02:26:17 6.8 C 61 %
974 20-01-2015 02:38:17 6.8 C 61 %
975 20-01-2015 02:50:17 6.8 C 61 %
Sensor: Nr:Datum:Temp:Feuchte:
G-T/H 976 20-01-2015 03:02:17 6.8 C 61 %
977 20-01-2015 03:14:17 6.8 C 61 %
978 20-01-2015 03:26:17 6.7 C 61 %
979 20-01-2015 03:38:17 6.7 C 61 %
980 20-01-2015 03:50:17 6.7 C 61 %
981 20-01-2015 04:02:17 6.7 C 61 %
982 20-01-2015 04:14:17 6.7 C 61 %
983 20-01-2015 04:26:17 6.6 C 61 %
984 20-01-2015 04:38:17 6.6 C 61 %
985 20-01-2015 04:50:17 6.6 C 61 %
986 20-01-2015 05:02:17 6.6 C 61 %
987 20-01-2015 05:14:18 6.6 C 61 %
988 20-01-2015 05:26:17 6.6 C 61 %
989 20-01-2015 05:38:17 6.6 C 61 %
990 20-01-2015 05:50:17 6.6 C 61 %
991 20-01-2015 06:02:17 6.5 C 61 %
992 20-01-2015 06:14:17 6.5 C 62 %
993 20-01-2015 06:26:17 6.6 C 62 %
994 20-01-2015 06:38:17 6.6 C 62 %
995 20-01-2015 06:50:16 6.7 C 63 %
996 20-01-2015 07:02:17 6.7 C 63 %
997 20-01-2015 07:14:18 6.7 C 63 %
998 20-01-2015 07:26:17 6.7 C 63 %
999 20-01-2015 07:38:17 6.7 C 64 %
1000 20-01-2015 07:50:17 6.7 C 64 %
Sensor: Nr:Datum:Temp:Feuchte:
G-T/H 1001 20-01-2015 08:02:17 6.7 C 64 %
1002 20-01-2015 08:14:17 6.7 C 64 %
1003 20-01-2015 08:26:17 6.7 C 64 %
1004 20-01-2015 08:38:17 6.7 C 64 %
1005 20-01-2015 08:50:17 6.7 C 64 %
1006 20-01-2015 09:02:17 6.7 C 64 %
1007 20-01-2015 09:14:17 6.7 C 64 %
1008 20-01-2015 09:26:17 6.6 C 65 %
1009 20-01-2015 09:38:17 6.6 C 65 %
1010 20-01-2015 09:50:17 6.6 C 65 %
1011 20-01-2015 10:02:17 6.6 C 65 %
1012 20-01-2015 10:14:17 6.6 C 65 %
1013 20-01-2015 10:26:17 6.6 C 65 %
1014 20-01-2015 10:38:17 6.6 C 66 %
1015 20-01-2015 10:50:16 6.6 C 66 %
1016 20-01-2015 11:02:17 6.6 C 66 %
1017 20-01-2015 11:14:17 6.6 C 66 %
1018 20-01-2015 11:26:17 6.6 C 66 %
1019 20-01-2015 11:38:17 6.6 C 66 %
1020 20-01-2015 11:50:17 6.6 C 66 %
1021 20-01-2015 12:02:17 6.6 C 66 %
1022 20-01-2015 12:14:17 6.6 C 66 %
1023 20-01-2015 12:26:17 6.6 C 66 %
1024 20-01-2015 12:38:17 6.6 C 66 %
1025 20-01-2015 12:50:17 6.6 C 66 %
Sensor: Nr:Datum:Temp:Feuchte:
G-T/H 1026 20-01-2015 13:02:17 6.6 C 66 %
1027 20-01-2015 13:14:17 6.6 C 66 %
1028 20-01-2015 13:26:17 6.6 C 66 %
1029 20-01-2015 13:38:17 5.9 C 61 %
1030 20-01-2015 13:50:17 5.9 C 61 %
1031 20-01-2015 14:02:17 6.1 C 61 %
1032 20-01-2015 14:14:17 6.2 C 62 %
1033 20-01-2015 14:26:17 6.3 C 63 %
1034 20-01-2015 14:38:17 6.4 C 63 %
1035 20-01-2015 14:50:17 6.4 C 64 %
1036 20-01-2015 15:02:17 6.4 C 64 %
1037 20-01-2015 15:14:17 6.4 C 64 %
1038 20-01-2015 15:26:17 6.4 C 64 %
1039 20-01-2015 15:38:17 6.4 C 64 %
1040 20-01-2015 15:50:17 6.5 C 65 %
1041 20-01-2015 16:02:17 6.5 C 65 %
1042 20-01-2015 16:14:17 6.6 C 65 %
1043 20-01-2015 16:26:17 6.6 C 65 %
1044 20-01-2015 16:38:17 6.6 C 66 %
1045 20-01-2015 16:50:17 6.5 C 65 %
1046 20-01-2015 17:02:17 6.7 C 65 %
1047 20-01-2015 17:14:17 6.9 C 65 %
1048 20-01-2015 17:26:17 7.1 C 65 %
1049 20-01-2015 17:38:17 7.1 C 65 %
1050 20-01-2015 17:50:17 7.2 C 65 %
Sensor: Nr:Datum:Temp:Feuchte:
G-T/H 1051 20-01-2015 18:02:17 7.2 C 64 %
1052 20-01-2015 18:14:17 7.3 C 64 %
1053 20-01-2015 18:26:17 7.3 C 63 %
1054 20-01-2015 18:38:17 7.3 C 63 %
1055 20-01-2015 18:50:17 7.2 C 62 %
1056 20-01-2015 19:02:17 7.2 C 62 %
1057 20-01-2015 19:14:17 7.2 C 61 %
1058 20-01-2015 19:26:17 7.2 C 61 %
1059 20-01-2015 19:38:17 7.3 C 61 %
1060 20-01-2015 19:50:17 7.3 C 62 %
1061 20-01-2015 20:02:17 7.4 C 62 %
1062 20-01-2015 20:14:17 7.4 C 63 %
1063 20-01-2015 20:26:17 7.4 C 63 %
1064 20-01-2015 20:38:17 7.2 C 62 %
1065 20-01-2015 20:50:17 7.1 C 61 %
1066 20-01-2015 21:02:17 7.1 C 61 %
1067 20-01-2015 21:14:17 7.1 C 60 %
1068 20-01-2015 21:26:17 7 C 60 %
1069 20-01-2015 21:38:17 7 C 60 %
1070 20-01-2015 21:50:17 7 C 60 %
1071 20-01-2015 22:02:17 7 C 60 %
1072 20-01-2015 22:14:17 7 C 60 %
1073 20-01-2015 22:26:17 7 C 60 %
1074 20-01-2015 22:38:17 7 C 61 %
1075 20-01-2015 22:50:17 7 C 61 %
Sensor: Nr:Datum:Temp:Feuchte:
G-T/H 1076 20-01-2015 23:02:17 7 C 61 %
1077 20-01-2015 23:14:17 6.9 C 61 %
1078 20-01-2015 23:26:17 7 C 61 %
1079 20-01-2015 23:38:17 6.9 C 61 %
1080 20-01-2015 23:50:17 6.8 C 60 %
1081 21-01-2015 00:02:17 6.8 C 60 %
1082 21-01-2015 00:14:17 6.7 C 60 %
1083 21-01-2015 00:26:17 6.7 C 59 %
1084 21-01-2015 00:38:17 6.7 C 59 %
1085 21-01-2015 00:50:17 6.6 C 59 %
1086 21-01-2015 01:02:17 6.5 C 58 %
1087 21-01-2015 01:14:17 6.5 C 58 %
1088 21-01-2015 01:26:17 6.5 C 58 %
1089 21-01-2015 01:38:17 6.5 C 58 %
1090 21-01-2015 01:50:17 6.4 C 58 %
1091 21-01-2015 02:02:17 6.4 C 58 %
1092 21-01-2015 02:14:17 6.4 C 58 %
1093 21-01-2015 02:26:17 6.3 C 57 %
1094 21-01-2015 02:38:17 6.3 C 57 %
1095 21-01-2015 02:50:17 6.3 C 57 %
1096 21-01-2015 03:02:18 6.3 C 57 %
1097 21-01-2015 03:14:18 6.2 C 57 %
1098 21-01-2015 03:26:17 6.2 C 57 %
1099 21-01-2015 03:38:17 6.2 C 57 %
1100 21-01-2015 03:50:17 6.2 C 57 %
Sensor: Nr:Datum:Temp:Feuchte:
G-T/H 1101 21-01-2015 04:02:17 6.2 C 57 %
1102 21-01-2015 04:14:17 6.2 C 57 %
1103 21-01-2015 04:26:17 6.1 C 57 %
1104 21-01-2015 04:38:18 6.1 C 57 %
1105 21-01-2015 04:50:17 6 C 57 %
1106 21-01-2015 05:02:17 6 C 57 %
1107 21-01-2015 05:14:17 6 C 56 %
1108 21-01-2015 05:26:17 6 C 57 %
1109 21-01-2015 05:38:17 6 C 57 %
1110 21-01-2015 05:50:17 6 C 57 %
1111 21-01-2015 06:02:17 5.9 C 57 %
1112 21-01-2015 06:14:17 6 C 57 %
1113 21-01-2015 06:26:17 6.1 C 58 %
1114 21-01-2015 06:38:17 6.1 C 58 %
1115 21-01-2015 06:50:17 6.2 C 59 %
1116 21-01-2015 07:02:17 6.2 C 59 %
1117 21-01-2015 07:14:17 6.2 C 60 %
1118 21-01-2015 07:26:17 6.2 C 60 %
1119 21-01-2015 07:38:16 6.2 C 60 %
1120 21-01-2015 07:50:17 6.2 C 60 %
1121 21-01-2015 08:02:17 5.9 C 60 %
1122 21-01-2015 08:14:17 6 C 59 %
1123 21-01-2015 08:26:17 6 C 60 %
1124 21-01-2015 08:38:17 6 C 60 %
1125 21-01-2015 08:50:17 6 C 61 %
Sensor: Nr:Datum:Temp:Feuchte:
G-T/H 1126 21-01-2015 09:02:17 6 C 61 %
1127 21-01-2015 09:14:17 6 C 61 %
1128 21-01-2015 09:26:17 6 C 61 %
1129 21-01-2015 09:38:17 6 C 61 %
1130 21-01-2015 09:50:17 6 C 62 %
1131 21-01-2015 10:02:17 6 C 62 %
1132 21-01-2015 10:14:17 6 C 62 %
1133 21-01-2015 10:26:17 6 C 62 %
1134 21-01-2015 10:38:17 6 C 62 %
1135 21-01-2015 10:50:17 6 C 62 %
1136 21-01-2015 11:02:17 6 C 62 %
1137 21-01-2015 11:14:17 6 C 62 %
1138 21-01-2015 11:26:17 6 C 62 %
1139 21-01-2015 11:38:17 6 C 63 %
1140 21-01-2015 11:50:17 6 C 63 %
1141 21-01-2015 12:02:17 6 C 63 %
1142 21-01-2015 12:14:17 6 C 63 %
1143 21-01-2015 12:26:17 6 C 63 %
1144 21-01-2015 12:38:17 6 C 63 %
1145 21-01-2015 12:50:17 6 C 63 %
1146 21-01-2015 13:02:17 6 C 64 %
1147 21-01-2015 13:14:17 5 C 64 %
1148 21-01-2015 13:26:17 4 C 64 %
1149 21-01-2015 13:38:17 3 C 64 %
1150 21-01-2015 13:50:17 2 C 64 %
Sensor: Nr:Datum:Temp:Feuchte:
G-T/H 1151 21-01-2015 14:02:17 6 C 64 %
1152 21-01-2015 14:14:17 6 C 64 %
1153 21-01-2015 14:26:17 6 C 64 %
1154 21-01-2015 14:38:17 6 C 64 %
1155 21-01-2015 14:50:17 6 C 65 %
1156 21-01-2015 15:02:17 6 C 65 %
1157 21-01-2015 15:14:17 6 C 65 %
1158 21-01-2015 15:26:17 6.1 C 65 %
1159 21-01-2015 15:38:17 6 C 65 %
1160 21-01-2015 15:50:17 6 C 65 %
1161 21-01-2015 16:02:17 6.1 C 65 %
1162 21-01-2015 16:14:17 6.1 C 65 %
1163 21-01-2015 16:26:17 6 C 65 %
1164 21-01-2015 16:38:17 6.1 C 65 %
1165 21-01-2015 16:50:17 6 C 65 %
1166 21-01-2015 17:02:18 6 C 65 %
1167 21-01-2015 17:14:18 6.1 C 65 %
1168 21-01-2015 17:26:17 6.1 C 66 %
1169 21-01-2015 17:38:17 6.1 C 65 %
1170 21-01-2015 17:50:17 6.3 C 65 %
1171 21-01-2015 18:02:17 6.9 C 65 %
1172 21-01-2015 18:14:17 6.9 C 65 %
1173 21-01-2015 18:26:17 7.1 C 64 %
1174 21-01-2015 18:38:17 7.2 C 64 %
1175 21-01-2015 18:50:17 7.2 C 64 %
Sensor: Nr:Datum:Temp:Feuchte:
G-T/H 1176 21-01-2015 19:02:17 7.2 C 64 %
1177 21-01-2015 19:14:17 7.3 C 64 %
1178 21-01-2015 19:26:17 7.3 C 64 %
1179 21-01-2015 19:38:17 7.2 C 64 %
1180 21-01-2015 19:50:17 7.2 C 63 %
1181 21-01-2015 20:02:17 7.2 C 63 %
1182 21-01-2015 20:14:17 7.2 C 62 %
1183 21-01-2015 20:26:17 7.2 C 63 %
1184 21-01-2015 20:38:17 7.3 C 63 %
1185 21-01-2015 20:50:17 7.3 C 63 %
1186 21-01-2015 21:02:17 7.3 C 63 %
1187 21-01-2015 21:14:17 7.3 C 63 %
1188 21-01-2015 21:26:17 7.3 C 63 %
1189 21-01-2015 21:38:17 7.3 C 63 %
1190 21-01-2015 21:50:17 7.3 C 63 %
1191 21-01-2015 22:02:17 7.3 C 63 %
1192 21-01-2015 22:14:17 7.3 C 63 %
1193 21-01-2015 22:26:17 7.3 C 63 %
1194 21-01-2015 22:38:17 7.3 C 63 %
1195 21-01-2015 22:50:17 7.1 C 63 %
1196 21-01-2015 23:02:17 7.1 C 63 %
1197 21-01-2015 23:14:17 7.1 C 63 %
1198 21-01-2015 23:26:17 7.1 C 63 %
1199 21-01-2015 23:38:17 7.1 C 63 %
1200 21-01-2015 23:50:17 7.1 C 63 %
Sensor: Nr:Datum:Temp:Feuchte:
G-T/H 1201 22-01-2015 00:02:17 7.1 C 63 %
1202 22-01-2015 00:14:17 7.1 C 63 %
1203 22-01-2015 00:26:17 7.1 C 63 %
1204 22-01-2015 00:38:17 7.1 C 63 %
1205 22-01-2015 00:50:17 7.1 C 63 %
1206 22-01-2015 01:02:17 7.1 C 63 %
1207 22-01-2015 01:14:17 7.1 C 63 %
1208 22-01-2015 01:26:17 7.1 C 63 %
1209 22-01-2015 01:38:17 7.1 C 63 %
1210 22-01-2015 01:50:17 7.1 C 63 %
1211 22-01-2015 02:02:17 7.1 C 63 %
1212 22-01-2015 02:14:17 7.1 C 63 %
1213 22-01-2015 02:26:17 7.1 C 63 %
1214 22-01-2015 02:38:17 7.1 C 63 %
1215 22-01-2015 02:50:17 7.1 C 63 %
1216 22-01-2015 03:02:17 7.1 C 63 %
1217 22-01-2015 03:14:17 7.1 C 63 %
1218 22-01-2015 03:26:17 7.1 C 63 %
1219 22-01-2015 03:38:17 7.1 C 63 %
1220 22-01-2015 03:50:17 7.1 C 63 %
1221 22-01-2015 04:02:17 7.1 C 63 %
1222 22-01-2015 04:14:17 7.1 C 63 %
1223 22-01-2015 04:26:17 7 C 65 %
1224 22-01-2015 04:38:17 7 C 65 %
1225 22-01-2015 04:50:17 7 C 65 %
Sensor: Nr:Datum:Temp:Feuchte:
G-T/H 1226 22-01-2015 05:02:17 7 C 65 %
1227 22-01-2015 05:14:17 7 C 65 %
1228 22-01-2015 05:26:17 7 C 65 %
1229 22-01-2015 05:38:17 7 C 65 %
1230 22-01-2015 05:50:17 7 C 65 %
1231 22-01-2015 06:02:17 7 C 65 %
1232 22-01-2015 06:14:17 7 C 65 %
1233 22-01-2015 06:26:17 7 C 65 %
1234 22-01-2015 06:38:18 7 C 65 %
1235 22-01-2015 06:50:17 7 C 65 %
1236 22-01-2015 07:02:17 6.9 C 66 %
1237 22-01-2015 07:14:17 6.9 C 66 %
1238 22-01-2015 07:26:17 6.9 C 66 %
1239 22-01-2015 07:38:17 6.9 C 66 %
1240 22-01-2015 07:50:17 6.9 C 66 %
1241 22-01-2015 08:02:17 6.9 C 66 %
1242 22-01-2015 08:14:17 6.9 C 66 %
1243 22-01-2015 08:26:17 6.9 C 66 %
1244 22-01-2015 08:38:17 6.9 C 66 %
1245 22-01-2015 08:50:17 6.9 C 66 %
1246 22-01-2015 09:02:17 6.9 C 66 %
1247 22-01-2015 09:14:17 6.4 C 61 %
1248 22-01-2015 09:26:17 6.4 C 61 %
1249 22-01-2015 09:38:17 6.4 C 61 %
1250 22-01-2015 09:50:17 6.4 C 60 %
Sensor: Nr:Datum:Temp:Feuchte:
G-T/H 1251 22-01-2015 10:02:16 6.3 C 60 %
1252 22-01-2015 10:14:17 6.4 C 61 %
1253 22-01-2015 10:26:17 6.4 C 62 %
1254 22-01-2015 10:38:17 6.4 C 62 %
1255 22-01-2015 10:50:17 6.4 C 63 %
1256 22-01-2015 11:02:17 6.4 C 62 %
1257 22-01-2015 11:14:17 6.4 C 62 %
1258 22-01-2015 11:26:17 6.4 C 61 %
1259 22-01-2015 11:38:17 6.3 C 61 %
1260 22-01-2015 11:50:17 6.4 C 61 %
1261 22-01-2015 12:02:17 6.4 C 62 %
1262 22-01-2015 12:14:17 6.4 C 62 %
1263 22-01-2015 12:26:17 6.4 C 62 %
1264 22-01-2015 12:38:17 6.4 C 63 %
1265 22-01-2015 12:50:17 6.4 C 63 %
1266 22-01-2015 13:02:17 6.4 C 63 %
1267 22-01-2015 13:14:17 6.5 C 64 %
1268 22-01-2015 13:26:17 6.4 C 64 %
1269 22-01-2015 13:38:17 6.4 C 63 %
1270 22-01-2015 13:50:17 6.4 C 62 %
1271 22-01-2015 14:02:17 6.4 C 62 %
1272 22-01-2015 14:14:17 6.4 C 62 %
1273 22-01-2015 14:26:17 6.4 C 63 %
1274 22-01-2015 14:38:17 6.4 C 63 %
1275 22-01-2015 14:50:17 6.4 C 63 %
Sensor: Nr:Datum:Temp:Feuchte:
G-T/H 1276 22-01-2015 15:02:17 6.4 C 64 %
1277 22-01-2015 15:14:17 6.4 C 64 %
1278 22-01-2015 15:26:17 6.5 C 64 %
1279 22-01-2015 15:38:17 6.5 C 64 %
1280 22-01-2015 15:50:17 6.4 C 64 %
1281 22-01-2015 16:02:17 6.4 C 64 %
1282 22-01-2015 16:14:17 6.4 C 64 %
1283 22-01-2015 16:26:17 6.4 C 64 %
1284 22-01-2015 16:38:17 6.4 C 63 %
1285 22-01-2015 16:50:17 6.5 C 63 %
1286 22-01-2015 17:02:17 6.8 C 63 %
1287 22-01-2015 17:14:17 7.1 C 63 %
1288 22-01-2015 17:26:17 7.3 C 63 %
1289 22-01-2015 17:38:17 7.5 C 63 %
1290 22-01-2015 17:50:17 7.5 C 63 %
1291 22-01-2015 18:02:17 7.5 C 63 %
1292 22-01-2015 18:14:17 7.5 C 63 %
1293 22-01-2015 18:26:17 7.5 C 63 %
1294 22-01-2015 18:38:17 7.2 C 60 %
1295 22-01-2015 18:50:17 7.3 C 60 %
1296 22-01-2015 19:02:17 7.3 C 60 %
1297 22-01-2015 19:14:17 7.4 C 60 %
1298 22-01-2015 19:26:17 7.4 C 60 %
1299 22-01-2015 19:38:17 7.4 C 60 %
1300 22-01-2015 19:50:17 7.5 C 61 %
Sensor: Nr:Datum:Temp:Feuchte:
G-T/H 1301 22-01-2015 20:02:17 7.5 C 61 %
1302 22-01-2015 20:14:17 7.5 C 61 %
1303 22-01-2015 20:26:17 7.5 C 61 %
1304 22-01-2015 20:38:17 7.4 C 61 %
1305 22-01-2015 20:50:17 7.4 C 60 %
1306 22-01-2015 21:02:17 7.4 C 60 %
1307 22-01-2015 21:14:17 7.5 C 60 %
1308 22-01-2015 21:26:17 7.5 C 60 %
1309 22-01-2015 21:38:17 7.5 C 60 %
1310 22-01-2015 21:50:17 7.5 C 61 %
1311 22-01-2015 22:02:17 7.4 C 61 %
1312 22-01-2015 22:14:17 7.4 C 61 %
1313 22-01-2015 22:26:17 7.4 C 61 %
1314 22-01-2015 22:38:17 7.3 C 61 %
1315 22-01-2015 22:50:17 7.3 C 61 %
1316 22-01-2015 23:02:17 7.3 C 62 %
1317 22-01-2015 23:14:17 7.3 C 62 %
1318 22-01-2015 23:26:17 7.3 C 62 %
1319 22-01-2015 23:38:17 7.3 C 62 %
1320 22-01-2015 23:50:17 7.3 C 62 %
1321 23-01-2015 00:02:17 7.3 C 62 %
1322 23-01-2015 00:14:17 7.2 C 63 %
1323 23-01-2015 00:26:17 7.2 C 63 %
1324 23-01-2015 00:38:17 7.2 C 63 %
1325 23-01-2015 00:50:17 7.2 C 63 %
Sensor: Nr:Datum:Temp:Feuchte:
G-T/H 1326 23-01-2015 01:02:17 7.2 C 63 %
1327 23-01-2015 01:14:17 7.1 C 63 %
1328 23-01-2015 01:26:17 7.1 C 63 %
1329 23-01-2015 01:38:17 7.1 C 63 %
1330 23-01-2015 01:50:17 7.1 C 63 %
1331 23-01-2015 02:02:17 7.1 C 64 %
1332 23-01-2015 02:14:17 7.1 C 64 %
1333 23-01-2015 02:26:17 7.1 C 64 %
1334 23-01-2015 02:38:17 7.1 C 64 %
1335 23-01-2015 02:50:17 7 C 64 %
1336 23-01-2015 03:02:17 7 C 64 %
1337 23-01-2015 03:14:17 7 C 64 %
1338 23-01-2015 03:26:17 7 C 64 %
1339 23-01-2015 03:38:17 7 C 64 %
1340 23-01-2015 03:50:17 7 C 64 %
1341 23-01-2015 04:02:17 7 C 64 %
1342 23-01-2015 04:14:17 7 C 65 %
1343 23-01-2015 04:26:17 7 C 65 %
1344 23-01-2015 04:38:17 6.9 C 66 %
1345 23-01-2015 04:50:17 6.9 C 66 %
1346 23-01-2015 05:02:17 6.9 C 66 %
1347 23-01-2015 05:14:17 6.9 C 66 %
1348 23-01-2015 05:26:17 6.9 C 66 %
1349 23-01-2015 05:38:17 6.9 C 66 %
1350 23-01-2015 05:50:17 6.9 C 66 %
Sensor: Nr:Datum:Temp:Feuchte:
G-T/H 1351 23-01-2015 06:02:17 6.9 C 66 %
1352 23-01-2015 06:14:17 6.9 C 66 %
1353 23-01-2015 06:26:17 6.9 C 66 %
1354 23-01-2015 06:38:17 6.9 C 66 %
1355 23-01-2015 06:50:17 6.9 C 66 %
1356 23-01-2015 07:02:17 6.9 C 66 %
1357 23-01-2015 07:14:17 6.9 C 66 %
1358 23-01-2015 07:26:17 6.9 C 66 %
1359 23-01-2015 07:38:17 6.9 C 67 %
1360 23-01-2015 07:50:17 6.8 C 67 %
1361 23-01-2015 08:02:17 6.8 C 67 %
1362 23-01-2015 08:14:17 6.8 C 66 %
1363 23-01-2015 08:26:17 6.7 C 65 %
1364 23-01-2015 08:38:17 6.7 C 65 %
1365 23-01-2015 08:50:17 6.7 C 65 %
1366 23-01-2015 09:02:17 6.7 C 65 %
1367 23-01-2015 09:14:17 6.7 C 65 %
1368 23-01-2015 09:26:17 6.7 C 66 %
1369 23-01-2015 09:38:17 6.7 C 66 %
1370 23-01-2015 09:50:17 6.7 C 66 %
1371 23-01-2015 10:02:17 6.7 C 66 %
1372 23-01-2015 10:14:17 6.7 C 66 %
1373 23-01-2015 10:26:17 6.7 C 66 %
1374 23-01-2015 10:38:17 6.7 C 66 %
1375 23-01-2015 10:50:17 6.7 C 66 %
Sensor: Nr:Datum:Temp:Feuchte:
G-T/H 1376 23-01-2015 11:02:17 6.7 C 66 %
1377 23-01-2015 11:14:17 6.7 C 66 %
1378 23-01-2015 11:26:17 6.7 C 66 %
1379 23-01-2015 11:38:17 6.7 C 66 %
1380 23-01-2015 11:50:17 6.7 C 67 %
1381 23-01-2015 12:02:17 6.7 C 67 %
1382 23-01-2015 12:14:17 6.7 C 67 %
1383 23-01-2015 12:26:17 6.7 C 67 %
1384 23-01-2015 12:38:17 6.8 C 67 %
1385 23-01-2015 12:50:17 6.7 C 67 %
1386 23-01-2015 13:02:17 6.8 C 67 %
1387 23-01-2015 13:14:17 6.8 C 67 %
1388 23-01-2015 13:26:17 6.8 C 67 %
1389 23-01-2015 13:38:17 6.8 C 67 %
1390 23-01-2015 13:50:17 6.8 C 67 %
1391 23-01-2015 14:02:17 6.8 C 67 %
1392 23-01-2015 14:14:17 6.8 C 67 %
1393 23-01-2015 14:26:17 6.8 C 67 %
1394 23-01-2015 14:38:17 6.8 C 67 %
1395 23-01-2015 14:50:17 6.8 C 68 %
1396 23-01-2015 15:02:17 6.8 C 68 %
1397 23-01-2015 15:14:17 6.4 C 64 %
1398 23-01-2015 15:26:17 6.7 C 64 %
1399 23-01-2015 15:38:17 6.8 C 65 %
1400 23-01-2015 15:50:17 6.8 C 65 %
Sensor: Nr:Datum:Temp:Feuchte:
G-T/H 1401 23-01-2015 16:02:17 6.9 C 65 %
1402 23-01-2015 16:14:17 6.9 C 66 %
1403 23-01-2015 16:26:17 6.9 C 66 %
1404 23-01-2015 16:38:17 6.9 C 66 %
1405 23-01-2015 16:50:17 6.9 C 66 %
1406 23-01-2015 17:02:17 6.9 C 66 %
1407 23-01-2015 17:14:17 6.8 C 65 %
1408 23-01-2015 17:26:17 6.8 C 65 %
1409 23-01-2015 17:38:17 6.7 C 64 %
1410 23-01-2015 17:50:17 6.7 C 64 %
1411 23-01-2015 18:02:17 6.6 C 63 %
1412 23-01-2015 18:14:17 6.6 C 63 %
1413 23-01-2015 18:26:17 6.5 C 63 %
1414 23-01-2015 18:38:17 6.6 C 63 %
1415 23-01-2015 18:50:17 6.5 C 62 %
1416 23-01-2015 19:02:17 6.5 C 62 %
1417 23-01-2015 19:14:17 6.4 C 62 %
1418 23-01-2015 19:26:17 6.4 C 62 %
1419 23-01-2015 19:38:17 6.4 C 62 %
1420 23-01-2015 19:50:17 6.4 C 62 %
1421 23-01-2015 20:02:17 6.4 C 62 %
1422 23-01-2015 20:14:17 6.2 C 60 %
1423 23-01-2015 20:26:17 6.4 C 62 %
1424 23-01-2015 20:38:17 6.8 C 62 %
1425 23-01-2015 20:51:17 6.9 C 62 %
Sensor: Nr:Datum:Temp:Feuchte:
G-T/H 1426 23-01-2015 21:02:17 7 C 61 %
1427 23-01-2015 21:14:17 7.1 C 61 %
1428 23-01-2015 21:26:17 7.1 C 61 %
1429 23-01-2015 21:38:17 7.2 C 60 %
1430 23-01-2015 21:51:17 7.2 C 60 %
1431 23-01-2015 22:02:17 7.2 C 60 %
1432 23-01-2015 22:14:17 7.1 C 59 %
1433 23-01-2015 22:26:17 7.1 C 59 %
1434 23-01-2015 22:38:17 7.1 C 59 %
1435 23-01-2015 22:51:17 7.1 C 59 %
1436 23-01-2015 23:02:17 7.1 C 58 %
1437 23-01-2015 23:14:17 7 C 58 %
1438 23-01-2015 23:27:17 7.1 C 58 %
1439 23-01-2015 23:39:17 7 C 58 %
1440 23-01-2015 23:50:17 7 C 58 %
1441 24-01-2015 00:02:17 7 C 57 %
1442 24-01-2015 00:14:17 6.9 C 58 %
1443 24-01-2015 00:27:16 6.9 C 58 %
1444 24-01-2015 00:38:17 6.9 C 58 %
1445 24-01-2015 00:50:17 6.9 C 58 %
1446 24-01-2015 01:02:17 6.9 C 58 %
1447 24-01-2015 01:14:17 6.9 C 58 %
1448 24-01-2015 01:26:17 6.8 C 58 %
1449 24-01-2015 01:38:17 6.8 C 58 %
1450 24-01-2015 01:50:17 6.8 C 58 %
Sensor: Nr:Datum:Temp:Feuchte:
G-T/H 1451 24-01-2015 02:03:17 6.8 C 58 %
1452 24-01-2015 02:15:17 6.7 C 58 %
1453 24-01-2015 02:27:17 6.7 C 58 %
1454 24-01-2015 02:38:17 6.6 C 58 %
1455 24-01-2015 02:51:17 6.6 C 58 %
1456 24-01-2015 03:02:17 6.6 C 57 %
1457 24-01-2015 03:14:17 6.6 C 57 %
1458 24-01-2015 03:26:17 6.5 C 57 %
1459 24-01-2015 03:39:17 6.5 C 57 %
1460 24-01-2015 03:51:17 6.5 C 57 %
1461 24-01-2015 04:03:17 6.5 C 57 %
1462 24-01-2015 04:15:17 6.5 C 57 %
1463 24-01-2015 04:27:17 6.5 C 57 %
1464 24-01-2015 04:39:17 6.5 C 57 %
1465 24-01-2015 04:51:16 6.5 C 57 %
1466 24-01-2015 05:03:17 6.5 C 57 %
1467 24-01-2015 05:15:16 6.4 C 57 %
1468 24-01-2015 05:27:16 6.4 C 57 %
1469 24-01-2015 05:39:17 6.4 C 57 %
1470 24-01-2015 05:51:16 6.4 C 57 %
1471 24-01-2015 06:03:17 6.4 C 57 %
1472 24-01-2015 06:15:16 6.4 C 57 %
1473 24-01-2015 06:27:16 6.4 C 57 %
1474 24-01-2015 06:39:17 6.3 C 57 %
1475 24-01-2015 06:51:16 6.3 C 57 %
Sensor: Nr:Datum:Temp:Feuchte:
G-T/H 1476 24-01-2015 07:03:16 6.3 C 57 %
1477 24-01-2015 07:15:17 6.3 C 57 %
1478 24-01-2015 07:27:17 6.3 C 57 %
1479 24-01-2015 07:39:17 6.3 C 57 %
1480 24-01-2015 07:51:17 6.3 C 57 %
1481 24-01-2015 08:03:16 6.3 C 57 %
1482 24-01-2015 08:15:17 6.3 C 58 %
1483 24-01-2015 08:27:17 6.4 C 58 %
1484 24-01-2015 08:39:17 6.4 C 59 %
1485 24-01-2015 08:51:16 6.4 C 59 %
1486 24-01-2015 09:03:17 6.5 C 60 %
1487 24-01-2015 09:15:17 6.5 C 60 %
1488 24-01-2015 09:27:17 6.5 C 60 %
1489 24-01-2015 09:39:17 6.5 C 60 %
1490 24-01-2015 09:51:16 6.5 C 61 %
1491 24-01-2015 10:03:17 6.4 C 60 %
1492 24-01-2015 10:15:17 6.3 C 60 %
1493 24-01-2015 10:27:17 6.3 C 61 %
1494 24-01-2015 10:39:16 6.2 C 60 %
1495 24-01-2015 10:51:16 6.5 C 61 %
1496 24-01-2015 11:03:17 6.7 C 61 %
1497 24-01-2015 11:15:16 6.9 C 61 %
1498 24-01-2015 11:27:17 7 C 61 %
1499 24-01-2015 11:39:16 7.1 C 61 %
1500 24-01-2015 11:51:16 7.2 C 61 %
Sensor: Nr:Datum:Temp:Feuchte:
G-T/H 1501 24-01-2015 12:03:17 7.4 C 61 %
1502 24-01-2015 12:15:17 7.5 C 61 %
1503 24-01-2015 12:27:17 7.5 C 61 %
1504 24-01-2015 12:39:16 7.5 C 62 %
1505 24-01-2015 12:51:17 7.5 C 62 %
1506 24-01-2015 13:03:16 7.5 C 62 %
1507 24-01-2015 13:15:17 7.5 C 62 %
1508 24-01-2015 13:27:17 7.5 C 62 %
1509 24-01-2015 13:39:16 7.5 C 62 %
1510 24-01-2015 13:51:16 7.5 C 62 %
1511 24-01-2015 14:03:16 7.4 C 62 %
1512 24-01-2015 14:15:16 7.5 C 62 %
1513 24-01-2015 14:27:16 7.4 C 63 %
1514 24-01-2015 14:39:16 7.2 C 61 %
1515 24-01-2015 14:51:16 7 C 62 %
1516 24-01-2015 15:03:16 7 C 62 %
1517 24-01-2015 15:15:16 6.9 C 63 %
1518 24-01-2015 15:27:16 6.9 C 63 %
1519 24-01-2015 15:39:17 6.9 C 64 %
1520 24-01-2015 15:51:17 6.8 C 64 %
1521 24-01-2015 16:03:16 6.8 C 64 %
1522 24-01-2015 16:15:16 6.7 C 64 %
1523 24-01-2015 16:27:16 6.7 C 64 %
1524 24-01-2015 16:39:17 6.7 C 65 %
1525 24-01-2015 16:51:16 6.7 C 65 %
Sensor: Nr:Datum:Temp:Feuchte:
G-T/H 1526 24-01-2015 17:03:16 6.7 C 65 %
1527 24-01-2015 17:15:16 6.7 C 65 %
1528 24-01-2015 17:27:16 6.7 C 65 %
1529 24-01-2015 17:39:16 6.7 C 65 %
1530 24-01-2015 17:51:16 6.6 C 65 %
1531 24-01-2015 18:03:16 6.8 C 66 %
1532 24-01-2015 18:15:16 7.1 C 66 %
1533 24-01-2015 18:27:16 7.2 C 67 %
1534 24-01-2015 18:39:16 7.3 C 67 %
1535 24-01-2015 18:51:16 7.4 C 68 %
1536 24-01-2015 19:03:16 7.5 C 68 %
1537 24-01-2015 19:15:16 7.5 C 69 %
1538 24-01-2015 19:27:16 7.5 C 69 %
1539 24-01-2015 19:39:16 7.5 C 69 %
1540 24-01-2015 19:51:16 7.6 C 69 %
1541 24-01-2015 20:03:16 7.5 C 69 %
1542 24-01-2015 20:15:16 7.6 C 69 %
1543 24-01-2015 20:27:16 7.6 C 69 %
1544 24-01-2015 20:39:16 7.6 C 69 %
1545 24-01-2015 20:51:16 7.5 C 70 %
1546 24-01-2015 21:03:16 7.5 C 70 %
1547 24-01-2015 21:15:15 7.5 C 70 %
1548 24-01-2015 21:27:15 7.5 C 70 %
1549 24-01-2015 21:39:16 7.5 C 70 %
1550 24-01-2015 21:51:16 7.5 C 70 %
Sensor: Nr:Datum:Temp:Feuchte:
G-T/H 1551 24-01-2015 22:03:16 7.5 C 70 %
1552 24-01-2015 22:15:16 7.5 C 71 %
1553 24-01-2015 22:27:16 7.4 C 71 %
1554 24-01-2015 22:39:16 7.4 C 71 %
1555 24-01-2015 22:51:16 7.4 C 71 %
1556 24-01-2015 23:03:16 7.3 C 71 %
1557 24-01-2015 23:15:16 7.3 C 71 %
1558 24-01-2015 23:27:16 7.3 C 71 %
1559 24-01-2015 23:39:16 7.2 C 71 %
1560 24-01-2015 23:51:16 7.2 C 71 %
1561 25-01-2015 00:03:16 7.2 C 71 %
1562 25-01-2015 00:15:15 7.2 C 71 %
1563 25-01-2015 00:27:15 7.2 C 71 %
1564 25-01-2015 00:39:16 7.1 C 71 %
1565 25-01-2015 00:51:16 7.1 C 71 %
1566 25-01-2015 01:03:16 7.1 C 71 %
1567 25-01-2015 01:15:16 7.1 C 71 %
1568 25-01-2015 01:27:16 7.1 C 71 %
1569 25-01-2015 01:39:15 7.1 C 71 %
1570 25-01-2015 01:51:15 7.1 C 71 %
1571 25-01-2015 02:03:16 7.1 C 71 %
1572 25-01-2015 02:15:15 7.1 C 71 %
1573 25-01-2015 02:27:15 7 C 71 %
1574 25-01-2015 02:39:16 7 C 71 %
1575 25-01-2015 02:51:17 7 C 71 %
Sensor: Nr:Datum:Temp:Feuchte:
G-T/H 1576 25-01-2015 03:03:17 7 C 71 %
1577 25-01-2015 03:15:17 7 C 71 %
1578 25-01-2015 03:27:17 7 C 71 %
1579 25-01-2015 03:39:17 7 C 71 %
1580 25-01-2015 03:51:17 7 C 71 %
1581 25-01-2015 04:03:17 7 C 71 %
1582 25-01-2015 04:15:17 7 C 71 %
1583 25-01-2015 04:27:17 7 C 71 %
1584 25-01-2015 04:39:17 7 C 71 %
1585 25-01-2015 04:51:17 7 C 71 %
1586 25-01-2015 05:03:17 7 C 71 %
1587 25-01-2015 05:15:17 7 C 71 %
1588 25-01-2015 05:27:17 6.9 C 72 %
1589 25-01-2015 05:39:17 6.9 C 72 %
1590 25-01-2015 05:51:17 6.9 C 72 %
1591 25-01-2015 06:03:17 6.9 C 72 %
1592 25-01-2015 06:15:17 6.9 C 72 %
1593 25-01-2015 06:27:17 6.8 C 72 %
1594 25-01-2015 06:39:17 6.8 C 71 %
1595 25-01-2015 06:51:17 6.7 C 71 %
1596 25-01-2015 07:03:17 6.7 C 70 %
1597 25-01-2015 07:15:17 6.7 C 70 %
1598 25-01-2015 07:27:17 6.6 C 70 %
1599 25-01-2015 07:39:17 6.6 C 69 %
1600 25-01-2015 07:51:17 6.6 C 69 %
Sensor: Nr:Datum:Temp:Feuchte:
G-T/H 1601 25-01-2015 08:03:17 6.5 C 69 %
1602 25-01-2015 08:15:17 6.6 C 69 %
1603 25-01-2015 08:27:17 6.6 C 70 %
1604 25-01-2015 08:39:17 6.7 C 70 %
1605 25-01-2015 08:51:17 6.6 C 70 %
1606 25-01-2015 09:03:17 6.7 C 70 %
1607 25-01-2015 09:15:17 6.7 C 71 %
1608 25-01-2015 09:27:17 6.7 C 71 %
1609 25-01-2015 09:39:17 6.7 C 71 %
1610 25-01-2015 09:51:17 6.7 C 71 %
1611 25-01-2015 10:03:17 6.7 C 71 %
1612 25-01-2015 10:15:17 6.7 C 71 %
1613 25-01-2015 10:27:17 6.7 C 71 %
1614 25-01-2015 10:39:17 6.7 C 71 %
1615 25-01-2015 10:51:17 6.7 C 72 %
1616 25-01-2015 11:03:17 6.7 C 72 %
1617 25-01-2015 11:15:17 6.7 C 72 %
1618 25-01-2015 11:27:17 6.8 C 72 %
1619 25-01-2015 11:39:17 6.8 C 72 %
1620 25-01-2015 11:51:17 6.8 C 72 %
1621 25-01-2015 12:03:17 6.8 C 72 %
1622 25-01-2015 12:15:17 6.8 C 72 %
1623 25-01-2015 12:27:17 6.8 C 72 %
1624 25-01-2015 12:39:17 6.8 C 72 %
1625 25-01-2015 12:51:17 6.8 C 72 %
Sensor: Nr:Datum:Temp:Feuchte:
G-T/H 1626 25-01-2015 13:03:17 6.8 C 72 %
1627 25-01-2015 13:15:17 6.8 C 72 %
1628 25-01-2015 13:27:17 6.8 C 72 %
1629 25-01-2015 13:39:17 6.8 C 72 %
1630 25-01-2015 13:51:17 6.8 C 72 %
1631 25-01-2015 14:03:17 6.8 C 72 %
1632 25-01-2015 14:15:17 6.8 C 72 %
1633 25-01-2015 14:27:17 6.8 C 72 %
1634 25-01-2015 14:39:16 6.8 C 72 %
1635 25-01-2015 14:51:17 6.8 C 72 %
1636 25-01-2015 15:03:17 6.8 C 72 %
1637 25-01-2015 15:15:17 6.8 C 72 %
1638 25-01-2015 15:27:17 6.6 C 71 %
1639 25-01-2015 15:39:17 5.9 C 69 %
1640 25-01-2015 15:51:17 6.2 C 69 %
1641 25-01-2015 16:03:17 6.6 C 70 %
1642 25-01-2015 16:15:17 6.9 C 71 %
1643 25-01-2015 16:27:17 7 C 71 %
1644 25-01-2015 16:39:17 7.2 C 71 %
1645 25-01-2015 16:51:17 7.2 C 71 %
1646 25-01-2015 17:03:17 7.3 C 72 %
1647 25-01-2015 17:15:17 7.4 C 72 %
1648 25-01-2015 17:27:17 7.5 C 72 %
1649 25-01-2015 17:39:17 7.5 C 72 %
1650 25-01-2015 17:51:17 7.5 C 72 %
Sensor: Nr:Datum:Temp:Feuchte:
G-T/H 1651 25-01-2015 18:03:17 7.5 C 72 %
1652 25-01-2015 18:15:16 7.6 C 72 %
1653 25-01-2015 18:27:16 7.6 C 72 %
1654 25-01-2015 18:39:17 7.6 C 72 %
1655 25-01-2015 18:51:17 7.6 C 72 %
1656 25-01-2015 19:03:17 7.5 C 71 %
1657 25-01-2015 19:15:17 7.4 C 71 %
1658 25-01-2015 19:27:17 7.5 C 71 %
1659 25-01-2015 19:39:17 7.5 C 71 %
1660 25-01-2015 19:51:17 7.4 C 71 %
1661 25-01-2015 20:03:17 7.3 C 71 %
1662 25-01-2015 20:15:17 7.2 C 71 %
1663 25-01-2015 20:27:17 7.1 C 71 %
1664 25-01-2015 20:39:17 7.1 C 71 %
1665 25-01-2015 20:51:17 7.1 C 71 %
1666 25-01-2015 21:03:17 7.1 C 72 %
1667 25-01-2015 21:15:17 7.1 C 72 %
1668 25-01-2015 21:27:17 7.1 C 72 %
1669 25-01-2015 21:39:17 7 C 72 %
1670 25-01-2015 21:51:17 7.1 C 72 %
1671 25-01-2015 22:03:17 7 C 72 %
1672 25-01-2015 22:15:17 7 C 72 %
1673 25-01-2015 22:27:17 7 C 72 %
1674 25-01-2015 22:39:17 7 C 72 %
1675 25-01-2015 22:51:17 7.3 C 72 %
Sensor: Nr:Datum:Temp:Feuchte:
G-T/H 1676 25-01-2015 23:03:17 7.5 C 73 %
1677 25-01-2015 23:15:17 7.6 C 74 %
1678 25-01-2015 23:27:17 7.6 C 74 %
1679 25-01-2015 23:39:17 7.6 C 74 %
1680 25-01-2015 23:51:17 7.6 C 74 %

Legende:
   Min
   Max


Maximal/Minimal-Werte vom 12.01.2015 - 25.01.2015

Sensor Min Max Avg
Temp
(Aussen-T/F)
-3.9 °C
21-01-2015  07:50:17
13.1 °C
13-01-2015  14:38:17
3.01 °C
Feuchte
(Aussen-T/F)
41 %
13-01-2015  14:02:17
95 %
17-01-2015  09:02:17
77.2 %
Temp
(G-T/H)
2 °C
21-01-2015  13:50:17
11.2 °C
13-01-2015  19:50:17
7.91 °C
Feuchte
(G-T/H)
56 %
21-01-2015  05:14:17
74 %
25-01-2015  23:15:17
66.66 %

Die Daten stammen von einer Davis Vantage Pro 2 Wetter-Station und werden unter Linux mit der Software wview2wettercgi und aufbereitet. Alle Angaben erfolgen ohne Gewähr für ihre Vollständigkeit oder Richtigkeit.
Kontakt: Rainer Krienke krienke@uni-koblenz.de . Meine Webseiten an der Uni Koblenz oder privat.
Version: $Revision: 0.78 $